SIA9424 WSSS-KJFK
Flight info
| Callsign | SIA9424 |
|---|---|
| Flight time | 17h 40m |
| Altitude | 32000 |
| Route | TOMAN5B TOMAN L625 AKMON/K0954F320 L625 ANOKI/N0513F320 L625 AKOTA/N0504F350 L625 MEVIN B462 KAZIK Y59 AZAMA Y57 YULIA/N0488F370 Y57 POROT Y577 MAKMU R580 OPULO DCT OMOTO R580 OPAKE/N0495F390 R580 ORCCA DCT SQA DCT 63N146W DCT HWKGV DCT 62N30/N0484F410 DCT 59N20 DCT ALGAR DCT YPA DCT 50N100W DCT 4690N DCT TWIGS DCT JHW Q476 WLKES PUCKY1 |
| Aircraft | A359/H-SDE1E2E3GHIJ1J2J3J5M1P2RWXYZ/LB1D1 |
Departure
| Time | 2026-05-08 13:44 |
|---|---|
| Airport | Singapore Changi Airport (WSSS) |
Arrival
| Time | 2026-05-09 07:25 |
|---|---|
| Airport | John F. Kennedy International Airport (KJFK) |
| Time | Latitude | Longitude | Altitude | Speed | Heading |
|---|---|---|---|---|---|
| 2026-05-08 13:19 | 1.36360 | 103.99416 | 36 ft | 0 kts | 323° |
| 2026-05-08 13:36 | 1.36344 | 103.99430 | 36 ft | 4 kts | 310° |
| 2026-05-08 13:37 | 1.36327 | 103.99451 | 36 ft | 4 kts | 318° |
| 2026-05-08 13:37 | 1.36310 | 103.99464 | 36 ft | 4 kts | 346° |
| 2026-05-08 13:37 | 1.36294 | 103.99459 | 36 ft | 3 kts | 53° |
| 2026-05-08 13:37 | 1.36278 | 103.99437 | 36 ft | 4 kts | 53° |
| 2026-05-08 13:38 | 1.36274 | 103.99431 | 36 ft | 5 kts | 53° |
| 2026-05-08 13:40 | 1.36285 | 103.99446 | 35 ft | 8 kts | 51° |
| 2026-05-08 13:40 | 1.36318 | 103.99489 | 36 ft | 7 kts | 53° |
| 2026-05-08 13:41 | 1.36340 | 103.99524 | 36 ft | 5 kts | 68° |
| 2026-05-08 13:41 | 1.36338 | 103.99549 | 36 ft | 3 kts | 106° |
| 2026-05-08 13:41 | 1.36323 | 103.99587 | 36 ft | 6 kts | 114° |
| 2026-05-08 13:41 | 1.36306 | 103.99624 | 36 ft | 10 kts | 114° |
| 2026-05-08 13:42 | 1.36274 | 103.99698 | 36 ft | 17 kts | 114° |
| 2026-05-08 13:42 | 1.36222 | 103.99818 | 36 ft | 18 kts | 112° |
| 2026-05-08 13:42 | 1.36202 | 103.99862 | 36 ft | 6 kts | 118° |
| 2026-05-08 13:42 | 1.36184 | 103.99878 | 36 ft | 1 kts | 153° |
| 2026-05-08 13:43 | 1.36170 | 103.99879 | 36 ft | 6 kts | 177° |
| 2026-05-08 13:43 | 1.36140 | 103.99873 | 36 ft | 2 kts | 194° |
| 2026-05-08 13:43 | 1.36108 | 103.99861 | 36 ft | 16 kts | 203° |
| 2026-05-08 13:43 | 1.35824 | 103.99742 | 36 ft | 75 kts | 202° |
| 2026-05-08 13:44 | 1.35161 | 103.99462 | 37 ft | 131 kts | 203° |
| 2026-05-08 13:44 | 1.34159 | 103.99039 | 43 ft | 180 kts | 202° |
| 2026-05-08 13:44 | 1.33045 | 103.98603 | 846 ft | 166 kts | 200° |
| 2026-05-08 13:44 | 1.31898 | 103.98193 | 1275 ft | 181 kts | 199° |
| 2026-05-08 13:45 | 1.30676 | 103.97753 | 1497 ft | 192 kts | 200° |
| 2026-05-08 13:45 | 1.29398 | 103.97257 | 1748 ft | 202 kts | 202° |
| 2026-05-08 13:45 | 1.28064 | 103.96703 | 1967 ft | 214 kts | 203° |
| 2026-05-08 13:45 | 1.26662 | 103.96056 | 2123 ft | 230 kts | 205° |
| 2026-05-08 13:46 | 1.25166 | 103.95361 | 2332 ft | 244 kts | 202° |
| 2026-05-08 13:46 | 1.23475 | 103.94994 | 2532 ft | 256 kts | 177° |
| 2026-05-08 13:46 | 1.21727 | 103.95401 | 2940 ft | 261 kts | 161° |
| 2026-05-08 13:46 | 1.20082 | 103.96180 | 3380 ft | 264 kts | 144° |
| 2026-05-08 13:47 | 1.18852 | 103.97537 | 3798 ft | 268 kts | 116° |
| 2026-05-08 13:47 | 1.18466 | 103.99346 | 4233 ft | 270 kts | 88° |
| 2026-05-08 13:47 | 1.18600 | 104.01225 | 4704 ft | 272 kts | 84° |
| 2026-05-08 13:47 | 1.18802 | 104.03115 | 5172 ft | 275 kts | 84° |
| 2026-05-08 13:48 | 1.19005 | 104.05019 | 5636 ft | 276 kts | 84° |
| 2026-05-08 13:48 | 1.19203 | 104.06937 | 6066 ft | 279 kts | 84° |
| 2026-05-08 13:48 | 1.19402 | 104.08876 | 6538 ft | 281 kts | 84° |
| 2026-05-08 13:48 | 1.19599 | 104.10826 | 6986 ft | 284 kts | 84° |
| 2026-05-08 13:49 | 1.19797 | 104.12793 | 7449 ft | 286 kts | 84° |
| 2026-05-08 13:49 | 1.19996 | 104.14774 | 7911 ft | 288 kts | 84° |
| 2026-05-08 13:49 | 1.20196 | 104.16771 | 8369 ft | 290 kts | 84° |
| 2026-05-08 13:49 | 1.20399 | 104.18782 | 8812 ft | 292 kts | 84° |
| 2026-05-08 13:50 | 1.20600 | 104.20805 | 9236 ft | 294 kts | 84° |
| 2026-05-08 13:50 | 1.20803 | 104.22845 | 9647 ft | 297 kts | 84° |
| 2026-05-08 13:50 | 1.21007 | 104.24906 | 10069 ft | 300 kts | 84° |
| 2026-05-08 13:50 | 1.21218 | 104.27015 | 10277 ft | 310 kts | 84° |
| 2026-05-08 13:51 | 1.21435 | 104.29196 | 10485 ft | 321 kts | 84° |
| 2026-05-08 13:51 | 1.21661 | 104.31452 | 10688 ft | 331 kts | 84° |
| 2026-05-08 13:51 | 1.21893 | 104.33778 | 10888 ft | 342 kts | 84° |
| 2026-05-08 13:51 | 1.22131 | 104.36173 | 11078 ft | 351 kts | 84° |
| 2026-05-08 13:52 | 1.22375 | 104.38633 | 11255 ft | 361 kts | 84° |
| 2026-05-08 13:52 | 1.22627 | 104.41159 | 11440 ft | 370 kts | 84° |
| 2026-05-08 13:52 | 1.22885 | 104.43746 | 11610 ft | 378 kts | 84° |
| 2026-05-08 13:52 | 1.23149 | 104.46388 | 11785 ft | 386 kts | 84° |
| 2026-05-08 13:53 | 1.23417 | 104.49083 | 11962 ft | 393 kts | 84° |
| 2026-05-08 13:53 | 1.23689 | 104.51812 | 12233 ft | 396 kts | 84° |
| 2026-05-08 13:53 | 1.23961 | 104.54563 | 12526 ft | 399 kts | 84° |
| 2026-05-08 13:53 | 1.24237 | 104.57329 | 12849 ft | 401 kts | 84° |
| 2026-05-08 13:54 | 1.24513 | 104.60102 | 13173 ft | 403 kts | 84° |
| 2026-05-08 13:54 | 1.24791 | 104.62889 | 13498 ft | 404 kts | 84° |
| 2026-05-08 13:54 | 1.25071 | 104.65691 | 13797 ft | 406 kts | 84° |
| 2026-05-08 13:54 | 1.25352 | 104.68503 | 14104 ft | 407 kts | 84° |
| 2026-05-08 13:55 | 1.25632 | 104.71320 | 14401 ft | 409 kts | 84° |
| 2026-05-08 13:55 | 1.25913 | 104.74147 | 14683 ft | 411 kts | 84° |
| 2026-05-08 13:55 | 1.26476 | 104.79811 | 15231 ft | 414 kts | 84° |
| 2026-05-08 13:56 | 1.26762 | 104.82678 | 15510 ft | 416 kts | 84° |
| 2026-05-08 13:56 | 1.27048 | 104.85556 | 15811 ft | 416 kts | 84° |
| 2026-05-08 13:56 | 1.27335 | 104.88441 | 16079 ft | 418 kts | 84° |
| 2026-05-08 13:56 | 1.27623 | 104.91340 | 16336 ft | 420 kts | 84° |
| 2026-05-08 13:57 | 1.27911 | 104.94243 | 16621 ft | 421 kts | 84° |
| 2026-05-08 13:57 | 1.28201 | 104.97162 | 16879 ft | 423 kts | 84° |
| 2026-05-08 13:57 | 1.28492 | 105.00092 | 17135 ft | 424 kts | 84° |
| 2026-05-08 13:57 | 1.28785 | 105.03031 | 17397 ft | 426 kts | 84° |
| 2026-05-08 13:58 | 1.29079 | 105.05981 | 17641 ft | 427 kts | 84° |
| 2026-05-08 13:58 | 1.29372 | 105.08939 | 17904 ft | 429 kts | 84° |
| 2026-05-08 13:58 | 1.29667 | 105.11908 | 18160 ft | 430 kts | 84° |
| 2026-05-08 13:58 | 1.29963 | 105.14886 | 18384 ft | 431 kts | 84° |
| 2026-05-08 13:59 | 1.30261 | 105.17874 | 18592 ft | 433 kts | 84° |
| 2026-05-08 13:59 | 1.30559 | 105.20873 | 18842 ft | 434 kts | 84° |
| 2026-05-08 13:59 | 1.30858 | 105.23881 | 19051 ft | 436 kts | 84° |
| 2026-05-08 13:59 | 1.31157 | 105.26898 | 19267 ft | 437 kts | 84° |
| 2026-05-08 14:00 | 1.31458 | 105.29928 | 19490 ft | 438 kts | 84° |
| 2026-05-08 14:00 | 1.31759 | 105.32962 | 19709 ft | 440 kts | 84° |
| 2026-05-08 14:00 | 1.32061 | 105.36007 | 19911 ft | 441 kts | 84° |
| 2026-05-08 14:00 | 1.32365 | 105.39062 | 20098 ft | 442 kts | 84° |
| 2026-05-08 14:01 | 1.32669 | 105.42122 | 20316 ft | 443 kts | 84° |
| 2026-05-08 14:01 | 1.32974 | 105.45197 | 20517 ft | 445 kts | 84° |
| 2026-05-08 14:01 | 1.33280 | 105.48278 | 20718 ft | 446 kts | 84° |
| 2026-05-08 14:01 | 1.33572 | 105.51218 | 20907 ft | 448 kts | 84° |
| 2026-05-08 14:02 | 1.33878 | 105.54306 | 21129 ft | 448 kts | 84° |
| 2026-05-08 14:02 | 1.34188 | 105.57423 | 21322 ft | 450 kts | 84° |
| 2026-05-08 14:02 | 1.34496 | 105.60530 | 21511 ft | 451 kts | 84° |
| 2026-05-08 14:02 | 1.34807 | 105.63663 | 21718 ft | 453 kts | 84° |
| 2026-05-08 14:03 | 1.35117 | 105.66796 | 21918 ft | 454 kts | 84° |
| 2026-05-08 14:03 | 1.35433 | 105.69940 | 22108 ft | 455 kts | 84° |
| 2026-05-08 14:03 | 1.35984 | 105.73053 | 22281 ft | 457 kts | 75° |
| 2026-05-08 14:03 | 1.37108 | 105.76018 | 22446 ft | 458 kts | 63° |
| 2026-05-08 14:04 | 1.38838 | 105.78696 | 22625 ft | 460 kts | 51° |
| 2026-05-08 14:04 | 1.41102 | 105.80962 | 22800 ft | 463 kts | 40° |
| 2026-05-08 14:04 | 1.43726 | 105.82828 | 22994 ft | 465 kts | 32° |
| 2026-05-08 14:04 | 1.46541 | 105.84432 | 23189 ft | 466 kts | 28° |
| 2026-05-08 14:05 | 1.49438 | 105.85899 | 23376 ft | 468 kts | 27° |
| 2026-05-08 14:05 | 1.52375 | 105.87325 | 23552 ft | 470 kts | 27° |
| 2026-05-08 14:05 | 1.55316 | 105.88755 | 23747 ft | 471 kts | 27° |
| 2026-05-08 14:05 | 1.58259 | 105.90211 | 23933 ft | 472 kts | 27° |
| 2026-05-08 14:06 | 1.61194 | 105.91691 | 24115 ft | 474 kts | 28° |
| 2026-05-08 14:06 | 1.64132 | 105.93194 | 24289 ft | 475 kts | 28° |
| 2026-05-08 14:06 | 1.67075 | 105.94714 | 24492 ft | 476 kts | 28° |
| 2026-05-08 14:06 | 1.70018 | 105.96239 | 24676 ft | 478 kts | 28° |
| 2026-05-08 14:07 | 1.72972 | 105.97772 | 24878 ft | 479 kts | 28° |
| 2026-05-08 14:07 | 1.75933 | 105.99308 | 25073 ft | 480 kts | 28° |
| 2026-05-08 14:07 | 1.78908 | 106.00851 | 25258 ft | 482 kts | 28° |
| 2026-05-08 14:07 | 1.81888 | 106.02395 | 25455 ft | 483 kts | 28° |
| 2026-05-08 14:08 | 1.84878 | 106.03944 | 25661 ft | 485 kts | 28° |
| 2026-05-08 14:08 | 1.87874 | 106.05496 | 25866 ft | 486 kts | 28° |
| 2026-05-08 14:08 | 1.90886 | 106.07056 | 26078 ft | 488 kts | 28° |
| 2026-05-08 14:08 | 1.93904 | 106.08624 | 26296 ft | 489 kts | 28° |
| 2026-05-08 14:09 | 1.96929 | 106.10191 | 26510 ft | 491 kts | 28° |
| 2026-05-08 14:09 | 1.99963 | 106.11758 | 26726 ft | 492 kts | 28° |
| 2026-05-08 14:09 | 2.02971 | 106.13311 | 26938 ft | 494 kts | 28° |
| 2026-05-08 14:09 | 2.06028 | 106.14890 | 27159 ft | 495 kts | 28° |
| 2026-05-08 14:10 | 2.09099 | 106.16477 | 27367 ft | 497 kts | 28° |
| 2026-05-08 14:10 | 2.12181 | 106.18069 | 27524 ft | 501 kts | 28° |
| 2026-05-08 14:10 | 2.15284 | 106.19674 | 27665 ft | 504 kts | 28° |
| 2026-05-08 14:10 | 2.18403 | 106.21289 | 27840 ft | 506 kts | 28° |
| 2026-05-08 14:11 | 2.21531 | 106.22907 | 28036 ft | 507 kts | 28° |
| 2026-05-08 14:11 | 2.24667 | 106.24531 | 28228 ft | 509 kts | 28° |
| 2026-05-08 14:11 | 2.27811 | 106.26159 | 28413 ft | 510 kts | 28° |
| 2026-05-08 14:11 | 2.30970 | 106.27793 | 28606 ft | 511 kts | 28° |
| 2026-05-08 14:12 | 2.34131 | 106.29428 | 28816 ft | 512 kts | 28° |
| 2026-05-08 14:12 | 2.37294 | 106.31065 | 29096 ft | 511 kts | 28° |
| 2026-05-08 14:12 | 2.40450 | 106.32698 | 29351 ft | 510 kts | 28° |
| 2026-05-08 14:12 | 2.43604 | 106.34330 | 29596 ft | 510 kts | 28° |
| 2026-05-08 14:13 | 2.46750 | 106.35957 | 29823 ft | 510 kts | 28° |
| 2026-05-08 14:13 | 2.49893 | 106.37586 | 30078 ft | 509 kts | 28° |
| 2026-05-08 14:13 | 2.53031 | 106.39211 | 30308 ft | 508 kts | 28° |
| 2026-05-08 14:13 | 2.56175 | 106.40838 | 30536 ft | 508 kts | 28° |
| 2026-05-08 14:14 | 2.59311 | 106.42467 | 30765 ft | 508 kts | 28° |
| 2026-05-08 14:14 | 2.62445 | 106.44090 | 30986 ft | 507 kts | 28° |
| 2026-05-08 14:14 | 2.65578 | 106.45710 | 31194 ft | 506 kts | 28° |
| 2026-05-08 14:14 | 2.68705 | 106.47328 | 31401 ft | 506 kts | 28° |
| 2026-05-08 14:15 | 2.71828 | 106.48945 | 31593 ft | 506 kts | 28° |
| 2026-05-08 14:15 | 2.74950 | 106.50563 | 31778 ft | 505 kts | 28° |
| 2026-05-08 14:15 | 2.78072 | 106.52185 | 31898 ft | 507 kts | 28° |
| 2026-05-08 14:16 | 2.84373 | 106.55447 | 31896 ft | 512 kts | 28° |
| 2026-05-08 14:16 | 2.90694 | 106.58722 | 31895 ft | 512 kts | 28° |
| 2026-05-08 14:17 | 2.97021 | 106.61984 | 31897 ft | 512 kts | 28° |
| 2026-05-08 14:17 | 3.03344 | 106.65255 | 31898 ft | 512 kts | 28° |
| 2026-05-08 14:18 | 3.09668 | 106.68531 | 31897 ft | 512 kts | 28° |
| 2026-05-08 14:18 | 3.14963 | 106.71274 | 31896 ft | 512 kts | 28° |
| 2026-05-08 14:19 | 3.22312 | 106.75079 | 31897 ft | 512 kts | 28° |
| 2026-05-08 14:19 | 3.27569 | 106.77802 | 31896 ft | 512 kts | 28° |
| 2026-05-08 14:20 | 3.33893 | 106.81078 | 31898 ft | 512 kts | 28° |
| 2026-05-08 14:20 | 3.40222 | 106.84357 | 31896 ft | 512 kts | 28° |
| 2026-05-08 14:21 | 3.46552 | 106.87636 | 31897 ft | 512 kts | 28° |
| 2026-05-08 14:21 | 3.52880 | 106.90915 | 31897 ft | 512 kts | 28° |
| 2026-05-08 14:22 | 3.58957 | 106.94613 | 31896 ft | 511 kts | 35° |
| 2026-05-08 14:22 | 3.64803 | 106.98671 | 31897 ft | 511 kts | 36° |
| 2026-05-08 14:23 | 3.70605 | 107.02790 | 31897 ft | 511 kts | 36° |
| 2026-05-08 14:23 | 3.76410 | 107.06911 | 31897 ft | 511 kts | 36° |
| 2026-05-08 14:24 | 3.82222 | 107.11024 | 31898 ft | 512 kts | 36° |
| 2026-05-08 14:24 | 3.88037 | 107.15130 | 31898 ft | 512 kts | 36° |
| 2026-05-08 14:25 | 3.93851 | 107.19238 | 31899 ft | 511 kts | 36° |
| 2026-05-08 14:25 | 3.99667 | 107.23347 | 31897 ft | 512 kts | 36° |
| 2026-05-08 14:26 | 4.05482 | 107.27457 | 31895 ft | 512 kts | 36° |
| 2026-05-08 14:26 | 4.11303 | 107.31571 | 31896 ft | 512 kts | 36° |
| 2026-05-08 14:27 | 4.17124 | 107.35686 | 31897 ft | 512 kts | 36° |
| 2026-05-08 14:27 | 4.22942 | 107.39799 | 31897 ft | 513 kts | 36° |
| 2026-05-08 14:28 | 4.28765 | 107.43920 | 31898 ft | 512 kts | 36° |
| 2026-05-08 14:28 | 4.34581 | 107.48035 | 31895 ft | 512 kts | 36° |
| 2026-05-08 14:29 | 4.40398 | 107.52150 | 31896 ft | 512 kts | 36° |
| 2026-05-08 14:29 | 4.46218 | 107.56268 | 31898 ft | 512 kts | 36° |
| 2026-05-08 14:30 | 4.52034 | 107.60387 | 31897 ft | 512 kts | 36° |
| 2026-05-08 14:30 | 4.57846 | 107.64502 | 31897 ft | 512 kts | 36° |
| 2026-05-08 14:31 | 4.63662 | 107.68620 | 31897 ft | 512 kts | 36° |
| 2026-05-08 14:31 | 4.69477 | 107.72738 | 31897 ft | 511 kts | 36° |
| 2026-05-08 14:32 | 4.78194 | 107.78914 | 31896 ft | 512 kts | 36° |
| 2026-05-08 14:32 | 4.84005 | 107.83030 | 31897 ft | 512 kts | 36° |
| 2026-05-08 14:33 | 4.89813 | 107.87150 | 31898 ft | 511 kts | 36° |
| 2026-05-08 14:33 | 4.95622 | 107.91270 | 31896 ft | 511 kts | 36° |
| 2026-05-08 14:34 | 5.01433 | 107.95387 | 31894 ft | 511 kts | 36° |
| 2026-05-08 14:34 | 5.07258 | 107.99478 | 31898 ft | 511 kts | 35° |
| 2026-05-08 14:35 | 5.13088 | 108.03565 | 31897 ft | 511 kts | 35° |
| 2026-05-08 14:35 | 5.18917 | 108.07655 | 31897 ft | 511 kts | 35° |
| 2026-05-08 14:36 | 5.24742 | 108.11745 | 31897 ft | 511 kts | 35° |
| 2026-05-08 14:36 | 5.30563 | 108.15837 | 31897 ft | 511 kts | 35° |
| 2026-05-08 14:37 | 5.36382 | 108.19931 | 31894 ft | 511 kts | 35° |
| 2026-05-08 14:37 | 5.42201 | 108.24024 | 31899 ft | 511 kts | 35° |
| 2026-05-08 14:38 | 5.48019 | 108.28117 | 31897 ft | 511 kts | 35° |
| 2026-05-08 14:38 | 5.53838 | 108.32213 | 31896 ft | 511 kts | 35° |
| 2026-05-08 14:39 | 5.59657 | 108.36309 | 31898 ft | 511 kts | 35° |
| 2026-05-08 14:39 | 5.65480 | 108.40407 | 31896 ft | 511 kts | 35° |
| 2026-05-08 14:40 | 5.71296 | 108.44503 | 31903 ft | 511 kts | 35° |
| 2026-05-08 14:40 | 5.77116 | 108.48601 | 31909 ft | 511 kts | 35° |
| 2026-05-08 14:41 | 5.82933 | 108.52699 | 31906 ft | 511 kts | 35° |
| 2026-05-08 14:41 | 5.88752 | 108.56800 | 31908 ft | 511 kts | 35° |
| 2026-05-08 14:42 | 5.94568 | 108.60902 | 31909 ft | 511 kts | 35° |
| 2026-05-08 14:42 | 6.00384 | 108.65003 | 31907 ft | 511 kts | 35° |
| 2026-05-08 14:43 | 6.06209 | 108.69110 | 31906 ft | 514 kts | 35° |
| 2026-05-08 14:43 | 6.12108 | 108.73270 | 31897 ft | 520 kts | 35° |
| 2026-05-08 14:44 | 6.18007 | 108.77432 | 31898 ft | 522 kts | 35° |
| 2026-05-08 14:44 | 6.23961 | 108.81637 | 31897 ft | 524 kts | 35° |
| 2026-05-08 14:45 | 6.29971 | 108.85880 | 31897 ft | 525 kts | 35° |
| 2026-05-08 14:45 | 6.35908 | 108.90074 | 31898 ft | 525 kts | 35° |
| 2026-05-08 14:46 | 6.41888 | 108.94299 | 31904 ft | 525 kts | 35° |
| 2026-05-08 14:46 | 6.47867 | 108.98523 | 31904 ft | 525 kts | 35° |
| 2026-05-08 14:47 | 6.53849 | 109.02752 | 31909 ft | 526 kts | 35° |
| 2026-05-08 14:47 | 6.59833 | 109.06984 | 31905 ft | 526 kts | 35° |
| 2026-05-08 14:48 | 6.65814 | 109.11215 | 31905 ft | 526 kts | 35° |
| 2026-05-08 14:48 | 6.71796 | 109.15447 | 31905 ft | 526 kts | 35° |
| 2026-05-08 14:49 | 6.77778 | 109.19681 | 31908 ft | 526 kts | 35° |
| 2026-05-08 14:49 | 6.83757 | 109.23913 | 31903 ft | 526 kts | 35° |
| 2026-05-08 14:50 | 6.89741 | 109.28151 | 31888 ft | 526 kts | 35° |
| 2026-05-08 14:50 | 6.95718 | 109.32386 | 31888 ft | 525 kts | 35° |
| 2026-05-08 14:51 | 7.01694 | 109.36622 | 31887 ft | 525 kts | 35° |
| 2026-05-08 14:51 | 7.07673 | 109.40859 | 31886 ft | 525 kts | 35° |
| 2026-05-08 14:52 | 7.16636 | 109.47220 | 31889 ft | 526 kts | 35° |
| 2026-05-08 14:53 | 7.22615 | 109.51460 | 31887 ft | 525 kts | 35° |
| 2026-05-08 14:53 | 7.28589 | 109.55696 | 31889 ft | 525 kts | 35° |
| 2026-05-08 14:54 | 7.34557 | 109.59933 | 31887 ft | 524 kts | 35° |
| 2026-05-08 14:54 | 7.40522 | 109.64169 | 31888 ft | 524 kts | 35° |
| 2026-05-08 14:55 | 7.46488 | 109.68408 | 31888 ft | 525 kts | 35° |
| 2026-05-08 14:55 | 7.52459 | 109.72650 | 31887 ft | 525 kts | 35° |
| 2026-05-08 14:56 | 7.58422 | 109.76890 | 31898 ft | 525 kts | 35° |
| 2026-05-08 14:56 | 7.64383 | 109.81130 | 31920 ft | 524 kts | 35° |
| 2026-05-08 14:57 | 7.70346 | 109.85372 | 31917 ft | 524 kts | 35° |
| 2026-05-08 14:57 | 7.76311 | 109.89617 | 31929 ft | 524 kts | 35° |
| 2026-05-08 14:58 | 7.82272 | 109.93860 | 31931 ft | 525 kts | 35° |
| 2026-05-08 14:58 | 7.88233 | 109.98105 | 31923 ft | 525 kts | 35° |
| 2026-05-08 14:59 | 7.94196 | 110.02355 | 31923 ft | 525 kts | 35° |
| 2026-05-08 14:59 | 8.03137 | 110.08726 | 31923 ft | 525 kts | 35° |
| 2026-05-08 15:00 | 8.08091 | 110.12257 | 31925 ft | 525 kts | 35° |
| 2026-05-08 15:00 | 8.14053 | 110.16511 | 31923 ft | 525 kts | 35° |
| 2026-05-08 15:01 | 8.21019 | 110.21483 | 31923 ft | 525 kts | 35° |
| 2026-05-08 15:01 | 8.25967 | 110.25031 | 31925 ft | 525 kts | 35° |
| 2026-05-08 15:02 | 8.31911 | 110.29314 | 31927 ft | 525 kts | 35° |
| 2026-05-08 15:02 | 8.37848 | 110.33595 | 31933 ft | 525 kts | 35° |
| 2026-05-08 15:03 | 8.43793 | 110.37882 | 31924 ft | 526 kts | 35° |
| 2026-05-08 15:03 | 8.49748 | 110.42176 | 31940 ft | 526 kts | 35° |
| 2026-05-08 15:04 | 8.55699 | 110.46470 | 31942 ft | 526 kts | 36° |
| 2026-05-08 15:04 | 8.61649 | 110.50765 | 31937 ft | 526 kts | 35° |
| 2026-05-08 15:05 | 8.67607 | 110.55065 | 31928 ft | 526 kts | 35° |
| 2026-05-08 15:05 | 8.73561 | 110.59363 | 31946 ft | 526 kts | 35° |
| 2026-05-08 15:06 | 8.79517 | 110.63666 | 31929 ft | 526 kts | 35° |
| 2026-05-08 15:06 | 8.85470 | 110.67968 | 31946 ft | 526 kts | 35° |
| 2026-05-08 15:07 | 8.91421 | 110.72268 | 31929 ft | 526 kts | 35° |
| 2026-05-08 15:07 | 8.97379 | 110.76577 | 31939 ft | 526 kts | 36° |
| 2026-05-08 15:08 | 9.03333 | 110.80887 | 31939 ft | 526 kts | 36° |
| 2026-05-08 15:08 | 9.09287 | 110.85194 | 31928 ft | 526 kts | 36° |
| 2026-05-08 15:09 | 9.15233 | 110.89502 | 31928 ft | 526 kts | 36° |
| 2026-05-08 15:09 | 9.21181 | 110.93815 | 31928 ft | 526 kts | 36° |
| 2026-05-08 15:10 | 9.27128 | 110.98125 | 31932 ft | 525 kts | 36° |
| 2026-05-08 15:10 | 9.33066 | 111.02431 | 31947 ft | 525 kts | 36° |
| 2026-05-08 15:11 | 9.39044 | 111.06767 | 31930 ft | 525 kts | 36° |
| 2026-05-08 15:11 | 9.44984 | 111.11078 | 31934 ft | 525 kts | 36° |
| 2026-05-08 15:12 | 9.50884 | 111.15362 | 31945 ft | 525 kts | 36° |
| 2026-05-08 15:12 | 9.56822 | 111.19677 | 31936 ft | 525 kts | 36° |
| 2026-05-08 15:13 | 9.62758 | 111.23992 | 31945 ft | 525 kts | 36° |
| 2026-05-08 15:13 | 9.68697 | 111.28306 | 31929 ft | 525 kts | 36° |
| 2026-05-08 15:14 | 9.74632 | 111.32623 | 31946 ft | 525 kts | 36° |
| 2026-05-08 15:14 | 9.80568 | 111.36944 | 31931 ft | 525 kts | 36° |
| 2026-05-08 15:15 | 9.86503 | 111.41265 | 31948 ft | 525 kts | 36° |
| 2026-05-08 15:15 | 9.92480 | 111.45617 | 31929 ft | 526 kts | 36° |
| 2026-05-08 15:16 | 9.98420 | 111.49946 | 31947 ft | 526 kts | 36° |
| 2026-05-08 15:16 | 10.04316 | 111.54245 | 31948 ft | 525 kts | 36° |
| 2026-05-08 15:17 | 10.10252 | 111.58576 | 31947 ft | 525 kts | 36° |
| 2026-05-08 15:17 | 10.16184 | 111.62905 | 31945 ft | 525 kts | 36° |
| 2026-05-08 15:18 | 10.22119 | 111.67237 | 31938 ft | 525 kts | 36° |
| 2026-05-08 15:18 | 10.28052 | 111.71570 | 31946 ft | 525 kts | 36° |
| 2026-05-08 15:19 | 10.33988 | 111.75907 | 31929 ft | 525 kts | 36° |
| 2026-05-08 15:19 | 10.39958 | 111.80271 | 31945 ft | 525 kts | 36° |
| 2026-05-08 15:20 | 10.45885 | 111.84605 | 31929 ft | 525 kts | 36° |
| 2026-05-08 15:20 | 10.51812 | 111.88946 | 31948 ft | 525 kts | 36° |
| 2026-05-08 15:21 | 10.57741 | 111.93286 | 31946 ft | 525 kts | 36° |
| 2026-05-08 15:21 | 10.63662 | 111.97625 | 31947 ft | 525 kts | 36° |
| 2026-05-08 15:22 | 10.69589 | 112.01967 | 31933 ft | 525 kts | 36° |
| 2026-05-08 15:22 | 10.75515 | 112.06311 | 31947 ft | 525 kts | 36° |
| 2026-05-08 15:23 | 10.81442 | 112.10660 | 31930 ft | 525 kts | 36° |
| 2026-05-08 15:23 | 10.87321 | 112.14976 | 31947 ft | 525 kts | 36° |
| 2026-05-08 15:24 | 10.93248 | 112.19327 | 31928 ft | 525 kts | 36° |
| 2026-05-08 15:24 | 10.99168 | 112.23671 | 31929 ft | 524 kts | 36° |
| 2026-05-08 15:25 | 11.05096 | 112.28002 | 31932 ft | 525 kts | 36° |
| 2026-05-08 15:25 | 11.11028 | 112.32334 | 31932 ft | 525 kts | 36° |
| 2026-05-08 15:26 | 11.16956 | 112.36672 | 31934 ft | 525 kts | 36° |
| 2026-05-08 15:26 | 11.22880 | 112.41012 | 31933 ft | 524 kts | 36° |
| 2026-05-08 15:27 | 11.28799 | 112.45349 | 31929 ft | 524 kts | 36° |
| 2026-05-08 15:27 | 11.34720 | 112.49691 | 31929 ft | 524 kts | 36° |
| 2026-05-08 15:28 | 11.40639 | 112.54033 | 31932 ft | 524 kts | 36° |
| 2026-05-08 15:28 | 11.46553 | 112.58374 | 31934 ft | 524 kts | 36° |
| 2026-05-08 15:29 | 11.52460 | 112.62728 | 31932 ft | 524 kts | 36° |
| 2026-05-08 15:29 | 11.58369 | 112.67079 | 31929 ft | 524 kts | 36° |
| 2026-05-08 15:30 | 11.64271 | 112.71428 | 31928 ft | 523 kts | 36° |
| 2026-05-08 15:30 | 11.70175 | 112.75784 | 31930 ft | 524 kts | 36° |
| 2026-05-08 15:31 | 11.76077 | 112.80137 | 31947 ft | 523 kts | 36° |
| 2026-05-08 15:31 | 11.81979 | 112.84495 | 31929 ft | 523 kts | 36° |
| 2026-05-08 15:32 | 11.87877 | 112.88853 | 31929 ft | 523 kts | 36° |
| 2026-05-08 15:32 | 11.93775 | 112.93212 | 31932 ft | 523 kts | 36° |
| 2026-05-08 15:33 | 11.99673 | 112.97573 | 31928 ft | 523 kts | 36° |
| 2026-05-08 15:33 | 12.05568 | 113.01934 | 31947 ft | 523 kts | 36° |
| 2026-05-08 15:34 | 12.11459 | 113.06296 | 31953 ft | 522 kts | 36° |
| 2026-05-08 15:34 | 12.17345 | 113.10659 | 31953 ft | 523 kts | 36° |
| 2026-05-08 15:35 | 12.23232 | 113.15025 | 31952 ft | 523 kts | 36° |
| 2026-05-08 15:35 | 12.29117 | 113.19389 | 31952 ft | 523 kts | 36° |
| 2026-05-08 15:36 | 12.34009 | 113.23020 | 31951 ft | 523 kts | 36° |
| 2026-05-08 15:36 | 12.40885 | 113.28128 | 31955 ft | 522 kts | 36° |
| 2026-05-08 15:37 | 12.46773 | 113.32486 | 31951 ft | 522 kts | 36° |
| 2026-05-08 15:37 | 12.52662 | 113.36849 | 31953 ft | 523 kts | 36° |
| 2026-05-08 15:38 | 12.58549 | 113.41217 | 31953 ft | 523 kts | 36° |
| 2026-05-08 15:38 | 12.64434 | 113.45586 | 31953 ft | 523 kts | 36° |
| 2026-05-08 15:39 | 12.70318 | 113.49960 | 31952 ft | 523 kts | 36° |
| 2026-05-08 15:39 | 12.76204 | 113.54339 | 31953 ft | 523 kts | 36° |
| 2026-05-08 15:40 | 12.82087 | 113.58716 | 31953 ft | 523 kts | 36° |
| 2026-05-08 15:40 | 12.87969 | 113.63094 | 31954 ft | 523 kts | 36° |
| 2026-05-08 15:41 | 12.93851 | 113.67474 | 31952 ft | 523 kts | 36° |
| 2026-05-08 15:41 | 12.98737 | 113.71115 | 31954 ft | 523 kts | 36° |
| 2026-05-08 15:42 | 13.04618 | 113.75501 | 31951 ft | 523 kts | 36° |
| 2026-05-08 15:42 | 13.10501 | 113.79890 | 31953 ft | 523 kts | 36° |
| 2026-05-08 15:43 | 13.16383 | 113.84281 | 31954 ft | 523 kts | 36° |
| 2026-05-08 15:43 | 13.22266 | 113.88676 | 31953 ft | 523 kts | 36° |
| 2026-05-08 15:44 | 13.28154 | 113.93074 | 31952 ft | 523 kts | 36° |
| 2026-05-08 15:44 | 13.34039 | 113.97476 | 31952 ft | 523 kts | 36° |
| 2026-05-08 15:45 | 13.39919 | 114.01877 | 31954 ft | 523 kts | 36° |
| 2026-05-08 15:45 | 13.45802 | 114.06282 | 31954 ft | 523 kts | 36° |
| 2026-05-08 15:46 | 13.51680 | 114.10687 | 31953 ft | 523 kts | 36° |
| 2026-05-08 15:46 | 13.57559 | 114.15097 | 31954 ft | 523 kts | 36° |
| 2026-05-08 15:47 | 13.63437 | 114.19508 | 31954 ft | 523 kts | 36° |
| 2026-05-08 15:47 | 13.69316 | 114.23920 | 31952 ft | 523 kts | 36° |
| 2026-05-08 15:48 | 13.78138 | 114.30548 | 31954 ft | 523 kts | 36° |
| 2026-05-08 15:49 | 13.84018 | 114.34969 | 31952 ft | 524 kts | 36° |
| 2026-05-08 15:49 | 13.89900 | 114.39392 | 31952 ft | 523 kts | 36° |
| 2026-05-08 15:50 | 13.95762 | 114.43838 | 31950 ft | 523 kts | 39° |
| 2026-05-08 15:50 | 14.01029 | 114.48996 | 31954 ft | 523 kts | 46° |
| 2026-05-08 15:51 | 14.06051 | 114.54412 | 31951 ft | 523 kts | 46° |
| 2026-05-08 15:51 | 14.11031 | 114.59873 | 31951 ft | 523 kts | 47° |
| 2026-05-08 15:52 | 14.16018 | 114.65333 | 31952 ft | 523 kts | 46° |
| 2026-05-08 15:52 | 14.21008 | 114.70786 | 31951 ft | 523 kts | 46° |
| 2026-05-08 15:53 | 14.25999 | 114.76236 | 31951 ft | 523 kts | 46° |
| 2026-05-08 15:53 | 14.30987 | 114.81687 | 31954 ft | 522 kts | 46° |
| 2026-05-08 15:54 | 14.35972 | 114.87135 | 31954 ft | 522 kts | 46° |
| 2026-05-08 15:54 | 14.40954 | 114.92585 | 31953 ft | 522 kts | 46° |
| 2026-05-08 15:55 | 14.45934 | 114.98037 | 31951 ft | 522 kts | 46° |
| 2026-05-08 15:55 | 14.53397 | 115.06216 | 31954 ft | 522 kts | 46° |
| 2026-05-08 15:56 | 14.58372 | 115.11669 | 31953 ft | 521 kts | 46° |
| 2026-05-08 15:56 | 14.63341 | 115.17119 | 31954 ft | 521 kts | 46° |
| 2026-05-08 15:57 | 14.68309 | 115.22579 | 31954 ft | 522 kts | 46° |
| 2026-05-08 15:57 | 14.73277 | 115.28044 | 31951 ft | 522 kts | 46° |
| 2026-05-08 15:58 | 14.78244 | 115.33506 | 31953 ft | 521 kts | 46° |
| 2026-05-08 15:58 | 14.83209 | 115.38969 | 31953 ft | 521 kts | 46° |
| 2026-05-08 15:59 | 14.88172 | 115.44434 | 31960 ft | 521 kts | 46° |
| 2026-05-08 15:59 | 14.93133 | 115.49901 | 31963 ft | 521 kts | 46° |
| 2026-05-08 16:00 | 14.98091 | 115.55374 | 31962 ft | 521 kts | 47° |
| 2026-05-08 16:00 | 15.03042 | 115.60839 | 31961 ft | 521 kts | 46° |
| 2026-05-08 16:01 | 15.07963 | 115.66273 | 31962 ft | 521 kts | 46° |
| 2026-05-08 16:01 | 15.12945 | 115.71779 | 31962 ft | 520 kts | 46° |
| 2026-05-08 16:02 | 15.17892 | 115.77255 | 31962 ft | 521 kts | 47° |
| 2026-05-08 16:02 | 15.22839 | 115.82731 | 31961 ft | 520 kts | 47° |
| 2026-05-08 16:03 | 15.27778 | 115.88203 | 31932 ft | 520 kts | 47° |
| 2026-05-08 16:03 | 15.32717 | 115.93681 | 31949 ft | 520 kts | 47° |
| 2026-05-08 16:04 | 15.37658 | 115.99163 | 31936 ft | 521 kts | 47° |
| 2026-05-08 16:04 | 15.42598 | 116.04649 | 31947 ft | 520 kts | 47° |
| 2026-05-08 16:05 | 15.47532 | 116.10131 | 31948 ft | 520 kts | 47° |
| 2026-05-08 16:05 | 15.52468 | 116.15617 | 31947 ft | 520 kts | 47° |
| 2026-05-08 16:06 | 15.57397 | 116.21101 | 31947 ft | 520 kts | 47° |
| 2026-05-08 16:06 | 15.62324 | 116.26589 | 31947 ft | 520 kts | 47° |
| 2026-05-08 16:07 | 15.67252 | 116.32083 | 31948 ft | 520 kts | 47° |
| 2026-05-08 16:07 | 15.72182 | 116.37582 | 31929 ft | 520 kts | 47° |
| 2026-05-08 16:08 | 15.77102 | 116.43076 | 31949 ft | 520 kts | 47° |
| 2026-05-08 16:08 | 15.82029 | 116.48578 | 31929 ft | 520 kts | 47° |
| 2026-05-08 16:09 | 15.86122 | 116.53153 | 31946 ft | 520 kts | 47° |
| 2026-05-08 16:09 | 15.91832 | 116.59543 | 31948 ft | 520 kts | 47° |
| 2026-05-08 16:10 | 15.96753 | 116.65052 | 31946 ft | 520 kts | 47° |
| 2026-05-08 16:10 | 16.01675 | 116.70564 | 31948 ft | 520 kts | 47° |
| 2026-05-08 16:11 | 16.06596 | 116.76083 | 31927 ft | 520 kts | 47° |
| 2026-05-08 16:11 | 16.11516 | 116.81604 | 31947 ft | 521 kts | 47° |
| 2026-05-08 16:12 | 16.16438 | 116.87134 | 31927 ft | 521 kts | 47° |
| 2026-05-08 16:12 | 16.21352 | 116.92658 | 31938 ft | 521 kts | 47° |
| 2026-05-08 16:13 | 16.26269 | 116.98191 | 31946 ft | 521 kts | 47° |
| 2026-05-08 16:13 | 16.31194 | 117.03737 | 31947 ft | 521 kts | 47° |
| 2026-05-08 16:14 | 16.36070 | 117.09232 | 31948 ft | 521 kts | 47° |
| 2026-05-08 16:14 | 16.41027 | 117.14822 | 31928 ft | 521 kts | 47° |
| 2026-05-08 16:15 | 16.45946 | 117.20374 | 31947 ft | 522 kts | 47° |
| 2026-05-08 16:15 | 16.50837 | 117.25897 | 31955 ft | 522 kts | 47° |
| 2026-05-08 16:16 | 16.55752 | 117.31451 | 31956 ft | 522 kts | 47° |
| 2026-05-08 16:16 | 16.60676 | 117.37022 | 31953 ft | 522 kts | 47° |
| 2026-05-08 16:17 | 16.64767 | 117.41656 | 31953 ft | 522 kts | 47° |
| 2026-05-08 16:17 | 16.70512 | 117.48168 | 31953 ft | 522 kts | 47° |
| 2026-05-08 16:18 | 16.75433 | 117.53750 | 31954 ft | 522 kts | 47° |
| 2026-05-08 16:18 | 16.80351 | 117.59333 | 31955 ft | 522 kts | 47° |
| 2026-05-08 16:19 | 16.85263 | 117.64915 | 31926 ft | 522 kts | 47° |
| 2026-05-08 16:19 | 16.90179 | 117.70501 | 31928 ft | 522 kts | 47° |
| 2026-05-08 16:20 | 16.95092 | 117.76090 | 31930 ft | 523 kts | 47° |
| 2026-05-08 16:20 | 17.00007 | 117.81690 | 31928 ft | 523 kts | 47° |
| 2026-05-08 16:21 | 17.04914 | 117.87285 | 31927 ft | 523 kts | 47° |
| 2026-05-08 16:21 | 17.09833 | 117.92894 | 31928 ft | 523 kts | 47° |
| 2026-05-08 16:22 | 17.13919 | 117.97559 | 31927 ft | 523 kts | 47° |
| 2026-05-08 16:22 | 17.19660 | 118.04119 | 31932 ft | 523 kts | 47° |
| 2026-05-08 16:23 | 17.24574 | 118.09738 | 31926 ft | 524 kts | 47° |
| 2026-05-08 16:23 | 17.29481 | 118.15355 | 31927 ft | 524 kts | 47° |
| 2026-05-08 16:24 | 17.34393 | 118.20983 | 31990 ft | 521 kts | 47° |
| 2026-05-08 16:24 | 17.36821 | 118.23768 | 32344 ft | 515 kts | 47° |
| 2026-05-08 16:24 | 17.39223 | 118.26524 | 32698 ft | 510 kts | 47° |
| 2026-05-08 16:25 | 17.40804 | 118.28340 | 32883 ft | 509 kts | 47° |
| 2026-05-08 16:25 | 17.43186 | 118.31075 | 33096 ft | 508 kts | 47° |
| 2026-05-08 16:25 | 17.45559 | 118.33800 | 33302 ft | 506 kts | 47° |
| 2026-05-08 16:25 | 17.47930 | 118.36523 | 33488 ft | 505 kts | 47° |
| 2026-05-08 16:26 | 17.50299 | 118.39244 | 33660 ft | 505 kts | 47° |
| 2026-05-08 16:26 | 17.52660 | 118.41959 | 33834 ft | 504 kts | 47° |
| 2026-05-08 16:26 | 17.55015 | 118.44666 | 34003 ft | 503 kts | 47° |
| 2026-05-08 16:26 | 17.57371 | 118.47376 | 34172 ft | 502 kts | 47° |
| 2026-05-08 16:27 | 17.59720 | 118.50078 | 34328 ft | 502 kts | 47° |
| 2026-05-08 16:27 | 17.62071 | 118.52786 | 34431 ft | 502 kts | 47° |
| 2026-05-08 16:27 | 17.64415 | 118.55488 | 34559 ft | 502 kts | 47° |
| 2026-05-08 16:27 | 17.66762 | 118.58193 | 34694 ft | 501 kts | 47° |
| 2026-05-08 16:28 | 17.69103 | 118.60893 | 34804 ft | 501 kts | 47° |
| 2026-05-08 16:28 | 17.71449 | 118.63600 | 34914 ft | 501 kts | 47° |
| 2026-05-08 16:28 | 17.76142 | 118.69014 | 34933 ft | 501 kts | 47° |
| 2026-05-08 16:29 | 17.80830 | 118.74430 | 34925 ft | 501 kts | 47° |
| 2026-05-08 16:29 | 17.85513 | 118.79845 | 34924 ft | 501 kts | 47° |
| 2026-05-08 16:30 | 17.90198 | 118.85265 | 34924 ft | 501 kts | 47° |
| 2026-05-08 16:30 | 17.94885 | 118.90691 | 34925 ft | 503 kts | 47° |
| 2026-05-08 16:31 | 17.99601 | 118.96158 | 34924 ft | 506 kts | 47° |
| 2026-05-08 16:31 | 18.04331 | 119.01652 | 34924 ft | 507 kts | 47° |
| 2026-05-08 16:32 | 18.09070 | 119.07154 | 34925 ft | 508 kts | 47° |
| 2026-05-08 16:32 | 18.13813 | 119.12662 | 34924 ft | 508 kts | 47° |
| 2026-05-08 16:33 | 18.18552 | 119.18173 | 34924 ft | 508 kts | 47° |
| 2026-05-08 16:33 | 18.23292 | 119.23692 | 34924 ft | 508 kts | 47° |
| 2026-05-08 16:34 | 18.28030 | 119.29214 | 34928 ft | 508 kts | 47° |
| 2026-05-08 16:34 | 18.32770 | 119.34745 | 34925 ft | 509 kts | 47° |
| 2026-05-08 16:35 | 18.37476 | 119.40236 | 34915 ft | 508 kts | 47° |
| 2026-05-08 16:35 | 18.42211 | 119.45769 | 34915 ft | 508 kts | 47° |
| 2026-05-08 16:36 | 18.46940 | 119.51299 | 34915 ft | 508 kts | 47° |
| 2026-05-08 16:36 | 18.51668 | 119.56829 | 34915 ft | 508 kts | 47° |
| 2026-05-08 16:37 | 18.56394 | 119.62367 | 34915 ft | 508 kts | 47° |
| 2026-05-08 16:37 | 18.61151 | 119.67943 | 34916 ft | 508 kts | 47° |
| 2026-05-08 16:38 | 18.65847 | 119.73453 | 34915 ft | 508 kts | 47° |
| 2026-05-08 16:38 | 18.70567 | 119.79002 | 34916 ft | 508 kts | 47° |
| 2026-05-08 16:39 | 18.75289 | 119.84555 | 34916 ft | 508 kts | 47° |
| 2026-05-08 16:39 | 18.80010 | 119.90110 | 34915 ft | 509 kts | 47° |
| 2026-05-08 16:40 | 18.84740 | 119.95681 | 34915 ft | 509 kts | 47° |
| 2026-05-08 16:40 | 18.89460 | 120.01250 | 34915 ft | 509 kts | 47° |
| 2026-05-08 16:41 | 18.94181 | 120.06820 | 34915 ft | 510 kts | 47° |
| 2026-05-08 16:42 | 19.01285 | 120.15206 | 34915 ft | 510 kts | 47° |
| 2026-05-08 16:42 | 19.06013 | 120.20799 | 34915 ft | 510 kts | 47° |
| 2026-05-08 16:43 | 19.10743 | 120.26402 | 34924 ft | 511 kts | 47° |
| 2026-05-08 16:43 | 19.15471 | 120.32005 | 34924 ft | 511 kts | 47° |
| 2026-05-08 16:44 | 19.20203 | 120.37613 | 34925 ft | 511 kts | 47° |
| 2026-05-08 16:44 | 19.24934 | 120.43229 | 34925 ft | 511 kts | 47° |
| 2026-05-08 16:45 | 19.29667 | 120.48856 | 34924 ft | 511 kts | 47° |
| 2026-05-08 16:45 | 19.34392 | 120.54478 | 34925 ft | 512 kts | 47° |
| 2026-05-08 16:46 | 19.39130 | 120.60116 | 34927 ft | 512 kts | 47° |
| 2026-05-08 16:46 | 19.43859 | 120.65748 | 34924 ft | 512 kts | 47° |
| 2026-05-08 16:47 | 19.48587 | 120.71387 | 34924 ft | 512 kts | 47° |
| 2026-05-08 16:47 | 19.53313 | 120.77034 | 34926 ft | 512 kts | 47° |
| 2026-05-08 16:48 | 19.58032 | 120.82675 | 34931 ft | 512 kts | 47° |
| 2026-05-08 16:48 | 19.62759 | 120.88330 | 34933 ft | 512 kts | 47° |
| 2026-05-08 16:49 | 19.67480 | 120.93983 | 34933 ft | 512 kts | 47° |
| 2026-05-08 16:49 | 19.72198 | 120.99641 | 34934 ft | 512 kts | 47° |
| 2026-05-08 16:50 | 19.76916 | 121.05304 | 34933 ft | 512 kts | 47° |
| 2026-05-08 16:50 | 19.81637 | 121.10970 | 34933 ft | 512 kts | 47° |
| 2026-05-08 16:51 | 19.86321 | 121.16599 | 34933 ft | 512 kts | 47° |
| 2026-05-08 16:51 | 19.91068 | 121.22314 | 34939 ft | 512 kts | 47° |
| 2026-05-08 16:52 | 19.95748 | 121.27950 | 34940 ft | 512 kts | 47° |
| 2026-05-08 16:52 | 20.00461 | 121.33629 | 34934 ft | 513 kts | 47° |
| 2026-05-08 16:53 | 20.07567 | 121.42206 | 34946 ft | 513 kts | 47° |
| 2026-05-08 16:53 | 20.12244 | 121.47861 | 34954 ft | 513 kts | 47° |
| 2026-05-08 16:54 | 20.16962 | 121.53571 | 34954 ft | 513 kts | 47° |
| 2026-05-08 16:54 | 20.21673 | 121.59275 | 34954 ft | 513 kts | 47° |
| 2026-05-08 16:55 | 20.26415 | 121.65024 | 34953 ft | 513 kts | 47° |
| 2026-05-08 16:55 | 20.31087 | 121.70695 | 34959 ft | 513 kts | 47° |
| 2026-05-08 16:56 | 20.35794 | 121.76412 | 34962 ft | 513 kts | 47° |
| 2026-05-08 16:56 | 20.40493 | 121.82124 | 34963 ft | 513 kts | 47° |
| 2026-05-08 16:57 | 20.45200 | 121.87854 | 34961 ft | 513 kts | 47° |
| 2026-05-08 16:57 | 20.49899 | 121.93579 | 34962 ft | 513 kts | 47° |
| 2026-05-08 16:58 | 20.54597 | 121.99310 | 34960 ft | 513 kts | 47° |
| 2026-05-08 16:58 | 20.59299 | 122.05050 | 34971 ft | 513 kts | 47° |
| 2026-05-08 16:59 | 20.63994 | 122.10786 | 34971 ft | 513 kts | 47° |
| 2026-05-08 16:59 | 20.68695 | 122.16539 | 34971 ft | 514 kts | 47° |
| 2026-05-08 17:00 | 20.73398 | 122.22297 | 34971 ft | 514 kts | 47° |
| 2026-05-08 17:00 | 20.78104 | 122.28066 | 34972 ft | 515 kts | 47° |
| 2026-05-08 17:01 | 20.82813 | 122.33842 | 34971 ft | 516 kts | 47° |
| 2026-05-08 17:01 | 20.87517 | 122.39623 | 34972 ft | 516 kts | 47° |
| 2026-05-08 17:02 | 20.92227 | 122.45412 | 34980 ft | 516 kts | 47° |
| 2026-05-08 17:02 | 20.96933 | 122.51202 | 34981 ft | 516 kts | 47° |
| 2026-05-08 17:03 | 21.02180 | 122.56384 | 34984 ft | 513 kts | 34° |
| 2026-05-08 17:03 | 21.08044 | 122.60661 | 34981 ft | 513 kts | 32° |
| 2026-05-08 17:04 | 21.14081 | 122.64833 | 34980 ft | 513 kts | 31° |
| 2026-05-08 17:04 | 21.20050 | 122.68944 | 34981 ft | 513 kts | 31° |
| 2026-05-08 17:05 | 21.26043 | 122.73103 | 34979 ft | 514 kts | 31° |
| 2026-05-08 17:05 | 21.32086 | 122.77316 | 34980 ft | 514 kts | 31° |
| 2026-05-08 17:06 | 21.38032 | 122.81471 | 34981 ft | 514 kts | 31° |
| 2026-05-08 17:06 | 21.44059 | 122.85685 | 35003 ft | 514 kts | 31° |
| 2026-05-08 17:07 | 21.50016 | 122.89852 | 34985 ft | 515 kts | 31° |
| 2026-05-08 17:07 | 21.56016 | 122.94053 | 34984 ft | 515 kts | 32° |
| 2026-05-08 17:08 | 21.62010 | 122.98254 | 34990 ft | 515 kts | 32° |
| 2026-05-08 17:08 | 21.68010 | 123.02464 | 34981 ft | 515 kts | 32° |
| 2026-05-08 17:09 | 21.74007 | 123.06676 | 34980 ft | 515 kts | 32° |
| 2026-05-08 17:09 | 21.80012 | 123.10900 | 34981 ft | 515 kts | 32° |
| 2026-05-08 17:10 | 21.85037 | 123.14436 | 34980 ft | 515 kts | 32° |
| 2026-05-08 17:10 | 21.92016 | 123.19353 | 34980 ft | 516 kts | 32° |
| 2026-05-08 17:11 | 21.98016 | 123.23586 | 34979 ft | 516 kts | 32° |
| 2026-05-08 17:11 | 22.03012 | 123.27111 | 34981 ft | 516 kts | 32° |
| 2026-05-08 17:12 | 22.09027 | 123.31362 | 34981 ft | 517 kts | 31° |
| 2026-05-08 17:12 | 22.15047 | 123.35619 | 34980 ft | 518 kts | 31° |
| 2026-05-08 17:13 | 22.21064 | 123.39879 | 35004 ft | 517 kts | 31° |
| 2026-05-08 17:13 | 22.27086 | 123.44146 | 35006 ft | 518 kts | 32° |
| 2026-05-08 17:14 | 22.33102 | 123.48414 | 34993 ft | 517 kts | 32° |
| 2026-05-08 17:14 | 22.39119 | 123.52690 | 34994 ft | 517 kts | 32° |
| 2026-05-08 17:15 | 22.45130 | 123.56966 | 35002 ft | 518 kts | 32° |
| 2026-05-08 17:15 | 22.51150 | 123.61250 | 34996 ft | 518 kts | 32° |
| 2026-05-08 17:16 | 22.57161 | 123.65533 | 34997 ft | 518 kts | 32° |
| 2026-05-08 17:16 | 22.63173 | 123.69821 | 35001 ft | 518 kts | 32° |
| 2026-05-08 17:17 | 22.69197 | 123.74122 | 35001 ft | 518 kts | 32° |
| 2026-05-08 17:17 | 22.75210 | 123.78422 | 34995 ft | 518 kts | 32° |
| 2026-05-08 17:18 | 22.81234 | 123.82734 | 34994 ft | 518 kts | 32° |
| 2026-05-08 17:18 | 22.87246 | 123.87045 | 35000 ft | 518 kts | 31° |
| 2026-05-08 17:19 | 22.93262 | 123.91355 | 34997 ft | 518 kts | 31° |
| 2026-05-08 17:19 | 22.99281 | 123.95674 | 35001 ft | 519 kts | 31° |
| 2026-05-08 17:20 | 23.05277 | 124.00026 | 35002 ft | 519 kts | 32° |
| 2026-05-08 17:20 | 23.11249 | 124.04445 | 35002 ft | 520 kts | 32° |
| 2026-05-08 17:21 | 23.17179 | 124.08844 | 34994 ft | 520 kts | 32° |
| 2026-05-08 17:21 | 23.23159 | 124.13270 | 35002 ft | 520 kts | 32° |
| 2026-05-08 17:22 | 23.29146 | 124.17694 | 35002 ft | 520 kts | 32° |
| 2026-05-08 17:22 | 23.34983 | 124.22347 | 34986 ft | 523 kts | 40° |
| 2026-05-08 17:23 | 23.40012 | 124.28095 | 34987 ft | 525 kts | 46° |
| 2026-05-08 17:23 | 23.44832 | 124.34076 | 34987 ft | 526 kts | 47° |
| 2026-05-08 17:24 | 23.49618 | 124.40093 | 34989 ft | 526 kts | 47° |
| 2026-05-08 17:24 | 23.54418 | 124.46107 | 34987 ft | 526 kts | 47° |
| 2026-05-08 17:25 | 23.59231 | 124.52118 | 34985 ft | 526 kts | 46° |
| 2026-05-08 17:25 | 23.64041 | 124.58128 | 34988 ft | 526 kts | 46° |
| 2026-05-08 17:26 | 23.68848 | 124.64141 | 34999 ft | 526 kts | 46° |
| 2026-05-08 17:26 | 23.73657 | 124.70164 | 34987 ft | 526 kts | 47° |
| 2026-05-08 17:27 | 23.78463 | 124.76193 | 34985 ft | 526 kts | 47° |
| 2026-05-08 17:27 | 23.83265 | 124.82223 | 34993 ft | 526 kts | 47° |
| 2026-05-08 17:28 | 23.88063 | 124.88256 | 34996 ft | 526 kts | 47° |
| 2026-05-08 17:28 | 23.92862 | 124.94296 | 34985 ft | 526 kts | 47° |
| 2026-05-08 17:29 | 23.97626 | 125.00300 | 35003 ft | 526 kts | 47° |
| 2026-05-08 17:29 | 24.02410 | 125.06338 | 34987 ft | 526 kts | 47° |
| 2026-05-08 17:30 | 24.07207 | 125.12403 | 34987 ft | 528 kts | 47° |
| 2026-05-08 17:30 | 24.12013 | 125.18482 | 34987 ft | 528 kts | 47° |
| 2026-05-08 17:31 | 24.16816 | 125.24565 | 34994 ft | 528 kts | 47° |
| 2026-05-08 17:31 | 24.21607 | 125.30642 | 34990 ft | 528 kts | 47° |
| 2026-05-08 17:32 | 24.26412 | 125.36745 | 34986 ft | 528 kts | 47° |
| 2026-05-08 17:32 | 24.31206 | 125.42836 | 34985 ft | 528 kts | 47° |
| 2026-05-08 17:33 | 24.35999 | 125.48938 | 34987 ft | 528 kts | 47° |
| 2026-05-08 17:33 | 24.40781 | 125.55034 | 34989 ft | 528 kts | 47° |
| 2026-05-08 17:34 | 24.45567 | 125.61144 | 34986 ft | 528 kts | 47° |
| 2026-05-08 17:34 | 24.50352 | 125.67262 | 34986 ft | 528 kts | 47° |
| 2026-05-08 17:35 | 24.55138 | 125.73386 | 34987 ft | 528 kts | 47° |
| 2026-05-08 17:35 | 24.59911 | 125.79501 | 35003 ft | 528 kts | 47° |
| 2026-05-08 17:36 | 24.64693 | 125.85634 | 34986 ft | 528 kts | 47° |
| 2026-05-08 17:36 | 24.69460 | 125.91764 | 35000 ft | 528 kts | 47° |
| 2026-05-08 17:37 | 24.74242 | 125.97914 | 35004 ft | 528 kts | 47° |
| 2026-05-08 17:37 | 24.79016 | 126.04062 | 35003 ft | 529 kts | 47° |
| 2026-05-08 17:38 | 24.83791 | 126.10218 | 34992 ft | 529 kts | 47° |
| 2026-05-08 17:38 | 24.88570 | 126.16389 | 35000 ft | 530 kts | 47° |
| 2026-05-08 17:39 | 24.93345 | 126.22563 | 34986 ft | 530 kts | 47° |
| 2026-05-08 17:39 | 24.98115 | 126.28740 | 35001 ft | 530 kts | 47° |
| 2026-05-08 17:40 | 25.02891 | 126.34932 | 35004 ft | 530 kts | 47° |
| 2026-05-08 17:40 | 25.07664 | 126.41127 | 35010 ft | 530 kts | 47° |
| 2026-05-08 17:41 | 25.12440 | 126.47334 | 35011 ft | 531 kts | 47° |
| 2026-05-08 17:41 | 25.17223 | 126.53556 | 35009 ft | 531 kts | 47° |
| 2026-05-08 17:42 | 25.21993 | 126.59775 | 35010 ft | 531 kts | 47° |
| 2026-05-08 17:42 | 25.26764 | 126.66001 | 35009 ft | 531 kts | 47° |
| 2026-05-08 17:43 | 25.31502 | 126.72191 | 35010 ft | 531 kts | 47° |
| 2026-05-08 17:43 | 25.36303 | 126.78474 | 35019 ft | 532 kts | 47° |
| 2026-05-08 17:44 | 25.41041 | 126.84681 | 35020 ft | 532 kts | 47° |
| 2026-05-08 17:44 | 25.45813 | 126.90942 | 35015 ft | 532 kts | 47° |
| 2026-05-08 17:45 | 25.50577 | 126.97202 | 35020 ft | 532 kts | 47° |
| 2026-05-08 17:45 | 25.55341 | 127.03470 | 35015 ft | 532 kts | 47° |
| 2026-05-08 17:46 | 25.60104 | 127.09745 | 35018 ft | 532 kts | 47° |
| 2026-05-08 17:46 | 25.64962 | 127.15928 | 35020 ft | 532 kts | 46° |
| 2026-05-08 17:47 | 25.69908 | 127.22028 | 35014 ft | 532 kts | 46° |
| 2026-05-08 17:47 | 25.74043 | 127.27149 | 35015 ft | 532 kts | 46° |
| 2026-05-08 17:48 | 25.79755 | 127.34285 | 35015 ft | 532 kts | 46° |
| 2026-05-08 17:48 | 25.84661 | 127.40438 | 35020 ft | 532 kts | 46° |
| 2026-05-08 17:49 | 25.89566 | 127.46603 | 35015 ft | 533 kts | 46° |
| 2026-05-08 17:49 | 25.94475 | 127.52781 | 35019 ft | 533 kts | 46° |
| 2026-05-08 17:50 | 25.99366 | 127.58944 | 35020 ft | 529 kts | 46° |
| 2026-05-08 17:50 | 26.04226 | 127.65073 | 35017 ft | 528 kts | 46° |
| 2026-05-08 17:51 | 26.09083 | 127.71207 | 35024 ft | 529 kts | 46° |
| 2026-05-08 17:51 | 26.13516 | 127.76813 | 35036 ft | 528 kts | 46° |
| 2026-05-08 17:52 | 26.18746 | 127.82515 | 35041 ft | 525 kts | 38° |
| 2026-05-08 17:53 | 26.27116 | 127.90401 | 35053 ft | 524 kts | 37° |
| 2026-05-08 17:53 | 26.32726 | 127.95613 | 35054 ft | 524 kts | 37° |
| 2026-05-08 17:54 | 26.38299 | 128.00811 | 35053 ft | 525 kts | 37° |
| 2026-05-08 17:54 | 26.43896 | 128.06051 | 35056 ft | 525 kts | 37° |
| 2026-05-08 17:55 | 26.49489 | 128.11297 | 35064 ft | 525 kts | 37° |
| 2026-05-08 17:55 | 26.55092 | 128.16559 | 35062 ft | 525 kts | 37° |
| 2026-05-08 17:56 | 26.60689 | 128.21823 | 35064 ft | 525 kts | 38° |
| 2026-05-08 17:56 | 26.66255 | 128.27066 | 35056 ft | 525 kts | 38° |
| 2026-05-08 17:57 | 26.70909 | 128.31454 | 35054 ft | 525 kts | 38° |
| 2026-05-08 17:57 | 26.76495 | 128.36728 | 35052 ft | 525 kts | 38° |
| 2026-05-08 17:58 | 26.82029 | 128.41958 | 35054 ft | 520 kts | 38° |
| 2026-05-08 17:58 | 26.87547 | 128.47182 | 35051 ft | 519 kts | 38° |
| 2026-05-08 17:59 | 26.93069 | 128.52415 | 35044 ft | 519 kts | 37° |
| 2026-05-08 17:59 | 26.98585 | 128.57646 | 35046 ft | 519 kts | 38° |
| 2026-05-08 18:00 | 27.04105 | 128.62895 | 35044 ft | 520 kts | 38° |
| 2026-05-08 18:00 | 27.12351 | 128.70748 | 35044 ft | 519 kts | 38° |
| 2026-05-08 18:01 | 27.17866 | 128.76004 | 35045 ft | 519 kts | 38° |
| 2026-05-08 18:01 | 27.23351 | 128.81238 | 35045 ft | 519 kts | 38° |
| 2026-05-08 18:02 | 27.28861 | 128.86506 | 35045 ft | 520 kts | 38° |
| 2026-05-08 18:02 | 27.34369 | 128.91780 | 35044 ft | 520 kts | 38° |
| 2026-05-08 18:03 | 27.39882 | 128.97066 | 35045 ft | 519 kts | 38° |
| 2026-05-08 18:03 | 27.45388 | 129.02353 | 35045 ft | 519 kts | 38° |
| 2026-05-08 18:04 | 27.50855 | 129.07608 | 35044 ft | 520 kts | 37° |
| 2026-05-08 18:04 | 27.55869 | 129.13518 | 35045 ft | 523 kts | 47° |
| 2026-05-08 18:05 | 27.60574 | 129.19818 | 35044 ft | 524 kts | 48° |
| 2026-05-08 18:05 | 27.65220 | 129.26181 | 35044 ft | 525 kts | 48° |
| 2026-05-08 18:06 | 27.69830 | 129.32498 | 35044 ft | 524 kts | 48° |
| 2026-05-08 18:06 | 27.74482 | 129.38857 | 35046 ft | 525 kts | 48° |
| 2026-05-08 18:07 | 27.79138 | 129.45223 | 35045 ft | 525 kts | 48° |
| 2026-05-08 18:07 | 27.83774 | 129.51565 | 35045 ft | 525 kts | 48° |
| 2026-05-08 18:08 | 27.88420 | 129.57934 | 35046 ft | 525 kts | 48° |
| 2026-05-08 18:08 | 27.93065 | 129.64306 | 35046 ft | 525 kts | 48° |
| 2026-05-08 18:09 | 27.97710 | 129.70693 | 35045 ft | 525 kts | 48° |
| 2026-05-08 18:09 | 28.02350 | 129.77088 | 35044 ft | 525 kts | 48° |
| 2026-05-08 18:10 | 28.06963 | 129.83452 | 35044 ft | 525 kts | 49° |
| 2026-05-08 18:10 | 28.11606 | 129.89863 | 35046 ft | 525 kts | 49° |
| 2026-05-08 18:11 | 28.16249 | 129.96287 | 35045 ft | 525 kts | 49° |
| 2026-05-08 18:11 | 28.20852 | 130.02661 | 35044 ft | 526 kts | 49° |
| 2026-05-08 18:12 | 28.25489 | 130.09097 | 35044 ft | 526 kts | 49° |
| 2026-05-08 18:12 | 28.30123 | 130.15537 | 35045 ft | 526 kts | 49° |
| 2026-05-08 18:13 | 28.34750 | 130.21981 | 35046 ft | 526 kts | 49° |
| 2026-05-08 18:13 | 28.39349 | 130.28390 | 35044 ft | 526 kts | 49° |
| 2026-05-08 18:14 | 28.43974 | 130.34845 | 35046 ft | 526 kts | 49° |
| 2026-05-08 18:14 | 28.48602 | 130.41311 | 35045 ft | 527 kts | 49° |
| 2026-05-08 18:15 | 28.53224 | 130.47785 | 35045 ft | 527 kts | 49° |
| 2026-05-08 18:15 | 28.57853 | 130.54276 | 35046 ft | 528 kts | 49° |
| 2026-05-08 18:16 | 28.62453 | 130.60739 | 35044 ft | 528 kts | 49° |
| 2026-05-08 18:16 | 28.67088 | 130.67259 | 35045 ft | 529 kts | 49° |
| 2026-05-08 18:17 | 28.71719 | 130.73785 | 35043 ft | 529 kts | 49° |
| 2026-05-08 18:17 | 28.76342 | 130.80309 | 35046 ft | 529 kts | 49° |
| 2026-05-08 18:18 | 28.80962 | 130.86839 | 35045 ft | 529 kts | 49° |
| 2026-05-08 18:18 | 28.85587 | 130.93387 | 35045 ft | 529 kts | 49° |
| 2026-05-08 18:19 | 28.90179 | 130.99895 | 35045 ft | 530 kts | 49° |
| 2026-05-08 18:19 | 28.94797 | 131.06454 | 35044 ft | 530 kts | 49° |
| 2026-05-08 18:20 | 28.99417 | 131.13026 | 35045 ft | 530 kts | 49° |
| 2026-05-08 18:20 | 29.04034 | 131.19609 | 35046 ft | 530 kts | 49° |
| 2026-05-08 18:21 | 29.08657 | 131.26205 | 35046 ft | 530 kts | 49° |
| 2026-05-08 18:21 | 29.13252 | 131.32767 | 35042 ft | 531 kts | 49° |
| 2026-05-08 18:22 | 29.17871 | 131.39377 | 35044 ft | 531 kts | 49° |
| 2026-05-08 18:22 | 29.22482 | 131.45991 | 35046 ft | 531 kts | 49° |
| 2026-05-08 18:23 | 29.27064 | 131.52571 | 35045 ft | 531 kts | 49° |
| 2026-05-08 18:23 | 29.31681 | 131.59212 | 35044 ft | 531 kts | 49° |
| 2026-05-08 18:24 | 29.36292 | 131.65855 | 35045 ft | 532 kts | 49° |
| 2026-05-08 18:24 | 29.40897 | 131.72502 | 35045 ft | 532 kts | 49° |
| 2026-05-08 18:25 | 29.45469 | 131.79109 | 35045 ft | 532 kts | 49° |
| 2026-05-08 18:25 | 29.50076 | 131.85776 | 35046 ft | 532 kts | 49° |
| 2026-05-08 18:26 | 29.54672 | 131.92438 | 35046 ft | 533 kts | 49° |
| 2026-05-08 18:26 | 29.59281 | 131.99129 | 35044 ft | 533 kts | 49° |
| 2026-05-08 18:27 | 29.63106 | 132.04695 | 35045 ft | 533 kts | 49° |
| 2026-05-08 18:27 | 29.68478 | 132.12459 | 35045 ft | 533 kts | 48° |
| 2026-05-08 18:28 | 29.73196 | 132.19042 | 35044 ft | 533 kts | 47° |
| 2026-05-08 18:28 | 29.77921 | 132.25614 | 35046 ft | 533 kts | 48° |
| 2026-05-08 18:29 | 29.82636 | 132.32222 | 35046 ft | 533 kts | 48° |
| 2026-05-08 18:29 | 29.87334 | 132.38840 | 35045 ft | 533 kts | 48° |
| 2026-05-08 18:30 | 29.92030 | 132.45471 | 35046 ft | 533 kts | 48° |
| 2026-05-08 18:30 | 29.96721 | 132.52105 | 35045 ft | 533 kts | 48° |
| 2026-05-08 18:31 | 30.01377 | 132.58697 | 35045 ft | 533 kts | 48° |
| 2026-05-08 18:31 | 30.06066 | 132.65343 | 35046 ft | 534 kts | 48° |
| 2026-05-08 18:32 | 30.10758 | 132.72005 | 35046 ft | 534 kts | 48° |
| 2026-05-08 18:32 | 30.15455 | 132.78687 | 35044 ft | 535 kts | 49° |
| 2026-05-08 18:33 | 30.20134 | 132.85356 | 35046 ft | 534 kts | 49° |
| 2026-05-08 18:33 | 30.24815 | 132.92039 | 35046 ft | 534 kts | 49° |
| 2026-05-08 18:34 | 30.29496 | 132.98732 | 35045 ft | 535 kts | 49° |
| 2026-05-08 18:34 | 30.34139 | 133.05384 | 35045 ft | 535 kts | 49° |
| 2026-05-08 18:35 | 30.38826 | 133.12113 | 35045 ft | 535 kts | 49° |
| 2026-05-08 18:35 | 30.43507 | 133.18839 | 35046 ft | 535 kts | 49° |
| 2026-05-08 18:36 | 30.48155 | 133.25530 | 35038 ft | 535 kts | 49° |
| 2026-05-08 18:36 | 30.52040 | 133.31133 | 35036 ft | 536 kts | 49° |
| 2026-05-08 18:37 | 30.57506 | 133.39026 | 35036 ft | 535 kts | 49° |
| 2026-05-08 18:37 | 30.61388 | 133.44643 | 35043 ft | 536 kts | 49° |
| 2026-05-08 18:38 | 30.66808 | 133.52497 | 35045 ft | 536 kts | 49° |
| 2026-05-08 18:38 | 30.70718 | 133.58174 | 35044 ft | 537 kts | 49° |
| 2026-05-08 18:39 | 30.75347 | 133.64905 | 35046 ft | 536 kts | 49° |
| 2026-05-08 18:39 | 30.80009 | 133.71694 | 35037 ft | 537 kts | 49° |
| 2026-05-08 18:40 | 30.84683 | 133.78512 | 35035 ft | 537 kts | 49° |
| 2026-05-08 18:40 | 30.89340 | 133.85311 | 35038 ft | 538 kts | 49° |
| 2026-05-08 18:41 | 30.94026 | 133.92168 | 35028 ft | 545 kts | 50° |
| 2026-05-08 18:41 | 30.98738 | 133.99074 | 35020 ft | 549 kts | 50° |
| 2026-05-08 18:42 | 31.03499 | 134.06068 | 35019 ft | 549 kts | 50° |
| 2026-05-08 18:42 | 31.08262 | 134.13076 | 35015 ft | 550 kts | 50° |
| 2026-05-08 18:43 | 31.12990 | 134.20045 | 35017 ft | 550 kts | 50° |
| 2026-05-08 18:43 | 31.17743 | 134.27063 | 35020 ft | 550 kts | 50° |
| 2026-05-08 18:44 | 31.22490 | 134.34086 | 35015 ft | 550 kts | 50° |
| 2026-05-08 18:44 | 31.27238 | 134.41119 | 35018 ft | 550 kts | 50° |
| 2026-05-08 18:45 | 31.31952 | 134.48116 | 35019 ft | 550 kts | 50° |
| 2026-05-08 18:45 | 31.36701 | 134.55177 | 35015 ft | 551 kts | 50° |
| 2026-05-08 18:46 | 31.41442 | 134.62239 | 35019 ft | 551 kts | 50° |
| 2026-05-08 18:46 | 31.46149 | 134.69265 | 35017 ft | 551 kts | 50° |
| 2026-05-08 18:47 | 31.50893 | 134.76359 | 35017 ft | 551 kts | 50° |
| 2026-05-08 18:47 | 31.55595 | 134.83402 | 35020 ft | 551 kts | 50° |
| 2026-05-08 18:48 | 31.60327 | 134.90503 | 35007 ft | 551 kts | 51° |
| 2026-05-08 18:48 | 31.65052 | 134.97609 | 35011 ft | 551 kts | 51° |
| 2026-05-08 18:49 | 31.69765 | 135.04713 | 34999 ft | 551 kts | 51° |
| 2026-05-08 18:49 | 31.74580 | 135.11762 | 35102 ft | 552 kts | 47° |
| 2026-05-08 18:50 | 31.77110 | 135.15067 | 35225 ft | 551 kts | 46° |
| 2026-05-08 18:50 | 31.79727 | 135.18373 | 35309 ft | 551 kts | 45° |
| 2026-05-08 18:50 | 31.84951 | 135.24967 | 35492 ft | 551 kts | 46° |
| 2026-05-08 18:51 | 31.87548 | 135.28297 | 35613 ft | 551 kts | 46° |
| 2026-05-08 18:51 | 31.90134 | 135.31645 | 35719 ft | 550 kts | 46° |
| 2026-05-08 18:51 | 31.95273 | 135.38360 | 35842 ft | 551 kts | 47° |
| 2026-05-08 18:52 | 32.00371 | 135.45055 | 35995 ft | 551 kts | 47° |
| 2026-05-08 18:52 | 32.05509 | 135.51811 | 36088 ft | 553 kts | 47° |
| 2026-05-08 18:53 | 32.10637 | 135.58559 | 36280 ft | 552 kts | 47° |
| 2026-05-08 18:53 | 32.15763 | 135.65315 | 36444 ft | 552 kts | 47° |
| 2026-05-08 18:54 | 32.20862 | 135.72049 | 36581 ft | 552 kts | 47° |
| 2026-05-08 18:54 | 32.25932 | 135.78761 | 36814 ft | 545 kts | 47° |
| 2026-05-08 18:55 | 32.30969 | 135.85440 | 36987 ft | 543 kts | 47° |
| 2026-05-08 18:55 | 32.33478 | 135.88772 | 36990 ft | 543 kts | 47° |
| 2026-05-08 18:56 | 32.38519 | 135.95471 | 36990 ft | 543 kts | 47° |
| 2026-05-08 18:56 | 32.43325 | 136.02291 | 36993 ft | 544 kts | 55° |
| 2026-05-08 18:57 | 32.47529 | 136.09742 | 36990 ft | 544 kts | 57° |
| 2026-05-08 18:57 | 32.51606 | 136.17291 | 36990 ft | 544 kts | 57° |
| 2026-05-08 18:58 | 32.55653 | 136.24849 | 36988 ft | 540 kts | 57° |
| 2026-05-08 18:58 | 32.59666 | 136.32319 | 36989 ft | 538 kts | 57° |
| 2026-05-08 18:59 | 32.63699 | 136.39827 | 36990 ft | 538 kts | 57° |
| 2026-05-08 18:59 | 32.67729 | 136.47342 | 36990 ft | 538 kts | 57° |
| 2026-05-08 19:00 | 32.71733 | 136.54825 | 36990 ft | 539 kts | 57° |
| 2026-05-08 19:00 | 32.75724 | 136.62297 | 36990 ft | 538 kts | 57° |
| 2026-05-08 19:01 | 32.79743 | 136.69839 | 36990 ft | 538 kts | 57° |
| 2026-05-08 19:01 | 32.83751 | 136.77371 | 36990 ft | 539 kts | 57° |
| 2026-05-08 19:02 | 32.87754 | 136.84915 | 36974 ft | 539 kts | 57° |
| 2026-05-08 19:02 | 32.91730 | 136.92421 | 36945 ft | 539 kts | 57° |
| 2026-05-08 19:03 | 32.95727 | 136.99978 | 36943 ft | 539 kts | 57° |
| 2026-05-08 19:03 | 32.99724 | 137.07550 | 36943 ft | 539 kts | 57° |
| 2026-05-08 19:04 | 33.03705 | 137.15113 | 36907 ft | 539 kts | 57° |
| 2026-05-08 19:04 | 33.07685 | 137.22687 | 36904 ft | 539 kts | 57° |
| 2026-05-08 19:05 | 33.11642 | 137.30231 | 36909 ft | 539 kts | 57° |
| 2026-05-08 19:05 | 33.15616 | 137.37822 | 36903 ft | 539 kts | 57° |
| 2026-05-08 19:06 | 33.19581 | 137.45421 | 36903 ft | 539 kts | 58° |
| 2026-05-08 19:06 | 33.23563 | 137.53054 | 36903 ft | 539 kts | 57° |
| 2026-05-08 19:07 | 33.27502 | 137.60617 | 36901 ft | 539 kts | 58° |
| 2026-05-08 19:07 | 33.31469 | 137.68254 | 36902 ft | 540 kts | 58° |
| 2026-05-08 19:08 | 33.35432 | 137.75897 | 36897 ft | 540 kts | 58° |
| 2026-05-08 19:08 | 33.39392 | 137.83552 | 36889 ft | 540 kts | 58° |
| 2026-05-08 19:09 | 33.43315 | 137.91155 | 36890 ft | 540 kts | 58° |
| 2026-05-08 19:09 | 33.47268 | 137.98832 | 36884 ft | 541 kts | 58° |
| 2026-05-08 19:10 | 33.51223 | 138.06516 | 36889 ft | 541 kts | 58° |
| 2026-05-08 19:10 | 33.55146 | 138.14167 | 36880 ft | 541 kts | 58° |
| 2026-05-08 19:11 | 33.59089 | 138.21867 | 36879 ft | 541 kts | 58° |
| 2026-05-08 19:11 | 33.63025 | 138.29562 | 36833 ft | 541 kts | 58° |
| 2026-05-08 19:12 | 33.66962 | 138.37277 | 36837 ft | 541 kts | 58° |
| 2026-05-08 19:12 | 33.70886 | 138.44992 | 36835 ft | 541 kts | 58° |
| 2026-05-08 19:13 | 33.74803 | 138.52706 | 36846 ft | 541 kts | 58° |
| 2026-05-08 19:13 | 33.78726 | 138.60437 | 36841 ft | 541 kts | 58° |
| 2026-05-08 19:14 | 33.82616 | 138.68130 | 36842 ft | 540 kts | 58° |
| 2026-05-08 19:14 | 33.86519 | 138.75869 | 36839 ft | 540 kts | 58° |
| 2026-05-08 19:15 | 33.90422 | 138.83617 | 36841 ft | 540 kts | 58° |
| 2026-05-08 19:15 | 33.94288 | 138.91309 | 36834 ft | 540 kts | 58° |
| 2026-05-08 19:16 | 33.98183 | 138.99074 | 36829 ft | 540 kts | 58° |
| 2026-05-08 19:16 | 34.02066 | 139.06833 | 36834 ft | 541 kts | 58° |
| 2026-05-08 19:17 | 34.05937 | 139.14586 | 36834 ft | 543 kts | 58° |
| 2026-05-08 19:17 | 34.09831 | 139.22404 | 36830 ft | 543 kts | 58° |
| 2026-05-08 19:18 | 34.13725 | 139.30243 | 36834 ft | 543 kts | 59° |
| 2026-05-08 19:18 | 34.17581 | 139.38017 | 36830 ft | 543 kts | 58° |
| 2026-05-08 19:19 | 34.20829 | 139.44571 | 36818 ft | 543 kts | 59° |
| 2026-05-08 19:19 | 34.24704 | 139.52410 | 36806 ft | 543 kts | 58° |
| 2026-05-08 19:20 | 34.28554 | 139.60213 | 36796 ft | 542 kts | 59° |
| 2026-05-08 19:20 | 34.32415 | 139.68060 | 36795 ft | 542 kts | 59° |
| 2026-05-08 19:21 | 34.36268 | 139.75910 | 36795 ft | 542 kts | 59° |
| 2026-05-08 19:21 | 34.40119 | 139.83775 | 36786 ft | 542 kts | 59° |
| 2026-05-08 19:22 | 34.43933 | 139.91579 | 36788 ft | 542 kts | 59° |
| 2026-05-08 19:22 | 34.47783 | 139.99473 | 36785 ft | 542 kts | 59° |
| 2026-05-08 19:23 | 34.51618 | 140.07353 | 36786 ft | 542 kts | 59° |
| 2026-05-08 19:23 | 34.55442 | 140.15233 | 36785 ft | 542 kts | 59° |
| 2026-05-08 19:24 | 34.59238 | 140.23070 | 36785 ft | 542 kts | 59° |
| 2026-05-08 19:24 | 34.63057 | 140.30967 | 36785 ft | 542 kts | 59° |
| 2026-05-08 19:25 | 34.66871 | 140.38874 | 36785 ft | 541 kts | 59° |
| 2026-05-08 19:25 | 34.70673 | 140.46783 | 36786 ft | 541 kts | 59° |
| 2026-05-08 19:26 | 34.74348 | 140.54701 | 36788 ft | 541 kts | 60° |
| 2026-05-08 19:26 | 34.78001 | 140.62727 | 36785 ft | 541 kts | 61° |
| 2026-05-08 19:27 | 34.81641 | 140.70710 | 36787 ft | 541 kts | 61° |
| 2026-05-08 19:27 | 34.85307 | 140.78728 | 36785 ft | 540 kts | 60° |
| 2026-05-08 19:28 | 34.88944 | 140.86696 | 36782 ft | 541 kts | 61° |
| 2026-05-08 19:28 | 34.92601 | 140.94718 | 36777 ft | 540 kts | 61° |
| 2026-05-08 19:29 | 34.96248 | 141.02739 | 36775 ft | 540 kts | 61° |
| 2026-05-08 19:29 | 34.99888 | 141.10764 | 36775 ft | 539 kts | 61° |
| 2026-05-08 19:30 | 35.03494 | 141.18732 | 36775 ft | 539 kts | 61° |
| 2026-05-08 19:30 | 35.07127 | 141.26783 | 36778 ft | 539 kts | 61° |
| 2026-05-08 19:31 | 35.10746 | 141.34826 | 36778 ft | 539 kts | 61° |
| 2026-05-08 19:31 | 35.14335 | 141.42815 | 36776 ft | 539 kts | 61° |
| 2026-05-08 19:32 | 35.17939 | 141.50854 | 36775 ft | 539 kts | 61° |
| 2026-05-08 19:32 | 35.21537 | 141.58904 | 36778 ft | 539 kts | 62° |
| 2026-05-08 19:33 | 35.25132 | 141.66963 | 36777 ft | 539 kts | 62° |
| 2026-05-08 19:33 | 35.28704 | 141.74989 | 36777 ft | 539 kts | 62° |
| 2026-05-08 19:34 | 35.32291 | 141.83067 | 36776 ft | 540 kts | 62° |
| 2026-05-08 19:34 | 35.35881 | 141.91176 | 36776 ft | 540 kts | 62° |
| 2026-05-08 19:35 | 35.39433 | 141.99225 | 36776 ft | 540 kts | 62° |
| 2026-05-08 19:35 | 35.43003 | 142.07322 | 36777 ft | 539 kts | 62° |
| 2026-05-08 19:36 | 35.46571 | 142.15425 | 36777 ft | 539 kts | 62° |
| 2026-05-08 19:36 | 35.50107 | 142.23480 | 36778 ft | 539 kts | 62° |
| 2026-05-08 19:37 | 35.53654 | 142.31592 | 36775 ft | 538 kts | 62° |
| 2026-05-08 19:37 | 35.57196 | 142.39709 | 36777 ft | 539 kts | 62° |
| 2026-05-08 19:38 | 35.60732 | 142.47829 | 36769 ft | 538 kts | 62° |
| 2026-05-08 19:38 | 35.64247 | 142.55920 | 36765 ft | 538 kts | 62° |
| 2026-05-08 19:39 | 35.67768 | 142.64044 | 36766 ft | 538 kts | 62° |
| 2026-05-08 19:39 | 35.71281 | 142.72172 | 36766 ft | 537 kts | 62° |
| 2026-05-08 19:40 | 35.74789 | 142.80303 | 36766 ft | 537 kts | 62° |
| 2026-05-08 19:40 | 35.78269 | 142.88390 | 36766 ft | 536 kts | 62° |
| 2026-05-08 19:41 | 35.81768 | 142.96544 | 36769 ft | 536 kts | 62° |
| 2026-05-08 19:41 | 35.85226 | 143.04623 | 36767 ft | 535 kts | 62° |
| 2026-05-08 19:42 | 35.88696 | 143.12750 | 36775 ft | 535 kts | 63° |
| 2026-05-08 19:42 | 35.93022 | 143.20189 | 36777 ft | 532 kts | 43° |
| 2026-05-08 19:42 | 35.95804 | 143.23099 | 36774 ft | 528 kts | 32° |
| 2026-05-08 19:43 | 35.98968 | 143.25359 | 36775 ft | 523 kts | 21° |
| 2026-05-08 19:43 | 36.05714 | 143.28682 | 36777 ft | 522 kts | 16° |
| 2026-05-08 19:44 | 36.12589 | 143.31708 | 36775 ft | 524 kts | 16° |
| 2026-05-08 19:44 | 36.19467 | 143.34732 | 36777 ft | 524 kts | 16° |
| 2026-05-08 19:45 | 36.26343 | 143.37811 | 36759 ft | 524 kts | 16° |
| 2026-05-08 19:45 | 36.33151 | 143.40892 | 36751 ft | 524 kts | 17° |
| 2026-05-08 19:46 | 36.40008 | 143.44002 | 36748 ft | 524 kts | 17° |
| 2026-05-08 19:46 | 36.50309 | 143.48678 | 36748 ft | 525 kts | 17° |
| 2026-05-08 19:47 | 36.57149 | 143.51792 | 36748 ft | 525 kts | 17° |
| 2026-05-08 19:47 | 36.64026 | 143.54928 | 36748 ft | 525 kts | 17° |
| 2026-05-08 19:48 | 36.70860 | 143.58050 | 36748 ft | 526 kts | 17° |
| 2026-05-08 19:48 | 36.77745 | 143.61202 | 36748 ft | 527 kts | 17° |
| 2026-05-08 19:49 | 36.84625 | 143.64360 | 36748 ft | 527 kts | 17° |
| 2026-05-08 19:49 | 36.91528 | 143.67531 | 36748 ft | 528 kts | 17° |
| 2026-05-08 19:50 | 36.98441 | 143.70713 | 36748 ft | 529 kts | 17° |
| 2026-05-08 19:50 | 37.05365 | 143.73904 | 36748 ft | 530 kts | 17° |
| 2026-05-08 19:51 | 37.12255 | 143.77092 | 36748 ft | 530 kts | 17° |
| 2026-05-08 19:51 | 37.19193 | 143.80306 | 36748 ft | 531 kts | 17° |
| 2026-05-08 19:52 | 37.26141 | 143.83529 | 36748 ft | 532 kts | 17° |
| 2026-05-08 19:52 | 37.33100 | 143.86766 | 36757 ft | 533 kts | 17° |
| 2026-05-08 19:53 | 37.40066 | 143.90010 | 36757 ft | 534 kts | 17° |
| 2026-05-08 19:53 | 37.46993 | 143.93243 | 36757 ft | 534 kts | 17° |
| 2026-05-08 19:54 | 37.53972 | 143.96509 | 36758 ft | 535 kts | 17° |
| 2026-05-08 19:54 | 37.60965 | 143.99786 | 36757 ft | 535 kts | 17° |
| 2026-05-08 19:55 | 37.67954 | 144.03068 | 36757 ft | 535 kts | 17° |
| 2026-05-08 19:55 | 37.74943 | 144.06357 | 36750 ft | 535 kts | 17° |
| 2026-05-08 19:56 | 37.81893 | 144.09633 | 36748 ft | 536 kts | 17° |
| 2026-05-08 19:56 | 37.88902 | 144.12945 | 36748 ft | 536 kts | 17° |
| 2026-05-08 19:57 | 37.95903 | 144.16260 | 36748 ft | 537 kts | 17° |
| 2026-05-08 19:57 | 38.02858 | 144.19560 | 36750 ft | 536 kts | 17° |
| 2026-05-08 19:58 | 38.09873 | 144.22892 | 36777 ft | 537 kts | 17° |
| 2026-05-08 19:58 | 38.16882 | 144.26230 | 36775 ft | 537 kts | 17° |
| 2026-05-08 19:59 | 38.23860 | 144.29564 | 36732 ft | 537 kts | 17° |
| 2026-05-08 19:59 | 38.30851 | 144.32911 | 36720 ft | 537 kts | 17° |
| 2026-05-08 20:00 | 38.36720 | 144.35723 | 36721 ft | 537 kts | 17° |
| 2026-05-08 20:00 | 38.43672 | 144.39058 | 36721 ft | 537 kts | 17° |
| 2026-05-08 20:01 | 38.50662 | 144.42421 | 36720 ft | 537 kts | 17° |
| 2026-05-08 20:01 | 38.57662 | 144.45795 | 36712 ft | 537 kts | 17° |
| 2026-05-08 20:02 | 38.64652 | 144.49185 | 36708 ft | 538 kts | 18° |
| 2026-05-08 20:02 | 38.71104 | 144.54005 | 36716 ft | 544 kts | 37° |
| 2026-05-08 20:03 | 38.76905 | 144.60290 | 36710 ft | 545 kts | 40° |
| 2026-05-08 20:03 | 38.82517 | 144.66766 | 36711 ft | 545 kts | 41° |
| 2026-05-08 20:04 | 38.88153 | 144.73309 | 36711 ft | 546 kts | 41° |
| 2026-05-08 20:04 | 38.93823 | 144.79856 | 36711 ft | 546 kts | 40° |
| 2026-05-08 20:05 | 38.99481 | 144.86377 | 36713 ft | 546 kts | 40° |
| 2026-05-08 20:05 | 39.05148 | 144.92917 | 36711 ft | 546 kts | 40° |
| 2026-05-08 20:06 | 39.10760 | 144.99410 | 36711 ft | 546 kts | 41° |
| 2026-05-08 20:06 | 39.16408 | 145.05960 | 36702 ft | 546 kts | 41° |
| 2026-05-08 20:07 | 39.22060 | 145.12532 | 36691 ft | 546 kts | 41° |
| 2026-05-08 20:07 | 39.27707 | 145.19112 | 36690 ft | 546 kts | 41° |
| 2026-05-08 20:08 | 39.33352 | 145.25705 | 36689 ft | 546 kts | 41° |
| 2026-05-08 20:08 | 39.38960 | 145.32270 | 36689 ft | 546 kts | 41° |
| 2026-05-08 20:09 | 39.44595 | 145.38880 | 36682 ft | 546 kts | 41° |
| 2026-05-08 20:09 | 39.50232 | 145.45507 | 36684 ft | 546 kts | 41° |
| 2026-05-08 20:10 | 39.55823 | 145.52097 | 36685 ft | 546 kts | 41° |
| 2026-05-08 20:10 | 39.61455 | 145.58750 | 36686 ft | 546 kts | 41° |
| 2026-05-08 20:11 | 39.67081 | 145.65410 | 36684 ft | 547 kts | 41° |
| 2026-05-08 20:11 | 39.72705 | 145.72083 | 36672 ft | 547 kts | 41° |
| 2026-05-08 20:12 | 39.78321 | 145.78764 | 36673 ft | 547 kts | 41° |
| 2026-05-08 20:12 | 39.83890 | 145.85402 | 36669 ft | 547 kts | 41° |
| 2026-05-08 20:13 | 39.89505 | 145.92114 | 36675 ft | 547 kts | 41° |
| 2026-05-08 20:13 | 39.95105 | 145.98822 | 36670 ft | 547 kts | 41° |
| 2026-05-08 20:14 | 40.00712 | 146.05551 | 36681 ft | 547 kts | 41° |
| 2026-05-08 20:14 | 40.06311 | 146.12288 | 36666 ft | 547 kts | 41° |
| 2026-05-08 20:15 | 40.11880 | 146.19001 | 36665 ft | 547 kts | 41° |
| 2026-05-08 20:15 | 40.17471 | 146.25761 | 36665 ft | 547 kts | 41° |
| 2026-05-08 20:16 | 40.23050 | 146.32527 | 36665 ft | 547 kts | 41° |
| 2026-05-08 20:16 | 40.28634 | 146.39311 | 36661 ft | 547 kts | 41° |
| 2026-05-08 20:17 | 40.34192 | 146.46076 | 36657 ft | 543 kts | 41° |
| 2026-05-08 20:17 | 40.39687 | 146.52778 | 36664 ft | 541 kts | 41° |
| 2026-05-08 20:18 | 40.45196 | 146.59514 | 36659 ft | 541 kts | 41° |
| 2026-05-08 20:18 | 40.50712 | 146.66280 | 36655 ft | 541 kts | 41° |
| 2026-05-08 20:19 | 40.56217 | 146.73049 | 36655 ft | 541 kts | 41° |
| 2026-05-08 20:19 | 40.61683 | 146.79777 | 36655 ft | 541 kts | 41° |
| 2026-05-08 20:20 | 40.67179 | 146.86562 | 36656 ft | 541 kts | 41° |
| 2026-05-08 20:20 | 40.72670 | 146.93360 | 36655 ft | 541 kts | 41° |
| 2026-05-08 20:21 | 40.78171 | 147.00193 | 36654 ft | 541 kts | 42° |
| 2026-05-08 20:21 | 40.83617 | 147.06966 | 36655 ft | 541 kts | 42° |
| 2026-05-08 20:22 | 40.89103 | 147.13802 | 36630 ft | 541 kts | 41° |
| 2026-05-08 20:22 | 40.93657 | 147.19491 | 36627 ft | 541 kts | 41° |
| 2026-05-08 20:23 | 41.00058 | 147.27506 | 36627 ft | 541 kts | 42° |
| 2026-05-08 20:23 | 41.05491 | 147.34326 | 36627 ft | 541 kts | 42° |
| 2026-05-08 20:24 | 41.10962 | 147.41212 | 36627 ft | 541 kts | 42° |
| 2026-05-08 20:24 | 41.16428 | 147.48112 | 36627 ft | 542 kts | 42° |
| 2026-05-08 20:25 | 41.21888 | 147.55019 | 36627 ft | 541 kts | 42° |
| 2026-05-08 20:25 | 41.27312 | 147.61895 | 36627 ft | 542 kts | 42° |
| 2026-05-08 20:26 | 41.32777 | 147.68837 | 36627 ft | 542 kts | 42° |
| 2026-05-08 20:26 | 41.38239 | 147.75795 | 36627 ft | 542 kts | 42° |
| 2026-05-08 20:27 | 41.43664 | 147.82727 | 36627 ft | 542 kts | 42° |
| 2026-05-08 20:27 | 41.49119 | 147.89712 | 36627 ft | 543 kts | 42° |
| 2026-05-08 20:28 | 41.54565 | 147.96700 | 36627 ft | 543 kts | 42° |
| 2026-05-08 20:28 | 41.60008 | 148.03702 | 36627 ft | 543 kts | 42° |
| 2026-05-08 20:29 | 41.65432 | 148.10701 | 36627 ft | 543 kts | 42° |
| 2026-05-08 20:29 | 41.70850 | 148.17705 | 36633 ft | 543 kts | 42° |
| 2026-05-08 20:30 | 41.76288 | 148.24765 | 36637 ft | 543 kts | 43° |
| 2026-05-08 20:30 | 41.81681 | 148.31889 | 36636 ft | 544 kts | 43° |
| 2026-05-08 20:31 | 41.87050 | 148.39031 | 36636 ft | 543 kts | 43° |
| 2026-05-08 20:31 | 41.92393 | 148.46140 | 36636 ft | 543 kts | 43° |
| 2026-05-08 20:32 | 41.97772 | 148.53302 | 36636 ft | 543 kts | 43° |
| 2026-05-08 20:32 | 42.03127 | 148.60451 | 36635 ft | 542 kts | 43° |
| 2026-05-08 20:33 | 42.08493 | 148.67633 | 36636 ft | 542 kts | 43° |
| 2026-05-08 20:33 | 42.13810 | 148.74766 | 36637 ft | 543 kts | 43° |
| 2026-05-08 20:34 | 42.19170 | 148.81974 | 36636 ft | 543 kts | 43° |
| 2026-05-08 20:35 | 42.27190 | 148.92795 | 36636 ft | 542 kts | 43° |
| 2026-05-08 20:35 | 42.32492 | 148.99971 | 36636 ft | 541 kts | 43° |
| 2026-05-08 20:36 | 42.37822 | 149.07203 | 36636 ft | 541 kts | 43° |
| 2026-05-08 20:36 | 42.43098 | 149.14388 | 36636 ft | 541 kts | 43° |
| 2026-05-08 20:37 | 42.48402 | 149.21623 | 36636 ft | 540 kts | 43° |
| 2026-05-08 20:37 | 42.53700 | 149.28866 | 36637 ft | 540 kts | 44° |
| 2026-05-08 20:38 | 42.58985 | 149.36111 | 36636 ft | 540 kts | 44° |
| 2026-05-08 20:38 | 42.64235 | 149.43327 | 36636 ft | 540 kts | 44° |
| 2026-05-08 20:39 | 42.69512 | 149.50600 | 36645 ft | 540 kts | 44° |
| 2026-05-08 20:39 | 42.74790 | 149.57893 | 36645 ft | 539 kts | 44° |
| 2026-05-08 20:40 | 42.80030 | 149.65148 | 36645 ft | 539 kts | 44° |
| 2026-05-08 20:40 | 42.85300 | 149.72463 | 36646 ft | 540 kts | 44° |
| 2026-05-08 20:41 | 42.90524 | 149.79736 | 36645 ft | 540 kts | 44° |
| 2026-05-08 20:41 | 42.95777 | 149.87074 | 36645 ft | 540 kts | 44° |
| 2026-05-08 20:42 | 43.01027 | 149.94419 | 36645 ft | 540 kts | 44° |
| 2026-05-08 20:42 | 43.06285 | 150.01795 | 36645 ft | 540 kts | 44° |
| 2026-05-08 20:43 | 43.11488 | 150.09115 | 36630 ft | 539 kts | 44° |
| 2026-05-08 20:43 | 43.16707 | 150.16478 | 36626 ft | 538 kts | 44° |
| 2026-05-08 20:44 | 43.21080 | 150.22658 | 36618 ft | 538 kts | 44° |
| 2026-05-08 20:44 | 43.26262 | 150.30003 | 36617 ft | 539 kts | 44° |
| 2026-05-08 20:45 | 43.31490 | 150.37434 | 36618 ft | 539 kts | 44° |
| 2026-05-08 20:45 | 43.36704 | 150.44865 | 36626 ft | 539 kts | 44° |
| 2026-05-08 20:46 | 43.41914 | 150.52306 | 36627 ft | 539 kts | 44° |
| 2026-05-08 20:46 | 43.47095 | 150.59727 | 36627 ft | 539 kts | 44° |
| 2026-05-08 20:47 | 43.52290 | 150.67192 | 36627 ft | 539 kts | 44° |
| 2026-05-08 20:47 | 43.57481 | 150.74665 | 36627 ft | 539 kts | 44° |
| 2026-05-08 20:48 | 43.62639 | 150.82111 | 36627 ft | 539 kts | 44° |
| 2026-05-08 20:48 | 43.67818 | 150.89611 | 36627 ft | 538 kts | 44° |
| 2026-05-08 20:49 | 43.72990 | 150.97116 | 36627 ft | 538 kts | 44° |
| 2026-05-08 20:49 | 43.78122 | 151.04582 | 36627 ft | 538 kts | 44° |
| 2026-05-08 20:50 | 43.83283 | 151.12112 | 36630 ft | 538 kts | 44° |
| 2026-05-08 20:50 | 43.88436 | 151.19651 | 36636 ft | 538 kts | 44° |
| 2026-05-08 20:51 | 43.93589 | 151.27212 | 36636 ft | 538 kts | 44° |
| 2026-05-08 20:51 | 43.98701 | 151.34732 | 36636 ft | 538 kts | 44° |
| 2026-05-08 20:52 | 44.03834 | 151.42304 | 36641 ft | 538 kts | 45° |
| 2026-05-08 20:52 | 44.08971 | 151.49902 | 36697 ft | 538 kts | 45° |
| 2026-05-08 20:53 | 44.14061 | 151.57453 | 36700 ft | 538 kts | 45° |
| 2026-05-08 20:53 | 44.19190 | 151.65079 | 36703 ft | 538 kts | 45° |
| 2026-05-08 20:54 | 44.24294 | 151.72691 | 36706 ft | 538 kts | 45° |
| 2026-05-08 20:54 | 44.29412 | 151.80343 | 36711 ft | 538 kts | 45° |
| 2026-05-08 20:55 | 44.34490 | 151.87955 | 36710 ft | 538 kts | 45° |
| 2026-05-08 20:55 | 44.39586 | 151.95614 | 36711 ft | 538 kts | 45° |
| 2026-05-08 20:56 | 44.44693 | 152.03311 | 36710 ft | 538 kts | 45° |
| 2026-05-08 20:56 | 44.49744 | 152.10954 | 36710 ft | 537 kts | 45° |
| 2026-05-08 20:57 | 44.54821 | 152.18650 | 36712 ft | 537 kts | 45° |
| 2026-05-08 20:57 | 44.59902 | 152.26369 | 36720 ft | 537 kts | 45° |
| 2026-05-08 20:58 | 44.64964 | 152.34087 | 36721 ft | 537 kts | 45° |
| 2026-05-08 20:58 | 44.70000 | 152.41784 | 36720 ft | 537 kts | 45° |
| 2026-05-08 20:59 | 44.75049 | 152.49524 | 36721 ft | 537 kts | 45° |
| 2026-05-08 20:59 | 44.80106 | 152.57297 | 36721 ft | 537 kts | 45° |
| 2026-05-08 21:00 | 44.85149 | 152.65072 | 36719 ft | 537 kts | 45° |
| 2026-05-08 21:00 | 44.90183 | 152.72851 | 36721 ft | 536 kts | 45° |
| 2026-05-08 21:01 | 44.95202 | 152.80630 | 36729 ft | 536 kts | 45° |
| 2026-05-08 21:01 | 45.00201 | 152.88400 | 36730 ft | 536 kts | 45° |
| 2026-05-08 21:02 | 45.05195 | 152.96181 | 36730 ft | 536 kts | 45° |
| 2026-05-08 21:02 | 45.10201 | 153.04007 | 36729 ft | 536 kts | 46° |
| 2026-05-08 21:03 | 45.15210 | 153.11862 | 36730 ft | 538 kts | 46° |
| 2026-05-08 21:03 | 45.20204 | 153.19710 | 36730 ft | 539 kts | 46° |
| 2026-05-08 21:04 | 45.25222 | 153.27621 | 36739 ft | 539 kts | 46° |
| 2026-05-08 21:04 | 45.30247 | 153.35565 | 36739 ft | 539 kts | 46° |
| 2026-05-08 21:05 | 45.35231 | 153.43467 | 36739 ft | 539 kts | 46° |
| 2026-05-08 21:05 | 45.40235 | 153.51423 | 36739 ft | 539 kts | 46° |
| 2026-05-08 21:06 | 45.45232 | 153.59388 | 36739 ft | 539 kts | 46° |
| 2026-05-08 21:06 | 45.50211 | 153.67354 | 36739 ft | 538 kts | 46° |
| 2026-05-08 21:07 | 45.55193 | 153.75360 | 36749 ft | 539 kts | 46° |
| 2026-05-08 21:07 | 45.60143 | 153.83413 | 36748 ft | 539 kts | 46° |
| 2026-05-08 21:08 | 45.65051 | 153.91444 | 36750 ft | 539 kts | 46° |
| 2026-05-08 21:08 | 45.69991 | 153.99537 | 36748 ft | 539 kts | 46° |
| 2026-05-08 21:09 | 45.74928 | 154.07642 | 36748 ft | 538 kts | 46° |
| 2026-05-08 21:09 | 45.79845 | 154.15740 | 36749 ft | 539 kts | 46° |
| 2026-05-08 21:10 | 45.84731 | 154.23805 | 36760 ft | 538 kts | 46° |
| 2026-05-08 21:10 | 45.89641 | 154.31935 | 36759 ft | 538 kts | 46° |
| 2026-05-08 21:11 | 45.94552 | 154.40092 | 36757 ft | 538 kts | 47° |
| 2026-05-08 21:11 | 45.99443 | 154.48243 | 36757 ft | 538 kts | 47° |
| 2026-05-08 21:12 | 46.04335 | 154.56414 | 36757 ft | 538 kts | 47° |
| 2026-05-08 21:12 | 46.09194 | 154.64556 | 36757 ft | 538 kts | 47° |
| 2026-05-08 21:13 | 46.14068 | 154.72748 | 36766 ft | 538 kts | 47° |
| 2026-05-08 21:13 | 46.18941 | 154.80966 | 36768 ft | 538 kts | 47° |
| 2026-05-08 21:14 | 46.23773 | 154.89131 | 36765 ft | 537 kts | 47° |
| 2026-05-08 21:14 | 46.28619 | 154.97347 | 36765 ft | 537 kts | 47° |
| 2026-05-08 21:15 | 46.33468 | 155.05595 | 36766 ft | 537 kts | 47° |
| 2026-05-08 21:15 | 46.38311 | 155.13861 | 36766 ft | 537 kts | 47° |
| 2026-05-08 21:16 | 46.43101 | 155.22056 | 36776 ft | 536 kts | 47° |
| 2026-05-08 21:16 | 46.47925 | 155.30333 | 36775 ft | 536 kts | 47° |
| 2026-05-08 21:17 | 46.52737 | 155.38618 | 36774 ft | 536 kts | 47° |
| 2026-05-08 21:17 | 46.57549 | 155.46925 | 36775 ft | 536 kts | 47° |
| 2026-05-08 21:18 | 46.62324 | 155.55194 | 36777 ft | 536 kts | 47° |
| 2026-05-08 21:18 | 46.67121 | 155.63526 | 36784 ft | 536 kts | 47° |
| 2026-05-08 21:19 | 46.71910 | 155.71871 | 36784 ft | 536 kts | 47° |
| 2026-05-08 21:19 | 46.76689 | 155.80232 | 36786 ft | 536 kts | 48° |
| 2026-05-08 21:20 | 46.81464 | 155.88599 | 36786 ft | 536 kts | 48° |
| 2026-05-08 21:20 | 46.86230 | 155.96980 | 36785 ft | 535 kts | 48° |
| 2026-05-08 21:21 | 46.90955 | 156.05311 | 36787 ft | 535 kts | 48° |
| 2026-05-08 21:21 | 46.95700 | 156.13703 | 36795 ft | 534 kts | 48° |
| 2026-05-08 21:22 | 47.00438 | 156.22108 | 36795 ft | 534 kts | 48° |
| 2026-05-08 21:22 | 47.05171 | 156.30532 | 36796 ft | 535 kts | 48° |
| 2026-05-08 21:23 | 47.09864 | 156.38915 | 36795 ft | 534 kts | 48° |
| 2026-05-08 21:23 | 47.14581 | 156.47362 | 36795 ft | 534 kts | 48° |
| 2026-05-08 21:24 | 47.19288 | 156.55821 | 36795 ft | 533 kts | 48° |
| 2026-05-08 21:24 | 47.23202 | 156.62873 | 36806 ft | 534 kts | 48° |
| 2026-05-08 21:25 | 47.28660 | 156.72738 | 36805 ft | 533 kts | 48° |
| 2026-05-08 21:25 | 47.32560 | 156.79807 | 36817 ft | 533 kts | 48° |
| 2026-05-08 21:26 | 47.37237 | 156.88307 | 36824 ft | 533 kts | 48° |
| 2026-05-08 21:26 | 47.41910 | 156.96831 | 36821 ft | 533 kts | 49° |
| 2026-05-08 21:27 | 47.46553 | 157.05327 | 36831 ft | 533 kts | 49° |
| 2026-05-08 21:27 | 47.51213 | 157.13876 | 36828 ft | 533 kts | 49° |
| 2026-05-08 21:28 | 47.55864 | 157.22436 | 36833 ft | 532 kts | 49° |
| 2026-05-08 21:28 | 47.60500 | 157.31004 | 36836 ft | 533 kts | 49° |
| 2026-05-08 21:29 | 47.65101 | 157.39530 | 36835 ft | 532 kts | 49° |
| 2026-05-08 21:29 | 47.69731 | 157.48133 | 36833 ft | 532 kts | 49° |
| 2026-05-08 21:30 | 47.74360 | 157.56757 | 36832 ft | 532 kts | 49° |
| 2026-05-08 21:30 | 47.78938 | 157.65319 | 36838 ft | 532 kts | 49° |
| 2026-05-08 21:31 | 47.83544 | 157.73962 | 36839 ft | 532 kts | 49° |
| 2026-05-08 21:31 | 47.88115 | 157.82569 | 36840 ft | 532 kts | 49° |
| 2026-05-08 21:32 | 47.92711 | 157.91242 | 36839 ft | 532 kts | 49° |
| 2026-05-08 21:32 | 47.97300 | 157.99930 | 36843 ft | 531 kts | 49° |
| 2026-05-08 21:33 | 48.01873 | 158.08621 | 36840 ft | 532 kts | 49° |
| 2026-05-08 21:33 | 48.06414 | 158.17275 | 36841 ft | 532 kts | 50° |
| 2026-05-08 21:34 | 48.10978 | 158.26005 | 36844 ft | 532 kts | 50° |
| 2026-05-08 21:34 | 48.15543 | 158.34764 | 36843 ft | 532 kts | 50° |
| 2026-05-08 21:35 | 48.20064 | 158.43470 | 36848 ft | 532 kts | 50° |
| 2026-05-08 21:35 | 48.24606 | 158.52242 | 36858 ft | 532 kts | 50° |
| 2026-05-08 21:36 | 48.29140 | 158.61023 | 36860 ft | 532 kts | 50° |
| 2026-05-08 21:36 | 48.33676 | 158.69839 | 36860 ft | 532 kts | 50° |
| 2026-05-08 21:37 | 48.38200 | 158.78664 | 36860 ft | 532 kts | 50° |
| 2026-05-08 21:37 | 48.42691 | 158.87448 | 36860 ft | 532 kts | 50° |
| 2026-05-08 21:38 | 48.47212 | 158.96321 | 36860 ft | 532 kts | 50° |
| 2026-05-08 21:38 | 48.51692 | 159.05142 | 36860 ft | 533 kts | 50° |
| 2026-05-08 21:39 | 48.56195 | 159.14035 | 36860 ft | 532 kts | 50° |
| 2026-05-08 21:39 | 48.60682 | 159.22934 | 36869 ft | 532 kts | 50° |
| 2026-05-08 21:40 | 48.65165 | 159.31852 | 36868 ft | 532 kts | 50° |
| 2026-05-08 21:40 | 48.69644 | 159.40787 | 36869 ft | 532 kts | 50° |
| 2026-05-08 21:41 | 48.76325 | 159.54173 | 36869 ft | 532 kts | 50° |
| 2026-05-08 21:41 | 48.80793 | 159.63167 | 36870 ft | 533 kts | 51° |
| 2026-05-08 21:42 | 48.85248 | 159.72160 | 36869 ft | 533 kts | 51° |
| 2026-05-08 21:42 | 48.89702 | 159.81180 | 36869 ft | 532 kts | 51° |
| 2026-05-08 21:43 | 48.94113 | 159.90144 | 36869 ft | 532 kts | 51° |
| 2026-05-08 21:43 | 48.98551 | 159.99196 | 36869 ft | 532 kts | 51° |
| 2026-05-08 21:44 | 49.02916 | 160.08257 | 36869 ft | 533 kts | 52° |
| 2026-05-08 21:44 | 49.07202 | 160.17484 | 36868 ft | 533 kts | 52° |
| 2026-05-08 21:45 | 49.11484 | 160.26747 | 36870 ft | 533 kts | 52° |
| 2026-05-08 21:45 | 49.15771 | 160.36001 | 36869 ft | 533 kts | 52° |
| 2026-05-08 21:46 | 49.20052 | 160.45246 | 36869 ft | 532 kts | 52° |
| 2026-05-08 21:46 | 49.24292 | 160.54431 | 36869 ft | 532 kts | 52° |
| 2026-05-08 21:47 | 49.28562 | 160.63715 | 36869 ft | 532 kts | 52° |
| 2026-05-08 21:47 | 49.32819 | 160.73010 | 36879 ft | 532 kts | 52° |
| 2026-05-08 21:48 | 49.37067 | 160.82319 | 36878 ft | 532 kts | 53° |
| 2026-05-08 21:48 | 49.41311 | 160.91646 | 36880 ft | 532 kts | 53° |
| 2026-05-08 21:49 | 49.45523 | 161.00929 | 36877 ft | 532 kts | 53° |
| 2026-05-08 21:49 | 49.49753 | 161.10290 | 36879 ft | 532 kts | 53° |
| 2026-05-08 21:50 | 49.53964 | 161.19675 | 36876 ft | 532 kts | 53° |
| 2026-05-08 21:50 | 49.58150 | 161.29104 | 36877 ft | 532 kts | 53° |
| 2026-05-08 21:51 | 49.62326 | 161.38542 | 36878 ft | 532 kts | 53° |
| 2026-05-08 21:51 | 49.66485 | 161.47966 | 36879 ft | 533 kts | 53° |
| 2026-05-08 21:52 | 49.70653 | 161.57450 | 36879 ft | 533 kts | 53° |
| 2026-05-08 21:52 | 49.74795 | 161.66904 | 36877 ft | 533 kts | 54° |
| 2026-05-08 21:53 | 49.78955 | 161.76438 | 36879 ft | 533 kts | 54° |
| 2026-05-08 21:53 | 49.83108 | 161.85971 | 36878 ft | 533 kts | 54° |
| 2026-05-08 21:54 | 49.87225 | 161.95459 | 36879 ft | 533 kts | 54° |
| 2026-05-08 21:54 | 49.91369 | 162.05050 | 36881 ft | 534 kts | 54° |
| 2026-05-08 21:55 | 49.95497 | 162.14644 | 36879 ft | 534 kts | 54° |
| 2026-05-08 21:56 | 50.01647 | 162.29005 | 36878 ft | 534 kts | 54° |
| 2026-05-08 21:56 | 50.05760 | 162.38649 | 36877 ft | 533 kts | 54° |
| 2026-05-08 21:57 | 50.09837 | 162.48245 | 36880 ft | 533 kts | 54° |
| 2026-05-08 21:57 | 50.13919 | 162.57896 | 36877 ft | 533 kts | 54° |
| 2026-05-08 21:58 | 50.18002 | 162.67581 | 36881 ft | 533 kts | 54° |
| 2026-05-08 21:58 | 50.22067 | 162.77250 | 36876 ft | 532 kts | 54° |
| 2026-05-08 21:59 | 50.26100 | 162.86879 | 36881 ft | 531 kts | 54° |
| 2026-05-08 21:59 | 50.30141 | 162.96566 | 36876 ft | 530 kts | 54° |
| 2026-05-08 22:00 | 50.34175 | 163.06269 | 36878 ft | 531 kts | 54° |
| 2026-05-08 22:00 | 50.38178 | 163.15927 | 36890 ft | 531 kts | 55° |
| 2026-05-08 22:01 | 50.42187 | 163.25645 | 36888 ft | 530 kts | 55° |
| 2026-05-08 22:01 | 50.46192 | 163.35390 | 36889 ft | 531 kts | 55° |
| 2026-05-08 22:02 | 50.50188 | 163.45156 | 36889 ft | 531 kts | 55° |
| 2026-05-08 22:02 | 50.54157 | 163.54886 | 36889 ft | 531 kts | 55° |
| 2026-05-08 22:03 | 50.58140 | 163.64687 | 36889 ft | 531 kts | 55° |
| 2026-05-08 22:03 | 50.62114 | 163.74504 | 36889 ft | 531 kts | 55° |
| 2026-05-08 22:04 | 50.66092 | 163.84346 | 36889 ft | 531 kts | 55° |
| 2026-05-08 22:04 | 50.70026 | 163.94127 | 36887 ft | 531 kts | 55° |
| 2026-05-08 22:05 | 50.73972 | 164.03973 | 36888 ft | 531 kts | 56° |
| 2026-05-08 22:05 | 50.77908 | 164.13843 | 36885 ft | 530 kts | 55° |
| 2026-05-08 22:06 | 50.81824 | 164.23696 | 36889 ft | 529 kts | 56° |
| 2026-05-08 22:06 | 50.85735 | 164.33584 | 36888 ft | 529 kts | 56° |
| 2026-05-08 22:07 | 50.89605 | 164.43402 | 36888 ft | 529 kts | 56° |
| 2026-05-08 22:07 | 50.93504 | 164.53287 | 36889 ft | 528 kts | 56° |
| 2026-05-08 22:08 | 50.96748 | 164.61495 | 36889 ft | 528 kts | 56° |
| 2026-05-08 22:08 | 51.00644 | 164.71386 | 36889 ft | 528 kts | 56° |
| 2026-05-08 22:09 | 51.04530 | 164.81304 | 36889 ft | 527 kts | 56° |
| 2026-05-08 22:09 | 51.08399 | 164.91217 | 36888 ft | 527 kts | 56° |
| 2026-05-08 22:10 | 51.12256 | 165.01150 | 36885 ft | 527 kts | 56° |
| 2026-05-08 22:10 | 51.16077 | 165.11026 | 36889 ft | 526 kts | 56° |
| 2026-05-08 22:11 | 51.19912 | 165.20959 | 36900 ft | 526 kts | 56° |
| 2026-05-08 22:11 | 51.23751 | 165.30936 | 36901 ft | 526 kts | 56° |
| 2026-05-08 22:12 | 51.27563 | 165.40907 | 36891 ft | 526 kts | 56° |
| 2026-05-08 22:12 | 51.31342 | 165.50829 | 36896 ft | 525 kts | 56° |
| 2026-05-08 22:13 | 51.35134 | 165.60823 | 36898 ft | 525 kts | 56° |
| 2026-05-08 22:13 | 51.38928 | 165.70827 | 36901 ft | 525 kts | 56° |
| 2026-05-08 22:14 | 51.42722 | 165.80815 | 36894 ft | 524 kts | 56° |
| 2026-05-08 22:14 | 51.46509 | 165.90831 | 36896 ft | 524 kts | 56° |
| 2026-05-08 22:15 | 51.50248 | 166.00767 | 36899 ft | 524 kts | 57° |
| 2026-05-08 22:15 | 51.54018 | 166.10820 | 36897 ft | 524 kts | 57° |
| 2026-05-08 22:16 | 51.57769 | 166.20876 | 36893 ft | 523 kts | 57° |
| 2026-05-08 22:16 | 51.61496 | 166.30888 | 36900 ft | 524 kts | 57° |
| 2026-05-08 22:17 | 51.65238 | 166.40985 | 36905 ft | 524 kts | 57° |
| 2026-05-08 22:17 | 51.68956 | 166.51081 | 36899 ft | 523 kts | 57° |
| 2026-05-08 22:18 | 51.72669 | 166.61195 | 36909 ft | 524 kts | 57° |
| 2026-05-08 22:18 | 51.76363 | 166.71296 | 36900 ft | 524 kts | 57° |
| 2026-05-08 22:19 | 51.80067 | 166.81453 | 36899 ft | 523 kts | 57° |
| 2026-05-08 22:19 | 51.83730 | 166.91536 | 36898 ft | 523 kts | 57° |
| 2026-05-08 22:20 | 51.87416 | 167.01721 | 36900 ft | 524 kts | 57° |
| 2026-05-08 22:20 | 51.91090 | 167.11927 | 36916 ft | 524 kts | 57° |
| 2026-05-08 22:21 | 51.94756 | 167.22163 | 36914 ft | 524 kts | 57° |
| 2026-05-08 22:21 | 51.98393 | 167.32366 | 36902 ft | 524 kts | 57° |
| 2026-05-08 22:22 | 52.02019 | 167.42541 | 36911 ft | 523 kts | 57° |
| 2026-05-08 22:22 | 52.05652 | 167.52772 | 36911 ft | 522 kts | 58° |
| 2026-05-08 22:23 | 52.09248 | 167.63015 | 36904 ft | 520 kts | 58° |
| 2026-05-08 22:23 | 52.12851 | 167.73267 | 36909 ft | 522 kts | 58° |
| 2026-05-08 22:24 | 52.16457 | 167.83533 | 36912 ft | 521 kts | 58° |
| 2026-05-08 22:24 | 52.20035 | 167.93801 | 36908 ft | 523 kts | 58° |
| 2026-05-08 22:25 | 52.23618 | 168.04147 | 36912 ft | 523 kts | 58° |
| 2026-05-08 22:25 | 52.27174 | 168.14415 | 36907 ft | 523 kts | 58° |
| 2026-05-08 22:26 | 52.30744 | 168.24785 | 36914 ft | 522 kts | 58° |
| 2026-05-08 22:26 | 52.34291 | 168.35140 | 36928 ft | 522 kts | 58° |
| 2026-05-08 22:27 | 52.37812 | 168.45450 | 36923 ft | 521 kts | 58° |
| 2026-05-08 22:27 | 52.41349 | 168.55839 | 36915 ft | 521 kts | 58° |
| 2026-05-08 22:28 | 52.44874 | 168.66233 | 36921 ft | 520 kts | 59° |
| 2026-05-08 22:28 | 52.48378 | 168.76624 | 36906 ft | 520 kts | 59° |
| 2026-05-08 22:29 | 52.51851 | 168.86970 | 36927 ft | 519 kts | 59° |
| 2026-05-08 22:29 | 52.55326 | 168.97357 | 36910 ft | 518 kts | 59° |
| 2026-05-08 22:30 | 52.58786 | 169.07762 | 36912 ft | 518 kts | 59° |
| 2026-05-08 22:30 | 52.62235 | 169.18184 | 36917 ft | 519 kts | 59° |
| 2026-05-08 22:31 | 52.65667 | 169.28568 | 36927 ft | 518 kts | 59° |
| 2026-05-08 22:31 | 52.69105 | 169.39014 | 36923 ft | 518 kts | 59° |
| 2026-05-08 22:32 | 52.72538 | 169.49497 | 36925 ft | 518 kts | 59° |
| 2026-05-08 22:32 | 52.75947 | 169.59954 | 36928 ft | 517 kts | 60° |
| 2026-05-08 22:33 | 52.79333 | 169.70377 | 36924 ft | 518 kts | 60° |
| 2026-05-08 22:33 | 52.82731 | 169.80899 | 36925 ft | 517 kts | 60° |
| 2026-05-08 22:34 | 52.86115 | 169.91423 | 36931 ft | 517 kts | 60° |
| 2026-05-08 22:34 | 52.89488 | 170.01934 | 36935 ft | 516 kts | 60° |
| 2026-05-08 22:35 | 52.92874 | 170.12407 | 37061 ft | 513 kts | 57° |
| 2026-05-08 22:35 | 52.94899 | 170.17263 | 37273 ft | 509 kts | 49° |
| 2026-05-08 22:35 | 52.97127 | 170.21836 | 37483 ft | 508 kts | 48° |
| 2026-05-08 22:35 | 52.99375 | 170.26273 | 37680 ft | 507 kts | 47° |
| 2026-05-08 22:36 | 53.01676 | 170.30725 | 37857 ft | 507 kts | 47° |
| 2026-05-08 22:36 | 53.03983 | 170.35152 | 38026 ft | 507 kts | 47° |
| 2026-05-08 22:36 | 53.06301 | 170.39595 | 38172 ft | 507 kts | 47° |
| 2026-05-08 22:36 | 53.08612 | 170.44040 | 38335 ft | 507 kts | 47° |
| 2026-05-08 22:37 | 53.10918 | 170.48494 | 38475 ft | 507 kts | 47° |
| 2026-05-08 22:37 | 53.13211 | 170.52945 | 38622 ft | 507 kts | 47° |
| 2026-05-08 22:37 | 53.15504 | 170.57410 | 38750 ft | 507 kts | 47° |
| 2026-05-08 22:37 | 53.17796 | 170.61886 | 38875 ft | 507 kts | 47° |
| 2026-05-08 22:38 | 53.20083 | 170.66363 | 38933 ft | 509 kts | 48° |
| 2026-05-08 22:38 | 53.24661 | 170.75342 | 38933 ft | 510 kts | 48° |
| 2026-05-08 22:39 | 53.29259 | 170.84393 | 38933 ft | 510 kts | 48° |
| 2026-05-08 22:39 | 53.33816 | 170.93399 | 38938 ft | 509 kts | 48° |
| 2026-05-08 22:40 | 53.38392 | 171.02467 | 38932 ft | 509 kts | 48° |
| 2026-05-08 22:40 | 53.42952 | 171.11538 | 38931 ft | 508 kts | 48° |
| 2026-05-08 22:41 | 53.47509 | 171.20638 | 38932 ft | 508 kts | 49° |
| 2026-05-08 22:41 | 53.52046 | 171.29738 | 38935 ft | 508 kts | 49° |
| 2026-05-08 22:42 | 53.56580 | 171.38859 | 38933 ft | 507 kts | 49° |
| 2026-05-08 22:42 | 53.61075 | 171.47934 | 38935 ft | 507 kts | 49° |
| 2026-05-08 22:43 | 53.65593 | 171.57090 | 38935 ft | 506 kts | 49° |
| 2026-05-08 22:43 | 53.70099 | 171.66254 | 38931 ft | 506 kts | 49° |
| 2026-05-08 22:44 | 53.74582 | 171.75407 | 38934 ft | 505 kts | 49° |
| 2026-05-08 22:44 | 53.79028 | 171.84521 | 38933 ft | 505 kts | 49° |
| 2026-05-08 22:45 | 53.83503 | 171.93727 | 38932 ft | 505 kts | 50° |
| 2026-05-08 22:45 | 53.87962 | 172.02930 | 38931 ft | 504 kts | 50° |
| 2026-05-08 22:46 | 53.92406 | 172.12139 | 38934 ft | 504 kts | 50° |
| 2026-05-08 22:46 | 53.96854 | 172.21387 | 38933 ft | 505 kts | 50° |
| 2026-05-08 22:47 | 54.01264 | 172.30594 | 38936 ft | 505 kts | 50° |
| 2026-05-08 22:47 | 54.05699 | 172.39885 | 38932 ft | 505 kts | 50° |
| 2026-05-08 22:48 | 54.10120 | 172.49184 | 38931 ft | 504 kts | 50° |
| 2026-05-08 22:48 | 54.14511 | 172.58455 | 38931 ft | 504 kts | 50° |
| 2026-05-08 22:49 | 54.18202 | 172.66275 | 38935 ft | 504 kts | 50° |
| 2026-05-08 22:49 | 54.24763 | 172.80260 | 38928 ft | 504 kts | 52° |
| 2026-05-08 22:50 | 54.28750 | 172.90120 | 38935 ft | 504 kts | 56° |
| 2026-05-08 22:50 | 54.32601 | 173.00079 | 38933 ft | 504 kts | 56° |
| 2026-05-08 22:51 | 54.36443 | 173.10135 | 38935 ft | 504 kts | 56° |
| 2026-05-08 22:51 | 54.40288 | 173.20219 | 38933 ft | 503 kts | 56° |
| 2026-05-08 22:52 | 54.44120 | 173.30297 | 38931 ft | 504 kts | 56° |
| 2026-05-08 22:52 | 54.47924 | 173.40328 | 38938 ft | 504 kts | 57° |
| 2026-05-08 22:53 | 54.51751 | 173.50464 | 38934 ft | 504 kts | 57° |
| 2026-05-08 22:53 | 54.55564 | 173.60610 | 38934 ft | 504 kts | 57° |
| 2026-05-08 22:54 | 54.59370 | 173.70774 | 38934 ft | 504 kts | 57° |
| 2026-05-08 22:54 | 54.63134 | 173.80867 | 38936 ft | 503 kts | 57° |
| 2026-05-08 22:55 | 54.66921 | 173.91054 | 38934 ft | 503 kts | 57° |
| 2026-05-08 22:55 | 54.70695 | 174.01272 | 38933 ft | 504 kts | 57° |
| 2026-05-08 22:56 | 54.74455 | 174.11489 | 38931 ft | 503 kts | 57° |
| 2026-05-08 22:56 | 54.78215 | 174.21736 | 38942 ft | 502 kts | 57° |
| 2026-05-08 22:57 | 54.81955 | 174.31973 | 38941 ft | 502 kts | 57° |
| 2026-05-08 22:57 | 54.85685 | 174.42227 | 38943 ft | 502 kts | 58° |
| 2026-05-08 22:58 | 54.89384 | 174.52435 | 38944 ft | 501 kts | 58° |
| 2026-05-08 22:58 | 54.93088 | 174.62707 | 38942 ft | 501 kts | 58° |
| 2026-05-08 22:59 | 54.96790 | 174.73012 | 38943 ft | 501 kts | 58° |
| 2026-05-08 22:59 | 55.00476 | 174.83321 | 38947 ft | 501 kts | 58° |
| 2026-05-08 23:00 | 55.04152 | 174.93640 | 38942 ft | 501 kts | 58° |
| 2026-05-08 23:00 | 55.07791 | 175.03899 | 38942 ft | 500 kts | 58° |
| 2026-05-08 23:01 | 55.11443 | 175.14243 | 38943 ft | 500 kts | 58° |
| 2026-05-08 23:01 | 55.15085 | 175.24600 | 38944 ft | 500 kts | 58° |
| 2026-05-08 23:02 | 55.18714 | 175.34963 | 38943 ft | 500 kts | 58° |
| 2026-05-08 23:02 | 55.22347 | 175.45381 | 38945 ft | 501 kts | 58° |
| 2026-05-08 23:03 | 55.25970 | 175.55815 | 38942 ft | 500 kts | 59° |
| 2026-05-08 23:03 | 55.29587 | 175.66273 | 38942 ft | 500 kts | 59° |
| 2026-05-08 23:04 | 55.33161 | 175.76660 | 38941 ft | 499 kts | 59° |
| 2026-05-08 23:04 | 55.36744 | 175.87120 | 38942 ft | 499 kts | 59° |
| 2026-05-08 23:05 | 55.40330 | 175.97612 | 38943 ft | 499 kts | 59° |
| 2026-05-08 23:05 | 55.43901 | 176.08111 | 38946 ft | 498 kts | 59° |
| 2026-05-08 23:06 | 55.47423 | 176.18541 | 38942 ft | 498 kts | 59° |
| 2026-05-08 23:06 | 55.50968 | 176.29069 | 38941 ft | 498 kts | 59° |
| 2026-05-08 23:07 | 55.54508 | 176.39608 | 38942 ft | 498 kts | 60° |
| 2026-05-08 23:07 | 55.58042 | 176.50191 | 38942 ft | 499 kts | 60° |
| 2026-05-08 23:08 | 55.61541 | 176.60695 | 38954 ft | 499 kts | 60° |
| 2026-05-08 23:08 | 55.65050 | 176.71291 | 38953 ft | 498 kts | 60° |
| 2026-05-08 23:09 | 55.68549 | 176.81911 | 38952 ft | 498 kts | 60° |
| 2026-05-08 23:09 | 55.72040 | 176.92548 | 38953 ft | 498 kts | 60° |
| 2026-05-08 23:10 | 55.75500 | 177.03146 | 38952 ft | 498 kts | 60° |
| 2026-05-08 23:10 | 55.78974 | 177.13817 | 38952 ft | 498 kts | 60° |
| 2026-05-08 23:11 | 55.82437 | 177.24496 | 38952 ft | 498 kts | 60° |
| 2026-05-08 23:11 | 55.85883 | 177.35187 | 38952 ft | 498 kts | 60° |
| 2026-05-08 23:12 | 55.89299 | 177.45841 | 38962 ft | 496 kts | 60° |
| 2026-05-08 23:12 | 55.92722 | 177.56554 | 38962 ft | 496 kts | 60° |
| 2026-05-08 23:13 | 55.96115 | 177.67215 | 38970 ft | 496 kts | 61° |
| 2026-05-08 23:13 | 55.99518 | 177.77961 | 38970 ft | 495 kts | 61° |
| 2026-05-08 23:14 | 56.02900 | 177.88688 | 38970 ft | 495 kts | 61° |
| 2026-05-08 23:14 | 56.06274 | 177.99439 | 38971 ft | 495 kts | 61° |
| 2026-05-08 23:15 | 56.09637 | 178.10201 | 38971 ft | 495 kts | 61° |
| 2026-05-08 23:15 | 56.12970 | 178.20921 | 38971 ft | 495 kts | 61° |
| 2026-05-08 23:16 | 56.16316 | 178.31740 | 38972 ft | 495 kts | 61° |
| 2026-05-08 23:16 | 56.19657 | 178.42586 | 38971 ft | 494 kts | 62° |
| 2026-05-08 23:17 | 56.22959 | 178.53355 | 38976 ft | 494 kts | 62° |
| 2026-05-08 23:17 | 56.26269 | 178.64200 | 38983 ft | 494 kts | 62° |
| 2026-05-08 23:18 | 56.29578 | 178.75087 | 38982 ft | 494 kts | 62° |
| 2026-05-08 23:18 | 56.32850 | 178.85901 | 38978 ft | 494 kts | 62° |
| 2026-05-08 23:19 | 56.36135 | 178.96818 | 38978 ft | 493 kts | 62° |
| 2026-05-08 23:19 | 56.39399 | 179.07713 | 38983 ft | 493 kts | 62° |
| 2026-05-08 23:20 | 56.42637 | 179.18577 | 38980 ft | 493 kts | 62° |
| 2026-05-08 23:20 | 56.45885 | 179.29514 | 38981 ft | 493 kts | 62° |
| 2026-05-08 23:21 | 56.49124 | 179.40476 | 38981 ft | 493 kts | 62° |
| 2026-05-08 23:21 | 56.52348 | 179.51434 | 38990 ft | 493 kts | 62° |
| 2026-05-08 23:22 | 56.55542 | 179.62340 | 38991 ft | 493 kts | 62° |
| 2026-05-08 23:22 | 56.58744 | 179.73331 | 38986 ft | 492 kts | 62° |
| 2026-05-08 23:23 | 56.61944 | 179.84365 | 38991 ft | 492 kts | 62° |
| 2026-05-08 23:23 | 56.65113 | 179.95347 | 38974 ft | 493 kts | 63° |
| 2026-05-08 23:24 | 56.68290 | -179.93602 | 38962 ft | 492 kts | 63° |
| 2026-05-08 23:24 | 56.71453 | -179.82540 | 38901 ft | 492 kts | 63° |
| 2026-05-08 23:25 | 56.74583 | -179.71529 | 38899 ft | 492 kts | 63° |
| 2026-05-08 23:25 | 56.77723 | -179.60443 | 38899 ft | 492 kts | 63° |
| 2026-05-08 23:26 | 56.80851 | -179.49334 | 38894 ft | 491 kts | 63° |
| 2026-05-08 23:26 | 56.83953 | -179.38279 | 38896 ft | 491 kts | 63° |
| 2026-05-08 23:27 | 56.87056 | -179.27163 | 38897 ft | 491 kts | 63° |
| 2026-05-08 23:27 | 56.90151 | -179.16011 | 38895 ft | 491 kts | 63° |
| 2026-05-08 23:28 | 56.93237 | -179.04840 | 38899 ft | 491 kts | 63° |
| 2026-05-08 23:28 | 56.96295 | -178.93726 | 38910 ft | 490 kts | 63° |
| 2026-05-08 23:29 | 56.99358 | -178.82541 | 38905 ft | 490 kts | 64° |
| 2026-05-08 23:29 | 57.01898 | -178.73217 | 38910 ft | 490 kts | 64° |
| 2026-05-08 23:30 | 57.05440 | -178.60142 | 38905 ft | 490 kts | 64° |
| 2026-05-08 23:30 | 57.07957 | -178.50815 | 38908 ft | 490 kts | 64° |
| 2026-05-08 23:31 | 57.10981 | -178.39559 | 38910 ft | 490 kts | 64° |
| 2026-05-08 23:31 | 57.13994 | -178.28289 | 38907 ft | 490 kts | 64° |
| 2026-05-08 23:32 | 57.16992 | -178.17023 | 38905 ft | 490 kts | 64° |
| 2026-05-08 23:32 | 57.19981 | -178.05725 | 38906 ft | 490 kts | 64° |
| 2026-05-08 23:33 | 57.22960 | -177.94406 | 38905 ft | 490 kts | 64° |
| 2026-05-08 23:33 | 57.25912 | -177.83137 | 38907 ft | 490 kts | 64° |
| 2026-05-08 23:34 | 57.28869 | -177.71788 | 38919 ft | 489 kts | 64° |
| 2026-05-08 23:34 | 57.31820 | -177.60412 | 38914 ft | 489 kts | 64° |
| 2026-05-08 23:35 | 57.34741 | -177.49088 | 38917 ft | 489 kts | 64° |
| 2026-05-08 23:35 | 57.37672 | -177.37673 | 38910 ft | 490 kts | 65° |
| 2026-05-08 23:36 | 57.40594 | -177.26243 | 38937 ft | 490 kts | 65° |
| 2026-05-08 23:36 | 57.43486 | -177.14858 | 38936 ft | 489 kts | 65° |
| 2026-05-08 23:37 | 57.46378 | -177.03406 | 38936 ft | 489 kts | 65° |
| 2026-05-08 23:37 | 57.49263 | -176.91929 | 38932 ft | 489 kts | 65° |
| 2026-05-08 23:38 | 57.52134 | -176.80454 | 38938 ft | 489 kts | 65° |
| 2026-05-08 23:38 | 57.54996 | -176.68961 | 38935 ft | 489 kts | 65° |
| 2026-05-08 23:39 | 57.57848 | -176.57437 | 38941 ft | 489 kts | 65° |
| 2026-05-08 23:39 | 57.60675 | -176.45960 | 38945 ft | 489 kts | 65° |
| 2026-05-08 23:40 | 57.63514 | -176.34410 | 38940 ft | 488 kts | 65° |
| 2026-05-08 23:40 | 57.66325 | -176.22942 | 38943 ft | 488 kts | 65° |
| 2026-05-08 23:41 | 57.69145 | -176.11366 | 38941 ft | 488 kts | 65° |
| 2026-05-08 23:41 | 57.71952 | -175.99795 | 38944 ft | 488 kts | 65° |
| 2026-05-08 23:42 | 57.74745 | -175.88203 | 38963 ft | 488 kts | 65° |
| 2026-05-08 23:42 | 57.77533 | -175.76594 | 39011 ft | 488 kts | 65° |
| 2026-05-08 23:43 | 57.80306 | -175.64963 | 39014 ft | 488 kts | 66° |
| 2026-05-08 23:43 | 57.83048 | -175.53397 | 39019 ft | 488 kts | 66° |
| 2026-05-08 23:44 | 57.85805 | -175.41716 | 39026 ft | 489 kts | 66° |
| 2026-05-08 23:44 | 57.88551 | -175.30020 | 39013 ft | 488 kts | 66° |
| 2026-05-08 23:45 | 57.91269 | -175.18380 | 39008 ft | 489 kts | 66° |
| 2026-05-08 23:45 | 57.93993 | -175.06642 | 39027 ft | 488 kts | 66° |
| 2026-05-08 23:46 | 57.96703 | -174.94901 | 39020 ft | 488 kts | 66° |
| 2026-05-08 23:46 | 57.99404 | -174.83135 | 39019 ft | 488 kts | 66° |
| 2026-05-08 23:47 | 58.02094 | -174.71355 | 39002 ft | 488 kts | 66° |
| 2026-05-08 23:47 | 58.04747 | -174.59668 | 39017 ft | 487 kts | 66° |
| 2026-05-08 23:48 | 58.07402 | -174.47908 | 39007 ft | 487 kts | 66° |
| 2026-05-08 23:48 | 58.10050 | -174.36122 | 39017 ft | 487 kts | 66° |
| 2026-05-08 23:49 | 58.12688 | -174.24316 | 39009 ft | 487 kts | 67° |
| 2026-05-08 23:49 | 58.15318 | -174.12466 | 39013 ft | 487 kts | 67° |
| 2026-05-08 23:50 | 58.17921 | -174.00677 | 39000 ft | 487 kts | 67° |
| 2026-05-08 23:50 | 58.20529 | -173.88796 | 39002 ft | 487 kts | 67° |
| 2026-05-08 23:51 | 58.23114 | -173.76959 | 39002 ft | 487 kts | 67° |
| 2026-05-08 23:51 | 58.25696 | -173.65067 | 39002 ft | 487 kts | 67° |
| 2026-05-08 23:52 | 58.28274 | -173.53156 | 38997 ft | 487 kts | 67° |
| 2026-05-08 23:52 | 58.30913 | -173.41304 | 39001 ft | 486 kts | 66° |
| 2026-05-08 23:53 | 58.33571 | -173.29445 | 39001 ft | 486 kts | 66° |
| 2026-05-08 23:53 | 58.36189 | -173.17642 | 38999 ft | 486 kts | 67° |
| 2026-05-08 23:54 | 58.38798 | -173.05759 | 39001 ft | 486 kts | 67° |
| 2026-05-08 23:55 | 58.42689 | -172.87896 | 39006 ft | 485 kts | 67° |
| 2026-05-08 23:55 | 58.45272 | -172.75954 | 38992 ft | 485 kts | 67° |
| 2026-05-08 23:56 | 58.47823 | -172.64094 | 39003 ft | 485 kts | 67° |
| 2026-05-08 23:56 | 58.50382 | -172.52137 | 38997 ft | 485 kts | 67° |
| 2026-05-08 23:57 | 58.52931 | -172.40149 | 38995 ft | 486 kts | 67° |
| 2026-05-08 23:57 | 58.55458 | -172.28191 | 38998 ft | 486 kts | 68° |
| 2026-05-08 23:58 | 58.57985 | -172.16171 | 39001 ft | 486 kts | 68° |
| 2026-05-08 23:58 | 58.60501 | -172.04137 | 39002 ft | 486 kts | 68° |
| 2026-05-08 23:59 | 58.62988 | -171.92153 | 38996 ft | 486 kts | 68° |
| 2026-05-08 23:59 | 58.65480 | -171.80088 | 38997 ft | 486 kts | 68° |
| 2026-05-09 00:00 | 58.67962 | -171.68004 | 38994 ft | 486 kts | 68° |
| 2026-05-09 00:00 | 58.70434 | -171.55895 | 39026 ft | 485 kts | 68° |
| 2026-05-09 00:01 | 58.72891 | -171.43777 | 39011 ft | 485 kts | 68° |
| 2026-05-09 00:01 | 58.75322 | -171.31716 | 39015 ft | 485 kts | 68° |
| 2026-05-09 00:02 | 58.77836 | -171.19644 | 39026 ft | 485 kts | 66° |
| 2026-05-09 00:02 | 58.80456 | -171.07646 | 39009 ft | 485 kts | 66° |
| 2026-05-09 00:03 | 58.83062 | -170.95621 | 39007 ft | 485 kts | 67° |
| 2026-05-09 00:03 | 58.85625 | -170.83610 | 39010 ft | 486 kts | 67° |
| 2026-05-09 00:04 | 58.88185 | -170.71509 | 38998 ft | 486 kts | 67° |
| 2026-05-09 00:04 | 58.90736 | -170.59366 | 38999 ft | 486 kts | 67° |
| 2026-05-09 00:05 | 58.93271 | -170.47241 | 38997 ft | 486 kts | 68° |
| 2026-05-09 00:05 | 58.95797 | -170.35065 | 39006 ft | 486 kts | 68° |
| 2026-05-09 00:06 | 58.98298 | -170.22960 | 39004 ft | 486 kts | 68° |
| 2026-05-09 00:06 | 59.00806 | -170.10746 | 38988 ft | 486 kts | 68° |
| 2026-05-09 00:07 | 59.03284 | -169.98594 | 38992 ft | 486 kts | 68° |
| 2026-05-09 00:07 | 59.05763 | -169.86361 | 38988 ft | 486 kts | 68° |
| 2026-05-09 00:08 | 59.08232 | -169.74109 | 38986 ft | 486 kts | 68° |
| 2026-05-09 00:08 | 59.10685 | -169.61851 | 38989 ft | 486 kts | 68° |
| 2026-05-09 00:09 | 59.13121 | -169.49617 | 38996 ft | 486 kts | 68° |
| 2026-05-09 00:09 | 59.15558 | -169.37298 | 38997 ft | 486 kts | 68° |
| 2026-05-09 00:10 | 59.17985 | -169.24963 | 39006 ft | 486 kts | 68° |
| 2026-05-09 00:10 | 59.20400 | -169.12616 | 38998 ft | 487 kts | 68° |
| 2026-05-09 00:11 | 59.22398 | -169.02326 | 39001 ft | 487 kts | 68° |
| 2026-05-09 00:11 | 59.25176 | -168.87922 | 38994 ft | 487 kts | 69° |
| 2026-05-09 00:12 | 59.27171 | -168.77516 | 38995 ft | 488 kts | 69° |
| 2026-05-09 00:12 | 59.29543 | -168.65084 | 39000 ft | 487 kts | 69° |
| 2026-05-09 00:13 | 59.31890 | -168.52700 | 38999 ft | 488 kts | 69° |
| 2026-05-09 00:13 | 59.34240 | -168.40218 | 39002 ft | 488 kts | 69° |
| 2026-05-09 00:14 | 59.36576 | -168.27734 | 39000 ft | 487 kts | 69° |
| 2026-05-09 00:14 | 59.38897 | -168.15241 | 38999 ft | 487 kts | 69° |
| 2026-05-09 00:15 | 59.41207 | -168.02732 | 38994 ft | 487 kts | 69° |
| 2026-05-09 00:15 | 59.43505 | -167.90205 | 38986 ft | 487 kts | 69° |
| 2026-05-09 00:16 | 59.45793 | -167.77653 | 38988 ft | 488 kts | 69° |
| 2026-05-09 00:16 | 59.48071 | -167.65067 | 38988 ft | 488 kts | 69° |
| 2026-05-09 00:17 | 59.50337 | -167.52463 | 38982 ft | 488 kts | 69° |
| 2026-05-09 00:17 | 59.52613 | -167.39854 | 38977 ft | 488 kts | 69° |
| 2026-05-09 00:18 | 59.54910 | -167.27266 | 38980 ft | 488 kts | 69° |
| 2026-05-09 00:18 | 59.57197 | -167.14646 | 38981 ft | 489 kts | 69° |
| 2026-05-09 00:19 | 59.59451 | -167.02103 | 38979 ft | 489 kts | 69° |
| 2026-05-09 00:19 | 59.61713 | -166.89424 | 38983 ft | 489 kts | 70° |
| 2026-05-09 00:20 | 59.63963 | -166.76710 | 38980 ft | 489 kts | 70° |
| 2026-05-09 00:20 | 59.66201 | -166.63993 | 38983 ft | 489 kts | 70° |
| 2026-05-09 00:21 | 59.68411 | -166.51335 | 38984 ft | 489 kts | 70° |
| 2026-05-09 00:21 | 59.70620 | -166.38595 | 38980 ft | 489 kts | 70° |
| 2026-05-09 00:22 | 59.72819 | -166.25823 | 38975 ft | 490 kts | 70° |
| 2026-05-09 00:22 | 59.75004 | -166.13017 | 38978 ft | 489 kts | 70° |
| 2026-05-09 00:23 | 59.77167 | -166.00291 | 38979 ft | 489 kts | 70° |
| 2026-05-09 00:23 | 59.79334 | -165.87460 | 38979 ft | 489 kts | 70° |
| 2026-05-09 00:24 | 59.81486 | -165.74614 | 38981 ft | 489 kts | 70° |
| 2026-05-09 00:24 | 59.83611 | -165.61851 | 38981 ft | 489 kts | 70° |
| 2026-05-09 00:25 | 59.85737 | -165.48972 | 38984 ft | 490 kts | 71° |
| 2026-05-09 00:25 | 59.87852 | -165.36063 | 38972 ft | 490 kts | 71° |
| 2026-05-09 00:26 | 59.89955 | -165.23121 | 38971 ft | 491 kts | 71° |
| 2026-05-09 00:26 | 59.92048 | -165.10165 | 38972 ft | 491 kts | 71° |
| 2026-05-09 00:27 | 59.94132 | -164.97165 | 38936 ft | 492 kts | 71° |
| 2026-05-09 00:27 | 59.96208 | -164.84135 | 38932 ft | 492 kts | 71° |
| 2026-05-09 00:28 | 59.98261 | -164.71154 | 38924 ft | 493 kts | 71° |
| 2026-05-09 00:28 | 60.00313 | -164.58059 | 38928 ft | 493 kts | 71° |
| 2026-05-09 00:29 | 60.02350 | -164.44965 | 38915 ft | 493 kts | 71° |
| 2026-05-09 00:29 | 60.04374 | -164.31850 | 38914 ft | 493 kts | 71° |
| 2026-05-09 00:30 | 60.06388 | -164.18712 | 38912 ft | 494 kts | 72° |
| 2026-05-09 00:30 | 60.08381 | -164.05615 | 38906 ft | 494 kts | 72° |
| 2026-05-09 00:31 | 60.10369 | -163.92441 | 38906 ft | 494 kts | 72° |
| 2026-05-09 00:31 | 60.12349 | -163.79225 | 38906 ft | 494 kts | 72° |
| 2026-05-09 00:32 | 60.14316 | -163.65994 | 38907 ft | 494 kts | 72° |
| 2026-05-09 00:32 | 60.16267 | -163.52757 | 38906 ft | 494 kts | 72° |
| 2026-05-09 00:33 | 60.18193 | -163.39585 | 38908 ft | 494 kts | 72° |
| 2026-05-09 00:33 | 60.20123 | -163.26281 | 38899 ft | 494 kts | 72° |
| 2026-05-09 00:34 | 60.22036 | -163.12980 | 38887 ft | 494 kts | 73° |
| 2026-05-09 00:34 | 60.23928 | -162.99734 | 38884 ft | 495 kts | 73° |
| 2026-05-09 00:35 | 60.25820 | -162.86368 | 38879 ft | 495 kts | 73° |
| 2026-05-09 00:35 | 60.27694 | -162.73017 | 38878 ft | 495 kts | 73° |
| 2026-05-09 00:36 | 60.29554 | -162.59719 | 38874 ft | 495 kts | 73° |
| 2026-05-09 00:36 | 60.31475 | -162.46360 | 38869 ft | 496 kts | 73° |
| 2026-05-09 00:37 | 60.33405 | -162.32978 | 38867 ft | 496 kts | 73° |
| 2026-05-09 00:37 | 60.35310 | -162.19588 | 38870 ft | 496 kts | 73° |
| 2026-05-09 00:38 | 60.37200 | -162.06159 | 38873 ft | 496 kts | 73° |
| 2026-05-09 00:38 | 60.39072 | -161.92730 | 38872 ft | 496 kts | 73° |
| 2026-05-09 00:39 | 60.40920 | -161.79369 | 38868 ft | 497 kts | 73° |
| 2026-05-09 00:39 | 60.42774 | -161.65861 | 38868 ft | 497 kts | 73° |
| 2026-05-09 00:40 | 60.44607 | -161.52376 | 38870 ft | 496 kts | 74° |
| 2026-05-09 00:40 | 60.46429 | -161.38848 | 38860 ft | 497 kts | 74° |
| 2026-05-09 00:41 | 60.49135 | -161.18564 | 38859 ft | 497 kts | 74° |
| 2026-05-09 00:41 | 60.50919 | -161.05032 | 38860 ft | 496 kts | 74° |
| 2026-05-09 00:42 | 60.52686 | -160.91486 | 38860 ft | 497 kts | 75° |
| 2026-05-09 00:42 | 60.54446 | -160.77907 | 38860 ft | 497 kts | 75° |
| 2026-05-09 00:43 | 60.56182 | -160.64387 | 38860 ft | 497 kts | 75° |
| 2026-05-09 00:43 | 60.57914 | -160.50769 | 38861 ft | 497 kts | 75° |
| 2026-05-09 00:44 | 60.59639 | -160.37110 | 38871 ft | 498 kts | 75° |
| 2026-05-09 00:44 | 60.61349 | -160.23452 | 38860 ft | 498 kts | 75° |
| 2026-05-09 00:45 | 60.63048 | -160.09742 | 38860 ft | 498 kts | 75° |
| 2026-05-09 00:45 | 60.64720 | -159.96104 | 38860 ft | 498 kts | 75° |
| 2026-05-09 00:46 | 60.66386 | -159.82378 | 38851 ft | 498 kts | 76° |
| 2026-05-09 00:46 | 60.68043 | -159.68606 | 38851 ft | 498 kts | 76° |
| 2026-05-09 00:47 | 60.69685 | -159.54847 | 38850 ft | 499 kts | 76° |
| 2026-05-09 00:47 | 60.71304 | -159.41140 | 38841 ft | 498 kts | 76° |
| 2026-05-09 00:48 | 60.72919 | -159.27328 | 38841 ft | 498 kts | 76° |
| 2026-05-09 00:48 | 60.74508 | -159.13611 | 38841 ft | 499 kts | 76° |
| 2026-05-09 00:49 | 60.76092 | -158.99777 | 38832 ft | 499 kts | 76° |
| 2026-05-09 00:49 | 60.77661 | -158.85946 | 38816 ft | 499 kts | 76° |
| 2026-05-09 00:50 | 60.79220 | -158.72087 | 38812 ft | 499 kts | 77° |
| 2026-05-09 00:50 | 60.80501 | -158.60586 | 38814 ft | 499 kts | 77° |
| 2026-05-09 00:51 | 60.82280 | -158.44434 | 38816 ft | 499 kts | 77° |
| 2026-05-09 00:51 | 60.83539 | -158.32887 | 38814 ft | 499 kts | 77° |
| 2026-05-09 00:52 | 60.85043 | -158.18972 | 38813 ft | 499 kts | 77° |
| 2026-05-09 00:52 | 60.86530 | -158.05059 | 38814 ft | 499 kts | 77° |
| 2026-05-09 00:53 | 60.88007 | -157.91104 | 38815 ft | 499 kts | 77° |
| 2026-05-09 00:53 | 60.89457 | -157.77238 | 38813 ft | 499 kts | 78° |
| 2026-05-09 00:54 | 60.90902 | -157.63283 | 38813 ft | 499 kts | 78° |
| 2026-05-09 00:54 | 60.92336 | -157.49277 | 38814 ft | 499 kts | 78° |
| 2026-05-09 00:55 | 60.93755 | -157.35249 | 38812 ft | 500 kts | 78° |
| 2026-05-09 00:55 | 60.95155 | -157.21248 | 38805 ft | 500 kts | 78° |
| 2026-05-09 00:56 | 60.96535 | -157.07322 | 38801 ft | 500 kts | 78° |
| 2026-05-09 00:56 | 60.97908 | -156.93288 | 38763 ft | 499 kts | 78° |
| 2026-05-09 00:57 | 60.99268 | -156.79226 | 38763 ft | 500 kts | 79° |
| 2026-05-09 00:57 | 61.00616 | -156.65144 | 38761 ft | 500 kts | 79° |
| 2026-05-09 00:58 | 61.01937 | -156.51160 | 38757 ft | 500 kts | 79° |
| 2026-05-09 00:58 | 61.03250 | -156.37078 | 38750 ft | 500 kts | 79° |
| 2026-05-09 00:59 | 61.04561 | -156.22872 | 38750 ft | 507 kts | 79° |
| 2026-05-09 00:59 | 61.05874 | -156.08482 | 38740 ft | 511 kts | 79° |
| 2026-05-09 01:00 | 61.07178 | -155.94043 | 38739 ft | 511 kts | 79° |
| 2026-05-09 01:00 | 61.08455 | -155.79656 | 38730 ft | 511 kts | 80° |
| 2026-05-09 01:01 | 61.09922 | -155.65257 | 38730 ft | 511 kts | 72° |
| 2026-05-09 01:01 | 61.12732 | -155.51730 | 38729 ft | 511 kts | 64° |
| 2026-05-09 01:02 | 61.15917 | -155.38552 | 38702 ft | 512 kts | 63° |
| 2026-05-09 01:02 | 61.19134 | -155.25491 | 38702 ft | 512 kts | 63° |
| 2026-05-09 01:03 | 61.22350 | -155.12290 | 38702 ft | 512 kts | 63° |
| 2026-05-09 01:03 | 61.25536 | -154.99053 | 38701 ft | 512 kts | 64° |
| 2026-05-09 01:04 | 61.28708 | -154.85771 | 38709 ft | 512 kts | 64° |
| 2026-05-09 01:04 | 61.31129 | -154.75581 | 38714 ft | 512 kts | 64° |
| 2026-05-09 01:05 | 61.34271 | -154.62281 | 38711 ft | 512 kts | 64° |
| 2026-05-09 01:06 | 61.38966 | -154.42251 | 38715 ft | 513 kts | 64° |
| 2026-05-09 01:06 | 61.42082 | -154.28867 | 38712 ft | 512 kts | 64° |
| 2026-05-09 01:07 | 61.45179 | -154.15459 | 38711 ft | 513 kts | 64° |
| 2026-05-09 01:07 | 61.48266 | -154.02013 | 38711 ft | 512 kts | 64° |
| 2026-05-09 01:08 | 61.51341 | -153.88550 | 38708 ft | 513 kts | 65° |
| 2026-05-09 01:08 | 61.54403 | -153.75051 | 38702 ft | 513 kts | 65° |
| 2026-05-09 01:09 | 61.57451 | -153.61524 | 38701 ft | 513 kts | 65° |
| 2026-05-09 01:09 | 61.60488 | -153.47971 | 38701 ft | 513 kts | 65° |
| 2026-05-09 01:10 | 61.63509 | -153.34402 | 38702 ft | 512 kts | 65° |
| 2026-05-09 01:10 | 61.66514 | -153.20802 | 38693 ft | 513 kts | 65° |
| 2026-05-09 01:11 | 61.69506 | -153.07183 | 38691 ft | 512 kts | 65° |
| 2026-05-09 01:11 | 61.72487 | -152.93534 | 38691 ft | 512 kts | 66° |
| 2026-05-09 01:12 | 61.75454 | -152.79857 | 38692 ft | 512 kts | 66° |
| 2026-05-09 01:12 | 61.78385 | -152.66255 | 38685 ft | 512 kts | 66° |
| 2026-05-09 01:13 | 61.81321 | -152.52531 | 38684 ft | 512 kts | 66° |
| 2026-05-09 01:13 | 61.84268 | -152.38691 | 38683 ft | 512 kts | 66° |
| 2026-05-09 01:14 | 61.87160 | -152.25004 | 38684 ft | 512 kts | 66° |
| 2026-05-09 01:14 | 61.90054 | -152.11210 | 38693 ft | 512 kts | 66° |
| 2026-05-09 01:15 | 61.92936 | -151.97384 | 38692 ft | 513 kts | 66° |
| 2026-05-09 01:15 | 61.95823 | -151.83433 | 38696 ft | 512 kts | 66° |
| 2026-05-09 01:16 | 61.98678 | -151.69554 | 38701 ft | 512 kts | 67° |
| 2026-05-09 01:16 | 62.01521 | -151.55641 | 38702 ft | 512 kts | 67° |
| 2026-05-09 01:17 | 62.05757 | -151.34723 | 38711 ft | 512 kts | 67° |
| 2026-05-09 01:17 | 62.08545 | -151.20847 | 38711 ft | 512 kts | 67° |
| 2026-05-09 01:18 | 62.11336 | -151.06854 | 38719 ft | 512 kts | 68° |
| 2026-05-09 01:18 | 62.14112 | -150.92828 | 38738 ft | 513 kts | 68° |
| 2026-05-09 01:19 | 62.16878 | -150.78777 | 38739 ft | 512 kts | 68° |
| 2026-05-09 01:19 | 62.19628 | -150.64711 | 38739 ft | 512 kts | 68° |
| 2026-05-09 01:20 | 62.22363 | -150.50613 | 38739 ft | 512 kts | 68° |
| 2026-05-09 01:20 | 62.25086 | -150.36480 | 38739 ft | 512 kts | 68° |
| 2026-05-09 01:21 | 62.27791 | -150.22330 | 38739 ft | 512 kts | 69° |
| 2026-05-09 01:21 | 62.30482 | -150.08162 | 38739 ft | 512 kts | 69° |
| 2026-05-09 01:22 | 62.33157 | -149.93971 | 38739 ft | 512 kts | 69° |
| 2026-05-09 01:22 | 62.35819 | -149.79739 | 38738 ft | 513 kts | 69° |
| 2026-05-09 01:23 | 62.38470 | -149.65472 | 38740 ft | 513 kts | 69° |
| 2026-05-09 01:23 | 62.41107 | -149.51192 | 38738 ft | 513 kts | 69° |
| 2026-05-09 01:24 | 62.43725 | -149.36892 | 38730 ft | 513 kts | 69° |
| 2026-05-09 01:24 | 62.46331 | -149.22555 | 38729 ft | 513 kts | 69° |
| 2026-05-09 01:25 | 62.48926 | -149.08177 | 38722 ft | 513 kts | 70° |
| 2026-05-09 01:25 | 62.51504 | -148.93781 | 38701 ft | 513 kts | 70° |
| 2026-05-09 01:26 | 62.54071 | -148.79347 | 38699 ft | 514 kts | 70° |
| 2026-05-09 01:26 | 62.56625 | -148.64884 | 38673 ft | 515 kts | 70° |
| 2026-05-09 01:27 | 62.59163 | -148.50374 | 38673 ft | 514 kts | 70° |
| 2026-05-09 01:27 | 62.61686 | -148.35849 | 38674 ft | 514 kts | 70° |
| 2026-05-09 01:28 | 62.64195 | -148.21297 | 38674 ft | 514 kts | 70° |
| 2026-05-09 01:28 | 62.66690 | -148.06721 | 38675 ft | 514 kts | 71° |
| 2026-05-09 01:29 | 62.69167 | -147.92128 | 38674 ft | 514 kts | 71° |
| 2026-05-09 01:29 | 62.71632 | -147.77494 | 38664 ft | 514 kts | 71° |
| 2026-05-09 01:30 | 62.74084 | -147.62852 | 38666 ft | 514 kts | 71° |
| 2026-05-09 01:30 | 62.76517 | -147.48191 | 38664 ft | 514 kts | 71° |
| 2026-05-09 01:31 | 62.78934 | -147.33483 | 38665 ft | 514 kts | 71° |
| 2026-05-09 01:31 | 62.81334 | -147.18766 | 38665 ft | 514 kts | 71° |
| 2026-05-09 01:32 | 62.83721 | -147.04015 | 38672 ft | 514 kts | 71° |
| 2026-05-09 01:32 | 62.86095 | -146.89243 | 38674 ft | 514 kts | 72° |
| 2026-05-09 01:33 | 62.88052 | -146.76959 | 38673 ft | 514 kts | 72° |
| 2026-05-09 01:33 | 62.90394 | -146.62150 | 38674 ft | 514 kts | 72° |
| 2026-05-09 01:34 | 62.92721 | -146.47321 | 38682 ft | 514 kts | 72° |
| 2026-05-09 01:34 | 62.95032 | -146.32472 | 38683 ft | 514 kts | 72° |
| 2026-05-09 01:35 | 62.97325 | -146.17613 | 38683 ft | 514 kts | 72° |
| 2026-05-09 01:35 | 62.99574 | -146.02699 | 38679 ft | 513 kts | 75° |
| 2026-05-09 01:36 | 63.01082 | -145.87377 | 38683 ft | 512 kts | 80° |
| 2026-05-09 01:36 | 63.02371 | -145.71959 | 38682 ft | 512 kts | 81° |
| 2026-05-09 01:37 | 63.03608 | -145.56518 | 38682 ft | 512 kts | 81° |
| 2026-05-09 01:37 | 63.04835 | -145.41060 | 38679 ft | 512 kts | 81° |
| 2026-05-09 01:38 | 63.06054 | -145.25616 | 38683 ft | 511 kts | 81° |
| 2026-05-09 01:38 | 63.07256 | -145.10165 | 38674 ft | 511 kts | 82° |
| 2026-05-09 01:39 | 63.08441 | -144.94705 | 38673 ft | 511 kts | 82° |
| 2026-05-09 01:39 | 63.09607 | -144.79246 | 38672 ft | 511 kts | 82° |
| 2026-05-09 01:40 | 63.10759 | -144.63766 | 38674 ft | 511 kts | 82° |
| 2026-05-09 01:40 | 63.11891 | -144.48287 | 38662 ft | 510 kts | 82° |
| 2026-05-09 01:41 | 63.13009 | -144.32781 | 38662 ft | 511 kts | 82° |
| 2026-05-09 01:41 | 63.14108 | -144.17272 | 38664 ft | 511 kts | 83° |
| 2026-05-09 01:42 | 63.15185 | -144.01858 | 38654 ft | 510 kts | 83° |
| 2026-05-09 01:42 | 63.16260 | -143.86216 | 38661 ft | 511 kts | 83° |
| 2026-05-09 01:43 | 63.17307 | -143.70681 | 38660 ft | 511 kts | 83° |
| 2026-05-09 01:43 | 63.18337 | -143.55116 | 38658 ft | 510 kts | 83° |
| 2026-05-09 01:44 | 63.19352 | -143.39563 | 38641 ft | 510 kts | 83° |
| 2026-05-09 01:44 | 63.20352 | -143.23989 | 38645 ft | 511 kts | 83° |
| 2026-05-09 01:45 | 63.21333 | -143.08394 | 38640 ft | 511 kts | 83° |
| 2026-05-09 01:45 | 63.22297 | -142.92791 | 38650 ft | 511 kts | 84° |
| 2026-05-09 01:46 | 63.23244 | -142.77162 | 38642 ft | 511 kts | 84° |
| 2026-05-09 01:46 | 63.24174 | -142.61534 | 38643 ft | 511 kts | 84° |
| 2026-05-09 01:47 | 63.25087 | -142.45886 | 38647 ft | 511 kts | 84° |
| 2026-05-09 01:47 | 63.25984 | -142.30238 | 38638 ft | 511 kts | 84° |
| 2026-05-09 01:48 | 63.26861 | -142.14566 | 38641 ft | 512 kts | 84° |
| 2026-05-09 01:48 | 63.27725 | -141.98871 | 38647 ft | 512 kts | 84° |
| 2026-05-09 01:49 | 63.28573 | -141.83166 | 38646 ft | 512 kts | 84° |
| 2026-05-09 01:49 | 63.29401 | -141.67460 | 38648 ft | 512 kts | 85° |
| 2026-05-09 01:50 | 63.30205 | -141.51849 | 38646 ft | 512 kts | 85° |
| 2026-05-09 01:50 | 63.30999 | -141.36126 | 38655 ft | 511 kts | 85° |
| 2026-05-09 01:51 | 63.31782 | -141.20292 | 38659 ft | 511 kts | 85° |
| 2026-05-09 01:51 | 63.32473 | -141.04676 | 38663 ft | 510 kts | 89° |
| 2026-05-09 01:52 | 63.31898 | -140.88933 | 38665 ft | 507 kts | 100° |
| 2026-05-09 01:52 | 63.30735 | -140.73487 | 38688 ft | 506 kts | 102° |
| 2026-05-09 01:53 | 63.29467 | -140.58086 | 38692 ft | 506 kts | 102° |
| 2026-05-09 01:53 | 63.28195 | -140.42712 | 38693 ft | 506 kts | 102° |
| 2026-05-09 01:54 | 63.26923 | -140.27340 | 38692 ft | 506 kts | 102° |
| 2026-05-09 01:54 | 63.25643 | -140.11982 | 38691 ft | 506 kts | 102° |
| 2026-05-09 01:55 | 63.24346 | -139.96633 | 38691 ft | 505 kts | 102° |
| 2026-05-09 01:55 | 63.23033 | -139.81316 | 38693 ft | 505 kts | 102° |
| 2026-05-09 01:56 | 63.21704 | -139.66017 | 38692 ft | 506 kts | 102° |
| 2026-05-09 01:56 | 63.20358 | -139.50723 | 38690 ft | 505 kts | 103° |
| 2026-05-09 01:57 | 63.18996 | -139.35459 | 38692 ft | 505 kts | 103° |
| 2026-05-09 01:57 | 63.17628 | -139.20321 | 38693 ft | 505 kts | 103° |
| 2026-05-09 01:58 | 63.16226 | -139.05010 | 38697 ft | 504 kts | 103° |
| 2026-05-09 01:58 | 63.14815 | -138.89810 | 38701 ft | 504 kts | 103° |
| 2026-05-09 01:59 | 63.13390 | -138.74625 | 38701 ft | 504 kts | 103° |
| 2026-05-09 01:59 | 63.11949 | -138.59456 | 38701 ft | 505 kts | 104° |
| 2026-05-09 02:00 | 63.10491 | -138.44297 | 38701 ft | 504 kts | 104° |
| 2026-05-09 02:00 | 63.09019 | -138.29156 | 38703 ft | 504 kts | 104° |
| 2026-05-09 02:01 | 63.07530 | -138.14030 | 38701 ft | 504 kts | 104° |
| 2026-05-09 02:01 | 63.06022 | -137.98932 | 38701 ft | 504 kts | 104° |
| 2026-05-09 02:02 | 63.04501 | -137.83850 | 38702 ft | 504 kts | 104° |
| 2026-05-09 02:02 | 63.02964 | -137.68781 | 38701 ft | 504 kts | 104° |
| 2026-05-09 02:03 | 63.01411 | -137.53728 | 38701 ft | 504 kts | 104° |
| 2026-05-09 02:03 | 62.99843 | -137.38704 | 38700 ft | 503 kts | 105° |
| 2026-05-09 02:04 | 62.98260 | -137.23698 | 38702 ft | 503 kts | 105° |
| 2026-05-09 02:04 | 62.96662 | -137.08713 | 38702 ft | 503 kts | 105° |
| 2026-05-09 02:05 | 62.95047 | -136.93746 | 38701 ft | 503 kts | 105° |
| 2026-05-09 02:05 | 62.93416 | -136.78798 | 38702 ft | 504 kts | 105° |
| 2026-05-09 02:06 | 62.91768 | -136.63852 | 38702 ft | 503 kts | 105° |
| 2026-05-09 02:07 | 62.89270 | -136.41494 | 38702 ft | 503 kts | 105° |
| 2026-05-09 02:07 | 62.87587 | -136.26614 | 38701 ft | 503 kts | 105° |
| 2026-05-09 02:08 | 62.85885 | -136.11748 | 38701 ft | 503 kts | 106° |
| 2026-05-09 02:08 | 62.84168 | -135.96903 | 38701 ft | 503 kts | 106° |
| 2026-05-09 02:09 | 62.82438 | -135.82075 | 38702 ft | 503 kts | 106° |
| 2026-05-09 02:09 | 62.80693 | -135.67273 | 38711 ft | 503 kts | 106° |
| 2026-05-09 02:10 | 62.78931 | -135.52482 | 38711 ft | 503 kts | 106° |
| 2026-05-09 02:10 | 62.77153 | -135.37706 | 38728 ft | 503 kts | 107° |
| 2026-05-09 02:11 | 62.75359 | -135.22943 | 38739 ft | 503 kts | 107° |
| 2026-05-09 02:11 | 62.73550 | -135.08213 | 38739 ft | 503 kts | 107° |
| 2026-05-09 02:12 | 62.71724 | -134.93489 | 38732 ft | 503 kts | 107° |
| 2026-05-09 02:12 | 62.69885 | -134.78772 | 38729 ft | 503 kts | 107° |
| 2026-05-09 02:13 | 62.68034 | -134.64089 | 38728 ft | 503 kts | 107° |
| 2026-05-09 02:13 | 62.66165 | -134.49422 | 38729 ft | 503 kts | 107° |
| 2026-05-09 02:14 | 62.64597 | -134.37245 | 38730 ft | 503 kts | 107° |
| 2026-05-09 02:14 | 62.62376 | -134.20154 | 38738 ft | 503 kts | 108° |
| 2026-05-09 02:15 | 62.60786 | -134.08025 | 38738 ft | 502 kts | 108° |
| 2026-05-09 02:15 | 62.58857 | -133.93445 | 38738 ft | 502 kts | 108° |
| 2026-05-09 02:16 | 62.56913 | -133.78881 | 38744 ft | 502 kts | 108° |
| 2026-05-09 02:16 | 62.54957 | -133.64338 | 38749 ft | 502 kts | 108° |
| 2026-05-09 02:17 | 62.52987 | -133.49817 | 38749 ft | 503 kts | 108° |
| 2026-05-09 02:17 | 62.51001 | -133.35304 | 38756 ft | 503 kts | 108° |
| 2026-05-09 02:18 | 62.48997 | -133.20802 | 38757 ft | 503 kts | 108° |
| 2026-05-09 02:18 | 62.46973 | -133.06312 | 38756 ft | 503 kts | 108° |
| 2026-05-09 02:19 | 62.44935 | -132.91824 | 38758 ft | 504 kts | 109° |
| 2026-05-09 02:19 | 62.42884 | -132.77370 | 38762 ft | 503 kts | 109° |
| 2026-05-09 02:20 | 62.40817 | -132.62931 | 38791 ft | 504 kts | 109° |
| 2026-05-09 02:20 | 62.38737 | -132.48518 | 38791 ft | 503 kts | 109° |
| 2026-05-09 02:21 | 62.36641 | -132.34121 | 38802 ft | 503 kts | 109° |
| 2026-05-09 02:21 | 62.34531 | -132.19752 | 38804 ft | 503 kts | 109° |
| 2026-05-09 02:22 | 62.32407 | -132.05410 | 38811 ft | 503 kts | 109° |
| 2026-05-09 02:22 | 62.30266 | -131.91067 | 38813 ft | 503 kts | 109° |
| 2026-05-09 02:23 | 62.28111 | -131.76758 | 38815 ft | 504 kts | 109° |
| 2026-05-09 02:23 | 62.25940 | -131.62466 | 38819 ft | 503 kts | 110° |
| 2026-05-09 02:24 | 62.23757 | -131.48202 | 38823 ft | 503 kts | 110° |
| 2026-05-09 02:24 | 62.21556 | -131.33945 | 38823 ft | 503 kts | 110° |
| 2026-05-09 02:25 | 62.19341 | -131.19712 | 38824 ft | 504 kts | 110° |
| 2026-05-09 02:25 | 62.17111 | -131.05485 | 38832 ft | 504 kts | 110° |
| 2026-05-09 02:26 | 62.14865 | -130.91278 | 38832 ft | 504 kts | 110° |
| 2026-05-09 02:26 | 62.12603 | -130.77082 | 38832 ft | 504 kts | 110° |
| 2026-05-09 02:27 | 62.10330 | -130.62922 | 38833 ft | 504 kts | 110° |
| 2026-05-09 02:27 | 62.08040 | -130.48771 | 38842 ft | 504 kts | 110° |
| 2026-05-09 02:28 | 62.05737 | -130.34652 | 38841 ft | 504 kts | 110° |
| 2026-05-09 02:28 | 62.03419 | -130.20543 | 38842 ft | 504 kts | 111° |
| 2026-05-09 02:29 | 62.01083 | -130.06455 | 38853 ft | 505 kts | 111° |
| 2026-05-09 02:29 | 61.98278 | -129.92806 | 39076 ft | 502 kts | 117° |
| 2026-05-09 02:29 | 61.96723 | -129.86161 | 39183 ft | 502 kts | 118° |
| 2026-05-09 02:30 | 61.95137 | -129.79537 | 39260 ft | 503 kts | 118° |
| 2026-05-09 02:30 | 61.93538 | -129.72932 | 39368 ft | 503 kts | 118° |
| 2026-05-09 02:30 | 61.91932 | -129.66337 | 39487 ft | 503 kts | 119° |
| 2026-05-09 02:31 | 61.88716 | -129.53158 | 39664 ft | 503 kts | 119° |
| 2026-05-09 02:31 | 61.85492 | -129.39982 | 39842 ft | 504 kts | 119° |
| 2026-05-09 02:32 | 61.82256 | -129.26820 | 40027 ft | 504 kts | 119° |
| 2026-05-09 02:32 | 61.79005 | -129.13669 | 40165 ft | 505 kts | 119° |
| 2026-05-09 02:33 | 61.75733 | -129.00514 | 40310 ft | 506 kts | 119° |
| 2026-05-09 02:33 | 61.72446 | -128.87384 | 40457 ft | 506 kts | 119° |
| 2026-05-09 02:34 | 61.69146 | -128.74276 | 40594 ft | 507 kts | 119° |
| 2026-05-09 02:34 | 61.65827 | -128.61173 | 40717 ft | 507 kts | 119° |
| 2026-05-09 02:35 | 61.62489 | -128.48072 | 40834 ft | 508 kts | 119° |
| 2026-05-09 02:35 | 61.59137 | -128.34990 | 40903 ft | 509 kts | 120° |
| 2026-05-09 02:36 | 61.55764 | -128.21909 | 40908 ft | 509 kts | 120° |
| 2026-05-09 02:36 | 61.52381 | -128.08863 | 40907 ft | 509 kts | 120° |
| 2026-05-09 02:37 | 61.48987 | -127.95851 | 40908 ft | 509 kts | 120° |
| 2026-05-09 02:37 | 61.45576 | -127.82849 | 40909 ft | 509 kts | 120° |
| 2026-05-09 02:38 | 61.42155 | -127.69886 | 40904 ft | 509 kts | 120° |
| 2026-05-09 02:38 | 61.38748 | -127.57052 | 40907 ft | 509 kts | 120° |
| 2026-05-09 02:39 | 61.35280 | -127.44061 | 40905 ft | 509 kts | 120° |
| 2026-05-09 02:39 | 61.31827 | -127.31199 | 40907 ft | 509 kts | 120° |
| 2026-05-09 02:40 | 61.28385 | -127.18453 | 40914 ft | 509 kts | 120° |
| 2026-05-09 02:40 | 61.24904 | -127.05635 | 40917 ft | 509 kts | 121° |
| 2026-05-09 02:41 | 61.21392 | -126.92775 | 40918 ft | 509 kts | 121° |
| 2026-05-09 02:41 | 61.17911 | -126.80102 | 40915 ft | 509 kts | 121° |
| 2026-05-09 02:42 | 61.14373 | -126.67292 | 40914 ft | 509 kts | 121° |
| 2026-05-09 02:42 | 61.10868 | -126.54676 | 40914 ft | 509 kts | 121° |
| 2026-05-09 02:43 | 61.07329 | -126.42005 | 40917 ft | 509 kts | 121° |
| 2026-05-09 02:43 | 61.03756 | -126.29286 | 40915 ft | 509 kts | 121° |
| 2026-05-09 02:44 | 61.00194 | -126.16675 | 40913 ft | 509 kts | 121° |
| 2026-05-09 02:44 | 60.96619 | -126.04087 | 40916 ft | 509 kts | 121° |
| 2026-05-09 02:45 | 60.93036 | -125.91543 | 40915 ft | 509 kts | 121° |
| 2026-05-09 02:45 | 60.89436 | -125.79006 | 40916 ft | 509 kts | 122° |
| 2026-05-09 02:46 | 60.85822 | -125.66494 | 40920 ft | 509 kts | 122° |
| 2026-05-09 02:46 | 60.82200 | -125.54018 | 40923 ft | 509 kts | 122° |
| 2026-05-09 02:47 | 60.78563 | -125.41559 | 40958 ft | 509 kts | 122° |
| 2026-05-09 02:47 | 60.74941 | -125.29218 | 40961 ft | 510 kts | 122° |
| 2026-05-09 02:48 | 60.71281 | -125.16814 | 40966 ft | 510 kts | 122° |
| 2026-05-09 02:48 | 60.67583 | -125.04352 | 40972 ft | 510 kts | 122° |
| 2026-05-09 02:49 | 60.63899 | -124.92004 | 40972 ft | 510 kts | 122° |
| 2026-05-09 02:49 | 60.60202 | -124.79676 | 40970 ft | 510 kts | 122° |
| 2026-05-09 02:50 | 60.56516 | -124.67450 | 40974 ft | 511 kts | 122° |
| 2026-05-09 02:50 | 60.52792 | -124.55168 | 40981 ft | 511 kts | 122° |
| 2026-05-09 02:51 | 60.49054 | -124.42902 | 40980 ft | 511 kts | 123° |
| 2026-05-09 02:51 | 60.45305 | -124.30666 | 40982 ft | 511 kts | 123° |
| 2026-05-09 02:52 | 60.41542 | -124.18447 | 40979 ft | 511 kts | 123° |
| 2026-05-09 02:52 | 60.37770 | -124.06263 | 40981 ft | 511 kts | 123° |
| 2026-05-09 02:53 | 60.33985 | -123.94105 | 40981 ft | 512 kts | 123° |
| 2026-05-09 02:53 | 60.30186 | -123.81965 | 40979 ft | 511 kts | 123° |
| 2026-05-09 02:54 | 60.26378 | -123.69856 | 40989 ft | 512 kts | 123° |
| 2026-05-09 02:54 | 60.22557 | -123.57774 | 40989 ft | 512 kts | 123° |
| 2026-05-09 02:55 | 60.18726 | -123.45718 | 40999 ft | 512 kts | 123° |
| 2026-05-09 02:55 | 60.14880 | -123.33679 | 41004 ft | 512 kts | 123° |
| 2026-05-09 02:56 | 60.11649 | -123.23615 | 41007 ft | 512 kts | 123° |
| 2026-05-09 02:56 | 60.07778 | -123.11613 | 41001 ft | 513 kts | 124° |
| 2026-05-09 02:57 | 60.03896 | -122.99640 | 40997 ft | 513 kts | 124° |
| 2026-05-09 02:57 | 60.00000 | -122.87684 | 40999 ft | 513 kts | 124° |
| 2026-05-09 02:58 | 59.96093 | -122.75753 | 41000 ft | 513 kts | 124° |
| 2026-05-09 02:58 | 59.92175 | -122.63854 | 40997 ft | 513 kts | 124° |
| 2026-05-09 02:59 | 59.88241 | -122.51966 | 40990 ft | 513 kts | 124° |
| 2026-05-09 02:59 | 59.84300 | -122.40115 | 40988 ft | 514 kts | 124° |
| 2026-05-09 03:00 | 59.80342 | -122.28274 | 40990 ft | 514 kts | 124° |
| 2026-05-09 03:00 | 59.76373 | -122.16461 | 40990 ft | 514 kts | 124° |
| 2026-05-09 03:01 | 59.72391 | -122.04667 | 40988 ft | 515 kts | 124° |
| 2026-05-09 03:01 | 59.68400 | -121.92908 | 40989 ft | 515 kts | 124° |
| 2026-05-09 03:02 | 59.64395 | -121.81165 | 40989 ft | 515 kts | 124° |
| 2026-05-09 03:02 | 59.60382 | -121.69458 | 40991 ft | 515 kts | 125° |
| 2026-05-09 03:03 | 59.56367 | -121.57801 | 40980 ft | 512 kts | 125° |
| 2026-05-09 03:03 | 59.52357 | -121.46220 | 40982 ft | 511 kts | 125° |
| 2026-05-09 03:04 | 59.48341 | -121.34675 | 40981 ft | 511 kts | 125° |
| 2026-05-09 03:04 | 59.44317 | -121.23167 | 40980 ft | 511 kts | 125° |
| 2026-05-09 03:05 | 59.40280 | -121.11677 | 40989 ft | 511 kts | 125° |
| 2026-05-09 03:05 | 59.36233 | -121.00214 | 41001 ft | 511 kts | 125° |
| 2026-05-09 03:06 | 59.32173 | -120.88768 | 40999 ft | 511 kts | 125° |
| 2026-05-09 03:06 | 59.28133 | -120.77438 | 41000 ft | 511 kts | 125° |
| 2026-05-09 03:07 | 59.24053 | -120.66047 | 40998 ft | 511 kts | 126° |
| 2026-05-09 03:07 | 59.19964 | -120.54687 | 40999 ft | 511 kts | 126° |
| 2026-05-09 03:08 | 59.15864 | -120.43350 | 41015 ft | 512 kts | 126° |
| 2026-05-09 03:08 | 59.11752 | -120.32037 | 41013 ft | 512 kts | 126° |
| 2026-05-09 03:09 | 59.07628 | -120.20744 | 41019 ft | 512 kts | 126° |
| 2026-05-09 03:09 | 59.03495 | -120.09478 | 41023 ft | 512 kts | 126° |
| 2026-05-09 03:10 | 58.99355 | -119.98239 | 41026 ft | 512 kts | 126° |
| 2026-05-09 03:10 | 58.95502 | -119.86617 | 41032 ft | 513 kts | 121° |
| 2026-05-09 03:11 | 58.91832 | -119.74768 | 41036 ft | 514 kts | 121° |
| 2026-05-09 03:11 | 58.88109 | -119.62965 | 41049 ft | 513 kts | 122° |
| 2026-05-09 03:12 | 58.84331 | -119.51253 | 41054 ft | 514 kts | 122° |
| 2026-05-09 03:12 | 58.80524 | -119.39581 | 41031 ft | 514 kts | 122° |
| 2026-05-09 03:13 | 58.74795 | -119.22127 | 41033 ft | 514 kts | 122° |
| 2026-05-09 03:13 | 58.70960 | -119.10504 | 41034 ft | 514 kts | 123° |
| 2026-05-09 03:14 | 58.67116 | -118.98909 | 41036 ft | 514 kts | 123° |
| 2026-05-09 03:14 | 58.63260 | -118.87334 | 41039 ft | 515 kts | 123° |
| 2026-05-09 03:15 | 58.59391 | -118.75778 | 41033 ft | 515 kts | 123° |
| 2026-05-09 03:15 | 58.55510 | -118.64241 | 41037 ft | 515 kts | 123° |
| 2026-05-09 03:16 | 58.51615 | -118.52723 | 41035 ft | 515 kts | 123° |
| 2026-05-09 03:16 | 58.47711 | -118.41229 | 41037 ft | 516 kts | 123° |
| 2026-05-09 03:17 | 58.43793 | -118.29754 | 41043 ft | 516 kts | 123° |
| 2026-05-09 03:17 | 58.39862 | -118.18293 | 41044 ft | 516 kts | 123° |
| 2026-05-09 03:18 | 58.35918 | -118.06852 | 41045 ft | 516 kts | 123° |
| 2026-05-09 03:18 | 58.31967 | -117.95443 | 41046 ft | 516 kts | 123° |
| 2026-05-09 03:19 | 58.28003 | -117.84056 | 41043 ft | 516 kts | 123° |
| 2026-05-09 03:19 | 58.24029 | -117.72690 | 41047 ft | 516 kts | 123° |
| 2026-05-09 03:20 | 58.20043 | -117.61346 | 41043 ft | 517 kts | 124° |
| 2026-05-09 03:20 | 58.16047 | -117.50029 | 41044 ft | 517 kts | 124° |
| 2026-05-09 03:21 | 58.12042 | -117.38739 | 41044 ft | 517 kts | 124° |
| 2026-05-09 03:21 | 58.08021 | -117.27456 | 41043 ft | 517 kts | 124° |
| 2026-05-09 03:22 | 58.03990 | -117.16201 | 41043 ft | 518 kts | 124° |
| 2026-05-09 03:22 | 57.99945 | -117.04957 | 41054 ft | 518 kts | 124° |
| 2026-05-09 03:23 | 57.95888 | -116.93736 | 41054 ft | 518 kts | 124° |
| 2026-05-09 03:23 | 57.91825 | -116.82547 | 41054 ft | 518 kts | 124° |
| 2026-05-09 03:24 | 57.87751 | -116.71382 | 41055 ft | 518 kts | 124° |
| 2026-05-09 03:24 | 57.83660 | -116.60222 | 41054 ft | 519 kts | 124° |
| 2026-05-09 03:25 | 57.79558 | -116.49085 | 41054 ft | 519 kts | 124° |
| 2026-05-09 03:25 | 57.75444 | -116.37968 | 41055 ft | 520 kts | 124° |
| 2026-05-09 03:26 | 57.71316 | -116.26865 | 41049 ft | 520 kts | 124° |
| 2026-05-09 03:26 | 57.67176 | -116.15779 | 41046 ft | 520 kts | 124° |
| 2026-05-09 03:27 | 57.63030 | -116.04731 | 41047 ft | 520 kts | 125° |
| 2026-05-09 03:27 | 57.58871 | -115.93695 | 41044 ft | 520 kts | 125° |
| 2026-05-09 03:28 | 57.54703 | -115.82689 | 41047 ft | 520 kts | 125° |
| 2026-05-09 03:28 | 57.50524 | -115.71705 | 41043 ft | 520 kts | 125° |
| 2026-05-09 03:29 | 57.46335 | -115.60743 | 41043 ft | 520 kts | 125° |
| 2026-05-09 03:29 | 57.42137 | -115.49806 | 41043 ft | 520 kts | 125° |
| 2026-05-09 03:30 | 57.37931 | -115.38899 | 41041 ft | 520 kts | 125° |
| 2026-05-09 03:30 | 57.33712 | -115.28010 | 41041 ft | 520 kts | 125° |
| 2026-05-09 03:31 | 57.29483 | -115.17141 | 41035 ft | 520 kts | 126° |
| 2026-05-09 03:31 | 57.25244 | -115.06298 | 41033 ft | 521 kts | 126° |
| 2026-05-09 03:32 | 57.20992 | -114.95471 | 41040 ft | 521 kts | 126° |
| 2026-05-09 03:32 | 57.16734 | -114.84675 | 41038 ft | 521 kts | 126° |
| 2026-05-09 03:33 | 57.12466 | -114.73904 | 41033 ft | 521 kts | 126° |
| 2026-05-09 03:33 | 57.08214 | -114.63221 | 41041 ft | 521 kts | 126° |
| 2026-05-09 03:34 | 57.03928 | -114.52499 | 41036 ft | 521 kts | 126° |
| 2026-05-09 03:34 | 56.99599 | -114.41716 | 41034 ft | 521 kts | 126° |
| 2026-05-09 03:35 | 56.95291 | -114.31037 | 41040 ft | 521 kts | 126° |
| 2026-05-09 03:35 | 56.90973 | -114.20377 | 41036 ft | 521 kts | 126° |
| 2026-05-09 03:36 | 56.86646 | -114.09742 | 41038 ft | 521 kts | 126° |
| 2026-05-09 03:36 | 56.82309 | -113.99131 | 41030 ft | 521 kts | 126° |
| 2026-05-09 03:37 | 56.77988 | -113.88605 | 41035 ft | 522 kts | 126° |
| 2026-05-09 03:37 | 56.74334 | -113.79739 | 41041 ft | 522 kts | 127° |
| 2026-05-09 03:38 | 56.69958 | -113.69164 | 41036 ft | 523 kts | 127° |
| 2026-05-09 03:38 | 56.65579 | -113.58625 | 41024 ft | 522 kts | 127° |
| 2026-05-09 03:39 | 56.61186 | -113.48103 | 41024 ft | 522 kts | 127° |
| 2026-05-09 03:39 | 56.56788 | -113.37611 | 41027 ft | 523 kts | 127° |
| 2026-05-09 03:40 | 56.52375 | -113.27131 | 41027 ft | 523 kts | 127° |
| 2026-05-09 03:40 | 56.47956 | -113.16683 | 41032 ft | 523 kts | 127° |
| 2026-05-09 03:41 | 56.43527 | -113.06254 | 41036 ft | 523 kts | 127° |
| 2026-05-09 03:41 | 56.39083 | -112.95834 | 41038 ft | 524 kts | 127° |
| 2026-05-09 03:42 | 56.34627 | -112.85431 | 41036 ft | 524 kts | 127° |
| 2026-05-09 03:42 | 56.30164 | -112.75059 | 41037 ft | 524 kts | 127° |
| 2026-05-09 03:43 | 56.25720 | -112.64773 | 41036 ft | 524 kts | 127° |
| 2026-05-09 03:43 | 56.21233 | -112.54431 | 41037 ft | 525 kts | 127° |
| 2026-05-09 03:44 | 56.16733 | -112.44105 | 41034 ft | 525 kts | 128° |
| 2026-05-09 03:44 | 56.12192 | -112.33726 | 41035 ft | 525 kts | 128° |
| 2026-05-09 03:45 | 56.07673 | -112.23445 | 41036 ft | 525 kts | 128° |
| 2026-05-09 03:45 | 56.03174 | -112.13250 | 41034 ft | 526 kts | 128° |
| 2026-05-09 03:46 | 55.98735 | -112.02871 | 41034 ft | 526 kts | 124° |
| 2026-05-09 03:46 | 55.94663 | -111.92042 | 41038 ft | 525 kts | 122° |
| 2026-05-09 03:47 | 55.90624 | -111.81190 | 41039 ft | 525 kts | 123° |
| 2026-05-09 03:47 | 55.86516 | -111.70420 | 41033 ft | 525 kts | 124° |
| 2026-05-09 03:48 | 55.82364 | -111.59709 | 41035 ft | 526 kts | 124° |
| 2026-05-09 03:48 | 55.78197 | -111.49035 | 41041 ft | 526 kts | 124° |
| 2026-05-09 03:49 | 55.74023 | -111.38380 | 41030 ft | 526 kts | 124° |
| 2026-05-09 03:49 | 55.69837 | -111.27737 | 41023 ft | 526 kts | 124° |
| 2026-05-09 03:50 | 55.65644 | -111.17119 | 41023 ft | 526 kts | 124° |
| 2026-05-09 03:50 | 55.61441 | -111.06521 | 41029 ft | 526 kts | 124° |
| 2026-05-09 03:51 | 55.57229 | -110.95946 | 41019 ft | 526 kts | 124° |
| 2026-05-09 03:51 | 55.53006 | -110.85390 | 41023 ft | 526 kts | 124° |
| 2026-05-09 03:52 | 55.48770 | -110.74845 | 41012 ft | 527 kts | 124° |
| 2026-05-09 03:52 | 55.44523 | -110.64320 | 41017 ft | 527 kts | 124° |
| 2026-05-09 03:53 | 55.40241 | -110.53752 | 41017 ft | 527 kts | 124° |
| 2026-05-09 03:53 | 55.35974 | -110.43268 | 41016 ft | 527 kts | 125° |
| 2026-05-09 03:54 | 55.31699 | -110.32807 | 41017 ft | 527 kts | 125° |
| 2026-05-09 03:54 | 55.27413 | -110.22363 | 41012 ft | 527 kts | 125° |
| 2026-05-09 03:55 | 55.23120 | -110.11947 | 41008 ft | 527 kts | 125° |
| 2026-05-09 03:55 | 55.18812 | -110.01540 | 41010 ft | 528 kts | 125° |
| 2026-05-09 03:56 | 55.14496 | -109.91157 | 41009 ft | 528 kts | 125° |
| 2026-05-09 03:56 | 55.10166 | -109.80782 | 41006 ft | 528 kts | 125° |
| 2026-05-09 03:57 | 55.05831 | -109.70440 | 41009 ft | 528 kts | 125° |
| 2026-05-09 03:57 | 55.01484 | -109.60113 | 41009 ft | 528 kts | 126° |
| 2026-05-09 03:58 | 54.97157 | -109.49877 | 40996 ft | 528 kts | 126° |
| 2026-05-09 03:58 | 54.92760 | -109.39517 | 41000 ft | 529 kts | 126° |
| 2026-05-09 03:59 | 54.88383 | -109.29248 | 41001 ft | 529 kts | 126° |
| 2026-05-09 03:59 | 54.84001 | -109.19008 | 40997 ft | 529 kts | 126° |
| 2026-05-09 04:00 | 54.79606 | -109.08781 | 40995 ft | 529 kts | 126° |
| 2026-05-09 04:00 | 54.75203 | -108.98579 | 40990 ft | 529 kts | 126° |
| 2026-05-09 04:01 | 54.70789 | -108.88393 | 40989 ft | 529 kts | 126° |
| 2026-05-09 04:01 | 54.66369 | -108.78233 | 40985 ft | 529 kts | 126° |
| 2026-05-09 04:02 | 54.61966 | -108.68156 | 40987 ft | 529 kts | 126° |
| 2026-05-09 04:02 | 54.57526 | -108.58035 | 41004 ft | 529 kts | 126° |
| 2026-05-09 04:03 | 54.53075 | -108.47928 | 41007 ft | 529 kts | 126° |
| 2026-05-09 04:03 | 54.48614 | -108.37840 | 41001 ft | 530 kts | 127° |
| 2026-05-09 04:04 | 54.44139 | -108.27770 | 41000 ft | 530 kts | 127° |
| 2026-05-09 04:04 | 54.39659 | -108.17717 | 40992 ft | 530 kts | 127° |
| 2026-05-09 04:05 | 54.35170 | -108.07683 | 40990 ft | 530 kts | 127° |
| 2026-05-09 04:05 | 54.30664 | -107.97654 | 40991 ft | 531 kts | 127° |
| 2026-05-09 04:06 | 54.26150 | -107.87647 | 40989 ft | 531 kts | 127° |
| 2026-05-09 04:06 | 54.21626 | -107.77662 | 40981 ft | 531 kts | 127° |
| 2026-05-09 04:07 | 54.17093 | -107.67693 | 40980 ft | 531 kts | 127° |
| 2026-05-09 04:07 | 54.12545 | -107.57752 | 40979 ft | 531 kts | 127° |
| 2026-05-09 04:08 | 54.08000 | -107.47842 | 40983 ft | 531 kts | 127° |
| 2026-05-09 04:08 | 54.03446 | -107.37952 | 40983 ft | 531 kts | 127° |
| 2026-05-09 04:09 | 53.98887 | -107.28090 | 40980 ft | 530 kts | 127° |
| 2026-05-09 04:09 | 53.94319 | -107.18248 | 40978 ft | 531 kts | 127° |
| 2026-05-09 04:10 | 53.89741 | -107.08422 | 40981 ft | 531 kts | 127° |
| 2026-05-09 04:10 | 53.85153 | -106.98613 | 40973 ft | 531 kts | 128° |
| 2026-05-09 04:11 | 53.80558 | -106.88828 | 40970 ft | 531 kts | 128° |
| 2026-05-09 04:11 | 53.75956 | -106.79066 | 40969 ft | 531 kts | 128° |
| 2026-05-09 04:12 | 53.71347 | -106.69327 | 40989 ft | 531 kts | 128° |
| 2026-05-09 04:12 | 53.66728 | -106.59606 | 40984 ft | 531 kts | 128° |
| 2026-05-09 04:13 | 53.62105 | -106.49915 | 40979 ft | 530 kts | 128° |
| 2026-05-09 04:13 | 53.57475 | -106.40245 | 40981 ft | 531 kts | 128° |
| 2026-05-09 04:14 | 53.52836 | -106.30596 | 40980 ft | 531 kts | 128° |
| 2026-05-09 04:14 | 53.48187 | -106.20960 | 40980 ft | 531 kts | 128° |
| 2026-05-09 04:15 | 53.43530 | -106.11347 | 40981 ft | 531 kts | 128° |
| 2026-05-09 04:15 | 53.38869 | -106.01763 | 40981 ft | 531 kts | 128° |
| 2026-05-09 04:16 | 53.34199 | -105.92196 | 40980 ft | 531 kts | 128° |
| 2026-05-09 04:16 | 53.29516 | -105.82640 | 40980 ft | 531 kts | 128° |
| 2026-05-09 04:17 | 53.24827 | -105.73106 | 40983 ft | 531 kts | 128° |
| 2026-05-09 04:17 | 53.20127 | -105.63598 | 40980 ft | 531 kts | 129° |
| 2026-05-09 04:18 | 53.15360 | -105.54180 | 40980 ft | 531 kts | 129° |
| 2026-05-09 04:18 | 53.11342 | -105.46330 | 40981 ft | 532 kts | 129° |
| 2026-05-09 04:19 | 53.06546 | -105.36971 | 40980 ft | 532 kts | 129° |
| 2026-05-09 04:19 | 53.01782 | -105.27685 | 40983 ft | 532 kts | 129° |
| 2026-05-09 04:20 | 52.96977 | -105.18346 | 40980 ft | 532 kts | 130° |
| 2026-05-09 04:20 | 52.92168 | -105.09033 | 40980 ft | 532 kts | 130° |
| 2026-05-09 04:21 | 52.87316 | -104.99673 | 40975 ft | 532 kts | 130° |
| 2026-05-09 04:22 | 52.80077 | -104.85774 | 40971 ft | 532 kts | 130° |
| 2026-05-09 04:22 | 52.75236 | -104.76524 | 40972 ft | 532 kts | 130° |
| 2026-05-09 04:23 | 52.70389 | -104.67295 | 40973 ft | 532 kts | 130° |
| 2026-05-09 04:23 | 52.65535 | -104.58087 | 40972 ft | 532 kts | 130° |
| 2026-05-09 04:24 | 52.60670 | -104.48892 | 40966 ft | 533 kts | 130° |
| 2026-05-09 04:24 | 52.55797 | -104.39716 | 40960 ft | 533 kts | 130° |
| 2026-05-09 04:25 | 52.50916 | -104.30559 | 40962 ft | 533 kts | 130° |
| 2026-05-09 04:25 | 52.46025 | -104.21417 | 40961 ft | 533 kts | 130° |
| 2026-05-09 04:26 | 52.41128 | -104.12297 | 40957 ft | 533 kts | 130° |
| 2026-05-09 04:26 | 52.36228 | -104.03204 | 40952 ft | 533 kts | 131° |
| 2026-05-09 04:27 | 52.31319 | -103.94127 | 40948 ft | 533 kts | 131° |
| 2026-05-09 04:27 | 52.26400 | -103.85067 | 40934 ft | 533 kts | 131° |
| 2026-05-09 04:28 | 52.21470 | -103.76017 | 40934 ft | 533 kts | 131° |
| 2026-05-09 04:28 | 52.16532 | -103.66987 | 40934 ft | 533 kts | 131° |
| 2026-05-09 04:29 | 52.11590 | -103.57981 | 40925 ft | 533 kts | 131° |
| 2026-05-09 04:29 | 52.06642 | -103.48997 | 40925 ft | 533 kts | 131° |
| 2026-05-09 04:30 | 52.01690 | -103.40037 | 40925 ft | 533 kts | 131° |
| 2026-05-09 04:30 | 51.96758 | -103.31147 | 40916 ft | 533 kts | 131° |
| 2026-05-09 04:31 | 51.91791 | -103.22225 | 40916 ft | 533 kts | 131° |
| 2026-05-09 04:31 | 51.86813 | -103.13314 | 40915 ft | 533 kts | 131° |
| 2026-05-09 04:32 | 51.81830 | -103.04426 | 40906 ft | 533 kts | 131° |
| 2026-05-09 04:32 | 51.76846 | -102.95568 | 40906 ft | 533 kts | 131° |
| 2026-05-09 04:33 | 51.71852 | -102.86725 | 40906 ft | 533 kts | 131° |
| 2026-05-09 04:33 | 51.66855 | -102.77906 | 40905 ft | 533 kts | 132° |
| 2026-05-09 04:34 | 51.61848 | -102.69102 | 40901 ft | 533 kts | 132° |
| 2026-05-09 04:34 | 51.56837 | -102.60321 | 40898 ft | 533 kts | 132° |
| 2026-05-09 04:35 | 51.51821 | -102.51562 | 40898 ft | 533 kts | 132° |
| 2026-05-09 04:35 | 51.46797 | -102.42820 | 40897 ft | 533 kts | 132° |
| 2026-05-09 04:36 | 51.41770 | -102.34102 | 40895 ft | 533 kts | 132° |
| 2026-05-09 04:36 | 51.36731 | -102.25396 | 40896 ft | 533 kts | 132° |
| 2026-05-09 04:37 | 51.31722 | -102.16770 | 40901 ft | 533 kts | 132° |
| 2026-05-09 04:37 | 51.26639 | -102.08047 | 40896 ft | 533 kts | 132° |
| 2026-05-09 04:38 | 51.21583 | -101.99401 | 40900 ft | 533 kts | 133° |
| 2026-05-09 04:38 | 51.16522 | -101.90776 | 40899 ft | 533 kts | 133° |
| 2026-05-09 04:39 | 51.11455 | -101.82170 | 40897 ft | 533 kts | 133° |
| 2026-05-09 04:39 | 51.06382 | -101.73585 | 40890 ft | 532 kts | 133° |
| 2026-05-09 04:40 | 51.01301 | -101.65015 | 40885 ft | 533 kts | 133° |
| 2026-05-09 04:40 | 50.96215 | -101.56466 | 40886 ft | 533 kts | 133° |
| 2026-05-09 04:41 | 50.91123 | -101.47936 | 40881 ft | 533 kts | 133° |
| 2026-05-09 04:41 | 50.86024 | -101.39422 | 40880 ft | 533 kts | 133° |
| 2026-05-09 04:42 | 50.80917 | -101.30925 | 40871 ft | 533 kts | 133° |
| 2026-05-09 04:42 | 50.75799 | -101.22438 | 40865 ft | 533 kts | 133° |
| 2026-05-09 04:43 | 50.70677 | -101.13974 | 40872 ft | 533 kts | 133° |
| 2026-05-09 04:43 | 50.65548 | -101.05526 | 40860 ft | 533 kts | 133° |
| 2026-05-09 04:44 | 50.60418 | -100.97105 | 40859 ft | 533 kts | 133° |
| 2026-05-09 04:44 | 50.55279 | -100.88699 | 40859 ft | 533 kts | 133° |
| 2026-05-09 04:45 | 50.50137 | -100.80314 | 40861 ft | 533 kts | 134° |
| 2026-05-09 04:45 | 50.44987 | -100.71945 | 40852 ft | 533 kts | 134° |
| 2026-05-09 04:46 | 50.39867 | -100.63652 | 40850 ft | 533 kts | 134° |
| 2026-05-09 04:46 | 50.34706 | -100.55321 | 40851 ft | 533 kts | 134° |
| 2026-05-09 04:47 | 50.29502 | -100.46948 | 40844 ft | 533 kts | 134° |
| 2026-05-09 04:47 | 50.24363 | -100.38708 | 40841 ft | 533 kts | 134° |
| 2026-05-09 04:48 | 50.19147 | -100.30371 | 40841 ft | 533 kts | 134° |
| 2026-05-09 04:48 | 50.13993 | -100.22161 | 40840 ft | 533 kts | 134° |
| 2026-05-09 04:49 | 50.08766 | -100.13862 | 40832 ft | 533 kts | 134° |
| 2026-05-09 04:49 | 50.03569 | -100.05638 | 40832 ft | 533 kts | 134° |
| 2026-05-09 04:50 | 49.99001 | -99.96620 | 40836 ft | 531 kts | 118° |
| 2026-05-09 04:50 | 49.95466 | -99.86531 | 40832 ft | 533 kts | 116° |
| 2026-05-09 04:51 | 49.92127 | -99.76344 | 40832 ft | 533 kts | 116° |
| 2026-05-09 04:51 | 49.88766 | -99.66087 | 40832 ft | 533 kts | 116° |
| 2026-05-09 04:52 | 49.85371 | -99.55864 | 40825 ft | 534 kts | 116° |
| 2026-05-09 04:52 | 49.81951 | -99.45657 | 40822 ft | 534 kts | 116° |
| 2026-05-09 04:53 | 49.78519 | -99.35463 | 40815 ft | 534 kts | 116° |
| 2026-05-09 04:53 | 49.75083 | -99.25294 | 40813 ft | 534 kts | 116° |
| 2026-05-09 04:54 | 49.71633 | -99.15126 | 40803 ft | 534 kts | 116° |
| 2026-05-09 04:54 | 49.68178 | -99.04978 | 40795 ft | 534 kts | 117° |
| 2026-05-09 04:55 | 49.64712 | -98.94842 | 40787 ft | 534 kts | 117° |
| 2026-05-09 04:55 | 49.61238 | -98.84721 | 40786 ft | 534 kts | 117° |
| 2026-05-09 04:56 | 49.57760 | -98.74627 | 40779 ft | 534 kts | 117° |
| 2026-05-09 04:56 | 49.54269 | -98.64537 | 40776 ft | 534 kts | 117° |
| 2026-05-09 04:57 | 49.50770 | -98.54465 | 40775 ft | 534 kts | 117° |
| 2026-05-09 04:57 | 49.47262 | -98.44406 | 40774 ft | 533 kts | 117° |
| 2026-05-09 04:58 | 49.43748 | -98.34367 | 40776 ft | 533 kts | 117° |
| 2026-05-09 04:58 | 49.40222 | -98.24335 | 40776 ft | 534 kts | 117° |
| 2026-05-09 04:59 | 49.36688 | -98.14319 | 40778 ft | 534 kts | 117° |
| 2026-05-09 04:59 | 49.33720 | -98.05935 | 40785 ft | 534 kts | 117° |
| 2026-05-09 05:00 | 49.30170 | -97.95945 | 40786 ft | 534 kts | 117° |
| 2026-05-09 05:00 | 49.26615 | -97.85979 | 40785 ft | 533 kts | 118° |
| 2026-05-09 05:01 | 49.23053 | -97.76034 | 40786 ft | 533 kts | 118° |
| 2026-05-09 05:01 | 49.19483 | -97.66103 | 40786 ft | 533 kts | 118° |
| 2026-05-09 05:02 | 49.15905 | -97.56187 | 40789 ft | 533 kts | 118° |
| 2026-05-09 05:02 | 49.12319 | -97.46286 | 40785 ft | 533 kts | 118° |
| 2026-05-09 05:03 | 49.08723 | -97.36397 | 40776 ft | 533 kts | 118° |
| 2026-05-09 05:03 | 49.05121 | -97.26527 | 40778 ft | 533 kts | 118° |
| 2026-05-09 05:04 | 49.01511 | -97.16673 | 40776 ft | 533 kts | 118° |
| 2026-05-09 05:04 | 48.97891 | -97.06830 | 40775 ft | 533 kts | 118° |
| 2026-05-09 05:05 | 48.94262 | -96.96998 | 40770 ft | 533 kts | 118° |
| 2026-05-09 05:05 | 48.90623 | -96.87180 | 40767 ft | 532 kts | 118° |
| 2026-05-09 05:06 | 48.86981 | -96.77385 | 40765 ft | 532 kts | 118° |
| 2026-05-09 05:06 | 48.83328 | -96.67602 | 40765 ft | 532 kts | 119° |
| 2026-05-09 05:07 | 48.79670 | -96.57837 | 40768 ft | 532 kts | 119° |
| 2026-05-09 05:07 | 48.76004 | -96.48089 | 40766 ft | 532 kts | 119° |
| 2026-05-09 05:08 | 48.72330 | -96.38356 | 40758 ft | 532 kts | 119° |
| 2026-05-09 05:08 | 48.68647 | -96.28636 | 40759 ft | 532 kts | 119° |
| 2026-05-09 05:09 | 48.64959 | -96.18940 | 40750 ft | 532 kts | 119° |
| 2026-05-09 05:09 | 48.61260 | -96.09248 | 40742 ft | 532 kts | 119° |
| 2026-05-09 05:10 | 48.57550 | -95.99561 | 40748 ft | 532 kts | 119° |
| 2026-05-09 05:10 | 48.53837 | -95.89904 | 40745 ft | 532 kts | 120° |
| 2026-05-09 05:11 | 48.50113 | -95.80255 | 40747 ft | 532 kts | 120° |
| 2026-05-09 05:11 | 48.46408 | -95.70688 | 40754 ft | 532 kts | 120° |
| 2026-05-09 05:12 | 48.42671 | -95.61072 | 40742 ft | 532 kts | 120° |
| 2026-05-09 05:12 | 48.38925 | -95.51469 | 40752 ft | 532 kts | 120° |
| 2026-05-09 05:13 | 48.35171 | -95.41881 | 40740 ft | 532 kts | 120° |
| 2026-05-09 05:13 | 48.31411 | -95.32309 | 40743 ft | 532 kts | 120° |
| 2026-05-09 05:14 | 48.27642 | -95.22751 | 40730 ft | 532 kts | 120° |
| 2026-05-09 05:14 | 48.23867 | -95.13211 | 40725 ft | 532 kts | 120° |
| 2026-05-09 05:15 | 48.20084 | -95.03685 | 40717 ft | 532 kts | 120° |
| 2026-05-09 05:15 | 48.16292 | -94.94172 | 40722 ft | 532 kts | 120° |
| 2026-05-09 05:16 | 48.12493 | -94.84672 | 40716 ft | 532 kts | 121° |
| 2026-05-09 05:16 | 48.08686 | -94.75189 | 40720 ft | 531 kts | 121° |
| 2026-05-09 05:17 | 48.04875 | -94.65726 | 40714 ft | 531 kts | 121° |
| 2026-05-09 05:17 | 48.01028 | -94.56209 | 40711 ft | 531 kts | 121° |
| 2026-05-09 05:18 | 47.97199 | -94.46770 | 40710 ft | 532 kts | 121° |
| 2026-05-09 05:18 | 47.93360 | -94.37340 | 40715 ft | 532 kts | 121° |
| 2026-05-09 05:19 | 47.89514 | -94.27924 | 40720 ft | 532 kts | 121° |
| 2026-05-09 05:19 | 47.85665 | -94.18534 | 40721 ft | 531 kts | 121° |
| 2026-05-09 05:20 | 47.81807 | -94.09154 | 40713 ft | 531 kts | 121° |
| 2026-05-09 05:20 | 47.77943 | -93.99794 | 40711 ft | 531 kts | 121° |
| 2026-05-09 05:21 | 47.74092 | -93.90496 | 40711 ft | 531 kts | 121° |
| 2026-05-09 05:21 | 47.70183 | -93.81091 | 40712 ft | 531 kts | 121° |
| 2026-05-09 05:22 | 47.66319 | -93.71826 | 40707 ft | 532 kts | 122° |
| 2026-05-09 05:22 | 47.62424 | -93.62517 | 40701 ft | 531 kts | 122° |
| 2026-05-09 05:23 | 47.58517 | -93.53214 | 40702 ft | 531 kts | 122° |
| 2026-05-09 05:23 | 47.54608 | -93.43936 | 40693 ft | 531 kts | 122° |
| 2026-05-09 05:24 | 47.50688 | -93.34665 | 40691 ft | 531 kts | 122° |
| 2026-05-09 05:24 | 47.46763 | -93.25412 | 40693 ft | 531 kts | 122° |
| 2026-05-09 05:25 | 47.42834 | -93.16181 | 40686 ft | 531 kts | 122° |
| 2026-05-09 05:25 | 47.36924 | -93.02356 | 40683 ft | 531 kts | 122° |
| 2026-05-09 05:26 | 47.32973 | -92.93153 | 40674 ft | 531 kts | 122° |
| 2026-05-09 05:26 | 47.29019 | -92.83971 | 40673 ft | 530 kts | 122° |
| 2026-05-09 05:27 | 47.25060 | -92.74810 | 40677 ft | 530 kts | 122° |
| 2026-05-09 05:27 | 47.21096 | -92.65668 | 40684 ft | 530 kts | 122° |
| 2026-05-09 05:28 | 47.17122 | -92.56533 | 40683 ft | 530 kts | 123° |
| 2026-05-09 05:28 | 47.13142 | -92.47416 | 40683 ft | 530 kts | 123° |
| 2026-05-09 05:29 | 47.09154 | -92.38308 | 40673 ft | 530 kts | 123° |
| 2026-05-09 05:29 | 47.05162 | -92.29222 | 40665 ft | 530 kts | 123° |
| 2026-05-09 05:30 | 47.01160 | -92.20145 | 40657 ft | 530 kts | 123° |
| 2026-05-09 05:30 | 46.97152 | -92.11083 | 40656 ft | 530 kts | 123° |
| 2026-05-09 05:31 | 46.93140 | -92.02040 | 40656 ft | 530 kts | 123° |
| 2026-05-09 05:31 | 46.89119 | -91.93008 | 40655 ft | 530 kts | 123° |
| 2026-05-09 05:32 | 46.85097 | -91.84003 | 40654 ft | 529 kts | 123° |
| 2026-05-09 05:32 | 46.81066 | -91.75007 | 40655 ft | 529 kts | 123° |
| 2026-05-09 05:33 | 46.77028 | -91.66025 | 40654 ft | 529 kts | 123° |
| 2026-05-09 05:33 | 46.72981 | -91.57052 | 40646 ft | 529 kts | 123° |
| 2026-05-09 05:34 | 46.68929 | -91.48098 | 40646 ft | 529 kts | 124° |
| 2026-05-09 05:34 | 46.64869 | -91.39154 | 40644 ft | 529 kts | 124° |
| 2026-05-09 05:35 | 46.60807 | -91.30233 | 40646 ft | 529 kts | 124° |
| 2026-05-09 05:35 | 46.56737 | -91.21326 | 40646 ft | 529 kts | 124° |
| 2026-05-09 05:36 | 46.52662 | -91.12435 | 40646 ft | 529 kts | 124° |
| 2026-05-09 05:36 | 46.48578 | -91.03551 | 40646 ft | 529 kts | 124° |
| 2026-05-09 05:37 | 46.44489 | -90.94684 | 40645 ft | 529 kts | 124° |
| 2026-05-09 05:37 | 46.40394 | -90.85835 | 40646 ft | 529 kts | 124° |
| 2026-05-09 05:38 | 46.36293 | -90.77001 | 40646 ft | 528 kts | 124° |
| 2026-05-09 05:38 | 46.32187 | -90.68183 | 40644 ft | 528 kts | 124° |
| 2026-05-09 05:39 | 46.28075 | -90.59381 | 40635 ft | 528 kts | 124° |
| 2026-05-09 05:39 | 46.23960 | -90.50597 | 40637 ft | 528 kts | 125° |
| 2026-05-09 05:40 | 46.20505 | -90.43245 | 40637 ft | 528 kts | 125° |
| 2026-05-09 05:40 | 46.16374 | -90.34481 | 40632 ft | 528 kts | 125° |
| 2026-05-09 05:41 | 46.12241 | -90.25738 | 40629 ft | 528 kts | 125° |
| 2026-05-09 05:41 | 46.08098 | -90.17001 | 40612 ft | 527 kts | 125° |
| 2026-05-09 05:42 | 46.03953 | -90.08289 | 40616 ft | 527 kts | 125° |
| 2026-05-09 05:42 | 45.99900 | -89.99498 | 40623 ft | 528 kts | 120° |
| 2026-05-09 05:43 | 45.96324 | -89.90274 | 40616 ft | 528 kts | 119° |
| 2026-05-09 05:43 | 45.92835 | -89.80989 | 40612 ft | 528 kts | 119° |
| 2026-05-09 05:44 | 45.89351 | -89.71705 | 40604 ft | 528 kts | 119° |
| 2026-05-09 05:44 | 45.85851 | -89.62438 | 40604 ft | 528 kts | 119° |
| 2026-05-09 05:45 | 45.82338 | -89.53187 | 40611 ft | 528 kts | 119° |
| 2026-05-09 05:45 | 45.78814 | -89.43947 | 40620 ft | 528 kts | 119° |
| 2026-05-09 05:46 | 45.75283 | -89.34717 | 40621 ft | 528 kts | 120° |
| 2026-05-09 05:46 | 45.71744 | -89.25495 | 40615 ft | 529 kts | 120° |
| 2026-05-09 05:47 | 45.68196 | -89.16282 | 40617 ft | 529 kts | 120° |
| 2026-05-09 05:47 | 45.64642 | -89.07084 | 40615 ft | 529 kts | 120° |
| 2026-05-09 05:48 | 45.61079 | -88.97892 | 40620 ft | 529 kts | 120° |
| 2026-05-09 05:48 | 45.57510 | -88.88717 | 40622 ft | 529 kts | 120° |
| 2026-05-09 05:49 | 45.53932 | -88.79550 | 40613 ft | 529 kts | 120° |
| 2026-05-09 05:49 | 45.50346 | -88.70392 | 40617 ft | 529 kts | 120° |
| 2026-05-09 05:50 | 45.46752 | -88.61242 | 40628 ft | 529 kts | 120° |
| 2026-05-09 05:50 | 45.43151 | -88.52106 | 40628 ft | 529 kts | 120° |
| 2026-05-09 05:51 | 45.39543 | -88.42984 | 40627 ft | 529 kts | 120° |
| 2026-05-09 05:51 | 45.35929 | -88.33875 | 40626 ft | 529 kts | 120° |
| 2026-05-09 05:52 | 45.32306 | -88.24774 | 40630 ft | 529 kts | 120° |
| 2026-05-09 05:52 | 45.28673 | -88.15676 | 40632 ft | 529 kts | 121° |
| 2026-05-09 05:53 | 45.25034 | -88.06594 | 40636 ft | 529 kts | 121° |
| 2026-05-09 05:53 | 45.21391 | -87.97531 | 40645 ft | 529 kts | 121° |
| 2026-05-09 05:54 | 45.17737 | -87.88472 | 40648 ft | 529 kts | 121° |
| 2026-05-09 05:54 | 45.14075 | -87.79419 | 40654 ft | 529 kts | 121° |
| 2026-05-09 05:55 | 45.10405 | -87.70380 | 40653 ft | 529 kts | 121° |
| 2026-05-09 05:55 | 45.06729 | -87.61353 | 40650 ft | 530 kts | 121° |
| 2026-05-09 05:56 | 45.03045 | -87.52335 | 40653 ft | 530 kts | 121° |
| 2026-05-09 05:56 | 44.99353 | -87.43326 | 40664 ft | 530 kts | 121° |
| 2026-05-09 05:57 | 44.95652 | -87.34325 | 40664 ft | 530 kts | 121° |
| 2026-05-09 05:57 | 44.91944 | -87.25336 | 40674 ft | 530 kts | 121° |
| 2026-05-09 05:58 | 44.88225 | -87.16348 | 40664 ft | 530 kts | 121° |
| 2026-05-09 05:58 | 44.84501 | -87.07376 | 40664 ft | 530 kts | 122° |
| 2026-05-09 05:59 | 44.80768 | -86.98412 | 40655 ft | 530 kts | 122° |
| 2026-05-09 05:59 | 44.77029 | -86.89463 | 40656 ft | 530 kts | 122° |
| 2026-05-09 06:00 | 44.73283 | -86.80526 | 40673 ft | 531 kts | 122° |
| 2026-05-09 06:00 | 44.69529 | -86.71595 | 40683 ft | 531 kts | 122° |
| 2026-05-09 06:01 | 44.65764 | -86.62668 | 40691 ft | 531 kts | 122° |
| 2026-05-09 06:01 | 44.61992 | -86.53751 | 40695 ft | 531 kts | 122° |
| 2026-05-09 06:02 | 44.58211 | -86.44842 | 40702 ft | 531 kts | 122° |
| 2026-05-09 06:02 | 44.54423 | -86.35944 | 40706 ft | 531 kts | 122° |
| 2026-05-09 06:03 | 44.50626 | -86.27055 | 40694 ft | 531 kts | 122° |
| 2026-05-09 06:03 | 44.46826 | -86.18184 | 40702 ft | 531 kts | 122° |
| 2026-05-09 06:04 | 44.43026 | -86.09340 | 40702 ft | 531 kts | 122° |
| 2026-05-09 06:04 | 44.39215 | -86.00498 | 40702 ft | 530 kts | 122° |
| 2026-05-09 06:05 | 44.35402 | -85.91681 | 40702 ft | 530 kts | 122° |
| 2026-05-09 06:05 | 44.31578 | -85.82865 | 40709 ft | 530 kts | 122° |
| 2026-05-09 06:06 | 44.27752 | -85.74069 | 40712 ft | 530 kts | 122° |
| 2026-05-09 06:06 | 44.23916 | -85.65279 | 40726 ft | 530 kts | 123° |
| 2026-05-09 06:07 | 44.20075 | -85.56505 | 40732 ft | 530 kts | 123° |
| 2026-05-09 06:07 | 44.16224 | -85.47733 | 40728 ft | 530 kts | 123° |
| 2026-05-09 06:08 | 44.12370 | -85.38981 | 40726 ft | 530 kts | 123° |
| 2026-05-09 06:08 | 44.08509 | -85.30242 | 40740 ft | 530 kts | 123° |
| 2026-05-09 06:09 | 44.04643 | -85.21515 | 40736 ft | 530 kts | 123° |
| 2026-05-09 06:09 | 44.00771 | -85.12802 | 40744 ft | 530 kts | 123° |
| 2026-05-09 06:10 | 43.96890 | -85.04097 | 40739 ft | 530 kts | 123° |
| 2026-05-09 06:10 | 43.92998 | -84.95391 | 40750 ft | 531 kts | 123° |
| 2026-05-09 06:11 | 43.89098 | -84.86695 | 40754 ft | 531 kts | 123° |
| 2026-05-09 06:11 | 43.85191 | -84.78009 | 40761 ft | 531 kts | 123° |
| 2026-05-09 06:12 | 43.81279 | -84.69337 | 40761 ft | 531 kts | 123° |
| 2026-05-09 06:12 | 43.77358 | -84.60673 | 40760 ft | 531 kts | 123° |
| 2026-05-09 06:13 | 43.73435 | -84.52027 | 40760 ft | 530 kts | 123° |
| 2026-05-09 06:13 | 43.69506 | -84.43397 | 40764 ft | 530 kts | 123° |
| 2026-05-09 06:14 | 43.65574 | -84.34783 | 40769 ft | 530 kts | 124° |
| 2026-05-09 06:14 | 43.61631 | -84.26173 | 40769 ft | 530 kts | 124° |
| 2026-05-09 06:15 | 43.57684 | -84.17577 | 40770 ft | 530 kts | 124° |
| 2026-05-09 06:15 | 43.53729 | -84.08991 | 40784 ft | 530 kts | 124° |
| 2026-05-09 06:16 | 43.49773 | -84.00426 | 40786 ft | 530 kts | 124° |
| 2026-05-09 06:16 | 43.45803 | -83.91858 | 40781 ft | 530 kts | 124° |
| 2026-05-09 06:17 | 43.41830 | -83.83307 | 40777 ft | 530 kts | 124° |
| 2026-05-09 06:17 | 43.37851 | -83.74768 | 40777 ft | 530 kts | 124° |
| 2026-05-09 06:18 | 43.33865 | -83.66241 | 40784 ft | 530 kts | 124° |
| 2026-05-09 06:18 | 43.29869 | -83.57714 | 40786 ft | 531 kts | 124° |
| 2026-05-09 06:19 | 43.25869 | -83.49203 | 40786 ft | 531 kts | 124° |
| 2026-05-09 06:19 | 43.22539 | -83.42138 | 40794 ft | 531 kts | 124° |
| 2026-05-09 06:20 | 43.18524 | -83.33642 | 40795 ft | 531 kts | 125° |
| 2026-05-09 06:20 | 43.14506 | -83.25162 | 40803 ft | 530 kts | 125° |
| 2026-05-09 06:21 | 43.10478 | -83.16692 | 40804 ft | 531 kts | 125° |
| 2026-05-09 06:21 | 43.06451 | -83.08243 | 40805 ft | 530 kts | 125° |
| 2026-05-09 06:22 | 43.02417 | -82.99802 | 40803 ft | 530 kts | 125° |
| 2026-05-09 06:22 | 42.98370 | -82.91371 | 40798 ft | 531 kts | 125° |
| 2026-05-09 06:23 | 42.94323 | -82.82945 | 40799 ft | 531 kts | 125° |
| 2026-05-09 06:23 | 42.90265 | -82.74523 | 40807 ft | 531 kts | 125° |
| 2026-05-09 06:24 | 42.86202 | -82.66122 | 40804 ft | 531 kts | 126° |
| 2026-05-09 06:24 | 42.82258 | -82.57619 | 40805 ft | 533 kts | 119° |
| 2026-05-09 06:25 | 42.79756 | -82.48114 | 40802 ft | 535 kts | 105° |
| 2026-05-09 06:25 | 42.78047 | -82.38244 | 40804 ft | 537 kts | 103° |
| 2026-05-09 06:26 | 42.76447 | -82.28325 | 40803 ft | 537 kts | 103° |
| 2026-05-09 06:26 | 42.74819 | -82.18403 | 40804 ft | 537 kts | 103° |
| 2026-05-09 06:27 | 42.73155 | -82.08494 | 40804 ft | 537 kts | 104° |
| 2026-05-09 06:27 | 42.71475 | -81.98599 | 40812 ft | 537 kts | 104° |
| 2026-05-09 06:28 | 42.69796 | -81.88696 | 40813 ft | 538 kts | 104° |
| 2026-05-09 06:28 | 42.68103 | -81.78792 | 40818 ft | 538 kts | 104° |
| 2026-05-09 06:29 | 42.66396 | -81.68898 | 40823 ft | 537 kts | 104° |
| 2026-05-09 06:29 | 42.64686 | -81.59009 | 40823 ft | 538 kts | 104° |
| 2026-05-09 06:30 | 42.62966 | -81.49133 | 40823 ft | 537 kts | 104° |
| 2026-05-09 06:30 | 42.61245 | -81.39267 | 40832 ft | 537 kts | 104° |
| 2026-05-09 06:31 | 42.59507 | -81.29404 | 40832 ft | 537 kts | 104° |
| 2026-05-09 06:31 | 42.57758 | -81.19550 | 40832 ft | 538 kts | 104° |
| 2026-05-09 06:32 | 42.56002 | -81.09693 | 40846 ft | 537 kts | 104° |
| 2026-05-09 06:33 | 42.53362 | -80.94916 | 40850 ft | 537 kts | 105° |
| 2026-05-09 06:33 | 42.51586 | -80.85075 | 40852 ft | 538 kts | 105° |
| 2026-05-09 06:34 | 42.48908 | -80.70303 | 40850 ft | 538 kts | 105° |
| 2026-05-09 06:34 | 42.47113 | -80.60458 | 40858 ft | 538 kts | 105° |
| 2026-05-09 06:35 | 42.45312 | -80.50630 | 40860 ft | 538 kts | 105° |
| 2026-05-09 06:35 | 42.43508 | -80.40873 | 40861 ft | 538 kts | 105° |
| 2026-05-09 06:36 | 42.41664 | -80.30975 | 40860 ft | 539 kts | 105° |
| 2026-05-09 06:36 | 42.39842 | -80.21211 | 40878 ft | 539 kts | 105° |
| 2026-05-09 06:37 | 42.38001 | -80.11386 | 40870 ft | 539 kts | 105° |
| 2026-05-09 06:37 | 42.36153 | -80.01564 | 40871 ft | 539 kts | 105° |
| 2026-05-09 06:38 | 42.34294 | -79.91748 | 40876 ft | 539 kts | 105° |
| 2026-05-09 06:38 | 42.32425 | -79.81940 | 40876 ft | 539 kts | 106° |
| 2026-05-09 06:39 | 42.30548 | -79.72140 | 40882 ft | 539 kts | 106° |
| 2026-05-09 06:39 | 42.28666 | -79.62343 | 40874 ft | 539 kts | 106° |
| 2026-05-09 06:40 | 42.26773 | -79.52543 | 40872 ft | 539 kts | 106° |
| 2026-05-09 06:40 | 42.24873 | -79.42759 | 40884 ft | 539 kts | 106° |
| 2026-05-09 06:41 | 42.22964 | -79.32977 | 40894 ft | 539 kts | 106° |
| 2026-05-09 06:41 | 42.21047 | -79.23206 | 40893 ft | 539 kts | 106° |
| 2026-05-09 06:42 | 42.19122 | -79.13439 | 40895 ft | 539 kts | 106° |
| 2026-05-09 06:42 | 42.16990 | -79.03753 | 40899 ft | 538 kts | 110° |
| 2026-05-09 06:43 | 42.14518 | -78.94236 | 40897 ft | 538 kts | 111° |
| 2026-05-09 06:43 | 42.12037 | -78.84713 | 40899 ft | 539 kts | 110° |
| 2026-05-09 06:44 | 42.09607 | -78.75175 | 40906 ft | 539 kts | 110° |
| 2026-05-09 06:44 | 42.07193 | -78.65623 | 40908 ft | 539 kts | 110° |
| 2026-05-09 06:45 | 42.04775 | -78.56074 | 40906 ft | 539 kts | 110° |
| 2026-05-09 06:45 | 42.02345 | -78.46529 | 40906 ft | 540 kts | 110° |
| 2026-05-09 06:46 | 41.99906 | -78.36991 | 40906 ft | 540 kts | 110° |
| 2026-05-09 06:46 | 41.97453 | -78.27443 | 40915 ft | 540 kts | 110° |
| 2026-05-09 06:47 | 41.94993 | -78.17904 | 40914 ft | 540 kts | 111° |
| 2026-05-09 06:47 | 41.92525 | -78.08371 | 40915 ft | 540 kts | 111° |
| 2026-05-09 06:48 | 41.90049 | -77.98843 | 40914 ft | 540 kts | 111° |
| 2026-05-09 06:48 | 41.87567 | -77.89329 | 40914 ft | 540 kts | 111° |
| 2026-05-09 06:49 | 41.85079 | -77.79817 | 40914 ft | 540 kts | 111° |
| 2026-05-09 06:49 | 41.82579 | -77.70315 | 40917 ft | 540 kts | 111° |
| 2026-05-09 06:50 | 41.80071 | -77.60829 | 40918 ft | 540 kts | 111° |
| 2026-05-09 06:50 | 41.77554 | -77.51341 | 40914 ft | 541 kts | 111° |
| 2026-05-09 06:51 | 41.75026 | -77.41845 | 40916 ft | 541 kts | 111° |
| 2026-05-09 06:51 | 41.72494 | -77.32363 | 40916 ft | 541 kts | 111° |
| 2026-05-09 06:52 | 41.69949 | -77.22870 | 40916 ft | 542 kts | 111° |
| 2026-05-09 06:52 | 41.67398 | -77.13390 | 40924 ft | 542 kts | 111° |
| 2026-05-09 06:53 | 41.64836 | -77.03911 | 40927 ft | 542 kts | 111° |
| 2026-05-09 06:53 | 41.62264 | -76.94438 | 40934 ft | 542 kts | 111° |
| 2026-05-09 06:54 | 41.59684 | -76.84967 | 40943 ft | 542 kts | 111° |
| 2026-05-09 06:54 | 41.57097 | -76.75507 | 40952 ft | 542 kts | 112° |
| 2026-05-09 06:55 | 41.54503 | -76.66056 | 40952 ft | 542 kts | 112° |
| 2026-05-09 06:55 | 41.51900 | -76.56603 | 40954 ft | 542 kts | 112° |
| 2026-05-09 06:56 | 41.49290 | -76.47165 | 40960 ft | 542 kts | 112° |
| 2026-05-09 06:56 | 41.46674 | -76.37737 | 40960 ft | 542 kts | 112° |
| 2026-05-09 06:57 | 41.44051 | -76.28317 | 40964 ft | 542 kts | 112° |
| 2026-05-09 06:57 | 41.41420 | -76.18902 | 40962 ft | 542 kts | 112° |
| 2026-05-09 06:58 | 41.38780 | -76.09491 | 40967 ft | 542 kts | 112° |
| 2026-05-09 06:58 | 41.36136 | -76.00097 | 40978 ft | 542 kts | 112° |
| 2026-05-09 06:59 | 41.33483 | -75.90710 | 40906 ft | 537 kts | 112° |
| 2026-05-09 06:59 | 41.32173 | -75.86082 | 40288 ft | 534 kts | 112° |
| 2026-05-09 06:59 | 41.30860 | -75.81457 | 39459 ft | 535 kts | 112° |
| 2026-05-09 07:00 | 41.29541 | -75.76824 | 38568 ft | 537 kts | 112° |
| 2026-05-09 07:00 | 41.28214 | -75.72168 | 37678 ft | 539 kts | 112° |
| 2026-05-09 07:00 | 41.26882 | -75.67512 | 36801 ft | 538 kts | 113° |
| 2026-05-09 07:00 | 41.25413 | -75.62952 | 35939 ft | 536 kts | 116° |
| 2026-05-09 07:01 | 41.23866 | -75.58435 | 35028 ft | 538 kts | 116° |
| 2026-05-09 07:01 | 41.22320 | -75.53917 | 33965 ft | 534 kts | 116° |
| 2026-05-09 07:01 | 41.21321 | -75.50974 | 33218 ft | 529 kts | 116° |
| 2026-05-09 07:01 | 41.19721 | -75.46246 | 32175 ft | 515 kts | 116° |
| 2026-05-09 07:02 | 41.18755 | -75.43383 | 31552 ft | 512 kts | 116° |
| 2026-05-09 07:02 | 41.17297 | -75.39065 | 30585 ft | 514 kts | 116° |
| 2026-05-09 07:02 | 41.15830 | -75.34728 | 29590 ft | 516 kts | 116° |
| 2026-05-09 07:02 | 41.14355 | -75.30375 | 28665 ft | 518 kts | 116° |
| 2026-05-09 07:03 | 41.12885 | -75.26032 | 27943 ft | 515 kts | 116° |
| 2026-05-09 07:03 | 41.11429 | -75.21721 | 27229 ft | 511 kts | 116° |
| 2026-05-09 07:03 | 41.09976 | -75.17427 | 26504 ft | 508 kts | 116° |
| 2026-05-09 07:03 | 41.08538 | -75.13180 | 25786 ft | 504 kts | 116° |
| 2026-05-09 07:04 | 41.07107 | -75.08960 | 25075 ft | 499 kts | 116° |
| 2026-05-09 07:04 | 41.05686 | -75.04790 | 24378 ft | 494 kts | 116° |
| 2026-05-09 07:04 | 41.04281 | -75.00664 | 23678 ft | 489 kts | 116° |
| 2026-05-09 07:04 | 41.02889 | -74.96583 | 22979 ft | 483 kts | 116° |
| 2026-05-09 07:05 | 41.01514 | -74.92554 | 22286 ft | 477 kts | 116° |
| 2026-05-09 07:05 | 41.00177 | -74.88558 | 21597 ft | 472 kts | 113° |
| 2026-05-09 07:05 | 40.99287 | -74.84402 | 20917 ft | 468 kts | 101° |
| 2026-05-09 07:05 | 40.98758 | -74.80180 | 20228 ft | 463 kts | 99° |
| 2026-05-09 07:06 | 40.98286 | -74.75996 | 19539 ft | 457 kts | 99° |
| 2026-05-09 07:06 | 40.97818 | -74.71865 | 18856 ft | 451 kts | 99° |
| 2026-05-09 07:06 | 40.97347 | -74.67779 | 18160 ft | 446 kts | 99° |
| 2026-05-09 07:06 | 40.96878 | -74.63754 | 17468 ft | 441 kts | 99° |
| 2026-05-09 07:07 | 40.96412 | -74.59770 | 16777 ft | 435 kts | 99° |
| 2026-05-09 07:07 | 40.95948 | -74.55835 | 16086 ft | 430 kts | 99° |
| 2026-05-09 07:07 | 40.95487 | -74.51951 | 15399 ft | 425 kts | 99° |
| 2026-05-09 07:07 | 40.95030 | -74.48112 | 14730 ft | 419 kts | 99° |
| 2026-05-09 07:08 | 40.94579 | -74.44326 | 14042 ft | 414 kts | 99° |
| 2026-05-09 07:08 | 40.94133 | -74.40587 | 13360 ft | 409 kts | 99° |
| 2026-05-09 07:08 | 40.93689 | -74.36900 | 12687 ft | 403 kts | 99° |
| 2026-05-09 07:08 | 40.93251 | -74.33268 | 12017 ft | 398 kts | 99° |
| 2026-05-09 07:09 | 40.92817 | -74.29678 | 11347 ft | 392 kts | 99° |
| 2026-05-09 07:09 | 40.92393 | -74.26155 | 10824 ft | 383 kts | 99° |
| 2026-05-09 07:09 | 40.91983 | -74.22767 | 10674 ft | 363 kts | 99° |
| 2026-05-09 07:09 | 40.91591 | -74.19555 | 10548 ft | 345 kts | 99° |
| 2026-05-09 07:10 | 40.91217 | -74.16498 | 10413 ft | 329 kts | 99° |
| 2026-05-09 07:10 | 40.90839 | -74.13586 | 10274 ft | 314 kts | 102° |
| 2026-05-09 07:10 | 40.90102 | -74.10963 | 10143 ft | 297 kts | 120° |
| 2026-05-09 07:10 | 40.89060 | -74.08676 | 10019 ft | 285 kts | 124° |
| 2026-05-09 07:11 | 40.87985 | -74.06496 | 9873 ft | 287 kts | 125° |
| 2026-05-09 07:11 | 40.86862 | -74.04238 | 9816 ft | 298 kts | 125° |
| 2026-05-09 07:11 | 40.85737 | -74.01956 | 9422 ft | 296 kts | 124° |
| 2026-05-09 07:11 | 40.84618 | -73.99675 | 8972 ft | 296 kts | 125° |
| 2026-05-09 07:12 | 40.83503 | -73.97402 | 8628 ft | 294 kts | 124° |
| 2026-05-09 07:12 | 40.82398 | -73.95141 | 8316 ft | 292 kts | 124° |
| 2026-05-09 07:12 | 40.81294 | -73.92891 | 8011 ft | 291 kts | 124° |
| 2026-05-09 07:12 | 40.80198 | -73.90653 | 7676 ft | 290 kts | 125° |
| 2026-05-09 07:13 | 40.79107 | -73.88430 | 7344 ft | 287 kts | 124° |
| 2026-05-09 07:13 | 40.78023 | -73.86222 | 7019 ft | 286 kts | 125° |
| 2026-05-09 07:13 | 40.76863 | -73.84115 | 6799 ft | 282 kts | 136° |
| 2026-05-09 07:13 | 40.75243 | -73.82747 | 6608 ft | 275 kts | 163° |
| 2026-05-09 07:14 | 40.73409 | -73.82478 | 6406 ft | 260 kts | 188° |
| 2026-05-09 07:14 | 40.71665 | -73.82867 | 6194 ft | 249 kts | 196° |
| 2026-05-09 07:14 | 40.70133 | -73.83794 | 5989 ft | 238 kts | 214° |
| 2026-05-09 07:14 | 40.68789 | -73.85015 | 5786 ft | 233 kts | 217° |
| 2026-05-09 07:15 | 40.67459 | -73.86207 | 5582 ft | 230 kts | 214° |
| 2026-05-09 07:15 | 40.66121 | -73.87358 | 5381 ft | 230 kts | 214° |
| 2026-05-09 07:15 | 40.64784 | -73.88506 | 5192 ft | 229 kts | 214° |
| 2026-05-09 07:15 | 40.63453 | -73.89645 | 4983 ft | 228 kts | 214° |
| 2026-05-09 07:16 | 40.62130 | -73.90780 | 4759 ft | 226 kts | 214° |
| 2026-05-09 07:16 | 40.60802 | -73.91916 | 4273 ft | 231 kts | 214° |
| 2026-05-09 07:16 | 40.59458 | -73.93068 | 3725 ft | 229 kts | 214° |
| 2026-05-09 07:16 | 40.58133 | -73.94203 | 3172 ft | 225 kts | 214° |
| 2026-05-09 07:17 | 40.56792 | -73.95357 | 2601 ft | 222 kts | 213° |
| 2026-05-09 07:17 | 40.55577 | -73.96467 | 2153 ft | 216 kts | 214° |
| 2026-05-09 07:17 | 40.54368 | -73.97489 | 1994 ft | 196 kts | 207° |
| 2026-05-09 07:17 | 40.53118 | -73.98286 | 1994 ft | 209 kts | 205° |
| 2026-05-09 07:18 | 40.51836 | -73.98959 | 1977 ft | 188 kts | 198° |
| 2026-05-09 07:18 | 40.50624 | -73.99288 | 1967 ft | 169 kts | 180° |
| 2026-05-09 07:18 | 40.49581 | -73.98737 | 1987 ft | 163 kts | 141° |
| 2026-05-09 07:18 | 40.48807 | -73.97643 | 1984 ft | 164 kts | 130° |
| 2026-05-09 07:19 | 40.48119 | -73.96438 | 1981 ft | 165 kts | 128° |
| 2026-05-09 07:19 | 40.47477 | -73.95183 | 1980 ft | 166 kts | 121° |
| 2026-05-09 07:19 | 40.46947 | -73.93833 | 1981 ft | 167 kts | 117° |
| 2026-05-09 07:19 | 40.46621 | -73.92372 | 1978 ft | 168 kts | 95° |
| 2026-05-09 07:20 | 40.46986 | -73.90950 | 1996 ft | 163 kts | 55° |
| 2026-05-09 07:20 | 40.47726 | -73.89892 | 1989 ft | 156 kts | 38° |
| 2026-05-09 07:20 | 40.48635 | -73.89134 | 1991 ft | 154 kts | 30° |
| 2026-05-09 07:20 | 40.49552 | -73.88435 | 1988 ft | 149 kts | 31° |
| 2026-05-09 07:21 | 40.50424 | -73.87758 | 1987 ft | 143 kts | 32° |
| 2026-05-09 07:21 | 40.51272 | -73.87096 | 1983 ft | 141 kts | 33° |
| 2026-05-09 07:21 | 40.52113 | -73.86439 | 1978 ft | 141 kts | 33° |
| 2026-05-09 07:21 | 40.52954 | -73.85781 | 1978 ft | 140 kts | 33° |
| 2026-05-09 07:22 | 40.53794 | -73.85124 | 1956 ft | 141 kts | 33° |
| 2026-05-09 07:22 | 40.54631 | -73.84468 | 1784 ft | 137 kts | 32° |
| 2026-05-09 07:22 | 40.55435 | -73.83842 | 1604 ft | 132 kts | 32° |
| 2026-05-09 07:22 | 40.56220 | -73.83230 | 1426 ft | 131 kts | 32° |
| 2026-05-09 07:23 | 40.56999 | -73.82621 | 1257 ft | 130 kts | 31° |
| 2026-05-09 07:23 | 40.57774 | -73.82012 | 1058 ft | 129 kts | 31° |
| 2026-05-09 07:23 | 40.58550 | -73.81412 | 887 ft | 130 kts | 30° |
| 2026-05-09 07:23 | 40.59314 | -73.80803 | 752 ft | 130 kts | 31° |
| 2026-05-09 07:24 | 40.60094 | -73.80196 | 576 ft | 130 kts | 30° |
| 2026-05-09 07:24 | 40.60871 | -73.79608 | 389 ft | 128 kts | 31° |
| 2026-05-09 07:24 | 40.61635 | -73.79006 | 218 ft | 128 kts | 32° |
| 2026-05-09 07:24 | 40.62400 | -73.78407 | 50 ft | 127 kts | 29° |
| 2026-05-09 07:25 | 40.63091 | -73.77867 | 34 ft | 92 kts | 31° |
| 2026-05-09 07:25 | 40.63475 | -73.77568 | 30 ft | 49 kts | 31° |
| 2026-05-09 07:25 | 40.63676 | -73.77422 | 27 ft | 23 kts | 15° |
| 2026-05-09 07:25 | 40.63822 | -73.77410 | 30 ft | 12 kts | 1° |
| 2026-05-09 07:26 | 40.63905 | -73.77393 | 27 ft | 11 kts | 22° |
| 2026-05-09 07:26 | 40.63982 | -73.77341 | 27 ft | 10 kts | 24° |
| 2026-05-09 07:26 | 40.64032 | -73.77371 | 28 ft | 9 kts | 314° |
| 2026-05-09 07:26 | 40.64083 | -73.77452 | 29 ft | 13 kts | 313° |
| 2026-05-09 07:27 | 40.64160 | -73.77537 | 29 ft | 16 kts | 326° |
| 2026-05-09 07:27 | 40.64254 | -73.77609 | 29 ft | 13 kts | 333° |
| 2026-05-09 07:27 | 40.64321 | -73.77656 | 29 ft | 10 kts | 330° |
| 2026-05-09 07:27 | 40.64354 | -73.77682 | 29 ft | 5 kts | 327° |
| 2026-05-09 07:28 | 40.64374 | -73.77728 | 29 ft | 7 kts | 274° |
| 2026-05-09 07:28 | 40.64366 | -73.77779 | 29 ft | 4 kts | 255° |
| 2026-05-09 07:28 | 40.64359 | -73.77811 | 29 ft | 2 kts | 252° |
| 2026-05-09 07:28 | 40.64358 | -73.77814 | 29 ft | 0 kts | 252° |
| 2026-05-09 07:29 | 40.64355 | -73.77826 | 29 ft | 2 kts | 252° |
| 2026-05-09 07:29 | 40.64353 | -73.77834 | 29 ft | 0 kts | 252° |